<?xml version='1.0' encoding='UTF-8'?><gpx version="1.1" creator="JPX - https://github.com/jenetics/jpx" xmlns="http://www.topografix.com/GPX/1/1"><trk><trkseg><trkpt lat="48.8817717" lon="9.4418374"><ele>416.5714285714286</ele><time>2026-05-02T11:39:12.406Z</time></trkpt><trkpt lat="48.8817022" lon="9.4418788"><ele>416.1428571428571</ele><time>2026-05-02T11:44:13.392Z</time></trkpt><trkpt lat="48.8816401" lon="9.4418322"><ele>415.7142857142857</ele><time>2026-05-02T11:44:17.391Z</time></trkpt><trkpt lat="48.8816243" lon="9.4417217"><ele>415.28571428571433</ele><time>2026-05-02T11:44:23.392Z</time></trkpt><trkpt lat="48.8816604" lon="9.4416213"><ele>414.8571428571429</ele><time>2026-05-02T11:44:27.392Z</time></trkpt><trkpt lat="48.8816817" lon="9.4415301"><ele>414.42857142857144</ele><time>2026-05-02T11:44:31.392Z</time></trkpt><trkpt lat="48.8816431" lon="9.4414382"><ele>414.0</ele><time>2026-05-02T11:44:37.392Z</time></trkpt><trkpt lat="48.8815721" lon="9.441368"><ele>414.00000000000006</ele><time>2026-05-02T11:44:39.392Z</time></trkpt><trkpt lat="48.8815108" lon="9.4413032"><ele>414.0</ele><time>2026-05-02T11:44:41.391Z</time></trkpt><trkpt lat="48.8814418" lon="9.4412409"><ele>414.0</ele><time>2026-05-02T11:44:43.391Z</time></trkpt><trkpt lat="48.8813603" lon="9.4411944"><ele>414.0</ele><time>2026-05-02T11:44:46.392Z</time></trkpt><trkpt lat="48.8812957" lon="9.4411686"><ele>414.0</ele><time>2026-05-02T11:44:50.392Z</time></trkpt><trkpt lat="48.8813474" lon="9.4412296"><ele>414.00000000000006</ele><time>2026-05-02T11:44:57.392Z</time></trkpt><trkpt lat="48.8814211" lon="9.4412425"><ele>414.0</ele><time>2026-05-02T11:45:00.394Z</time></trkpt><trkpt lat="48.881478" lon="9.4412878"><ele>414.0</ele><time>2026-05-02T11:45:02.395Z</time></trkpt><trkpt lat="48.8815575" lon="9.4413326"><ele>414.0</ele><time>2026-05-02T11:45:04.394Z</time></trkpt><trkpt lat="48.8816286" lon="9.441399"><ele>414.0</ele><time>2026-05-02T11:45:06.395Z</time></trkpt><trkpt lat="48.8817006" lon="9.4414647"><ele>414.0</ele><time>2026-05-02T11:45:09.395Z</time></trkpt><trkpt lat="48.8817679" lon="9.4415388"><ele>414.0</ele><time>2026-05-02T11:45:12.395Z</time></trkpt><trkpt lat="48.8818243" lon="9.4415993"><ele>414.0</ele><time>2026-05-02T11:45:14.395Z</time></trkpt><trkpt lat="48.8818839" lon="9.4416543"><ele>414.5</ele><time>2026-05-02T11:45:16.395Z</time></trkpt><trkpt lat="48.8819497" lon="9.4417087"><ele>415.0</ele><time>2026-05-02T11:45:18.395Z</time></trkpt><trkpt lat="48.8820213" lon="9.4417435"><ele>415.5</ele><time>2026-05-02T11:45:20.395Z</time></trkpt><trkpt lat="48.8820866" lon="9.4417667"><ele>416.0</ele><time>2026-05-02T11:45:22.395Z</time></trkpt><trkpt lat="48.8821527" lon="9.4418138"><ele>416.5</ele><time>2026-05-02T11:45:24.395Z</time></trkpt><trkpt lat="48.8822518" lon="9.4418447"><ele>417.0</ele><time>2026-05-02T11:45:26.395Z</time></trkpt><trkpt lat="48.8823302" lon="9.4418853"><ele>417.0</ele><time>2026-05-02T11:45:29.395Z</time></trkpt><trkpt lat="48.8824218" lon="9.4419275"><ele>417.0</ele><time>2026-05-02T11:45:32.395Z</time></trkpt><trkpt lat="48.8824991" lon="9.4419743"><ele>417.0</ele><time>2026-05-02T11:45:34.394Z</time></trkpt><trkpt lat="48.882573" lon="9.4420076"><ele>417.0</ele><time>2026-05-02T11:45:36.394Z</time></trkpt><trkpt lat="48.8826635" lon="9.4420502"><ele>417.0</ele><time>2026-05-02T11:45:38.395Z</time></trkpt><trkpt lat="48.882733" lon="9.4421314"><ele>417.0</ele><time>2026-05-02T11:45:40.395Z</time></trkpt><trkpt lat="48.8827972" lon="9.4422196"><ele>418.3333333333333</ele><time>2026-05-02T11:45:42.395Z</time></trkpt><trkpt lat="48.8828449" lon="9.4422891"><ele>419.66666666666663</ele><time>2026-05-02T11:45:44.395Z</time></trkpt><trkpt lat="48.8829072" lon="9.4423151"><ele>421.0</ele><time>2026-05-02T11:45:52.395Z</time></trkpt><trkpt lat="48.882949" lon="9.442235"><ele>422.3333333333333</ele><time>2026-05-02T11:45:54.394Z</time></trkpt><trkpt lat="48.8829569" lon="9.4420895"><ele>423.66666666666663</ele><time>2026-05-02T11:45:56.394Z</time></trkpt><trkpt lat="48.8829725" lon="9.4419404"><ele>425.0</ele><time>2026-05-02T11:45:58.395Z</time></trkpt><trkpt lat="48.8829863" lon="9.4418402"><ele>424.99999999999994</ele><time>2026-05-02T11:45:59.395Z</time></trkpt><trkpt lat="48.8829804" lon="9.4417198"><ele>425.0</ele><time>2026-05-02T11:46:00.394Z</time></trkpt><trkpt lat="48.8829659" lon="9.4415885"><ele>425.0</ele><time>2026-05-02T11:46:01.395Z</time></trkpt><trkpt lat="48.8829339" lon="9.4414573"><ele>425.0</ele><time>2026-05-02T11:46:02.395Z</time></trkpt><trkpt lat="48.8828967" lon="9.4413393"><ele>424.99999999999994</ele><time>2026-05-02T11:46:03.395Z</time></trkpt><trkpt lat="48.8828608" lon="9.4412406"><ele>425.0</ele><time>2026-05-02T11:46:04.395Z</time></trkpt><trkpt lat="48.8827899" lon="9.4411109"><ele>423.8</ele><time>2026-05-02T11:46:06.395Z</time></trkpt><trkpt lat="48.8827353" lon="9.4409912"><ele>422.6</ele><time>2026-05-02T11:46:08.395Z</time></trkpt><trkpt lat="48.8827314" lon="9.440867"><ele>421.4</ele><time>2026-05-02T11:46:10.395Z</time></trkpt><trkpt lat="48.882773" lon="9.4407537"><ele>420.2</ele><time>2026-05-02T11:46:12.395Z</time></trkpt><trkpt lat="48.8828439" lon="9.4406513"><ele>419.0</ele><time>2026-05-02T11:46:14.395Z</time></trkpt><trkpt lat="48.8829454" lon="9.4405449"><ele>419.0</ele><time>2026-05-02T11:46:16.395Z</time></trkpt><trkpt lat="48.8830502" lon="9.4404773"><ele>419.0</ele><time>2026-05-02T11:46:18.395Z</time></trkpt><trkpt lat="48.883152" lon="9.4404075"><ele>419.0</ele><time>2026-05-02T11:46:20.395Z</time></trkpt><trkpt lat="48.8832695" lon="9.4403503"><ele>419.0</ele><time>2026-05-02T11:46:22.395Z</time></trkpt><trkpt lat="48.8833724" lon="9.4402981"><ele>419.79999999999995</ele><time>2026-05-02T11:46:24.395Z</time></trkpt><trkpt lat="48.88347" lon="9.4402463"><ele>420.59999999999997</ele><time>2026-05-02T11:46:26.395Z</time></trkpt><trkpt lat="48.8835668" lon="9.4401832"><ele>421.4</ele><time>2026-05-02T11:46:28.395Z</time></trkpt><trkpt lat="48.883668" lon="9.4401195"><ele>422.2</ele><time>2026-05-02T11:46:30.394Z</time></trkpt><trkpt lat="48.88378" lon="9.4400429"><ele>423.0</ele><time>2026-05-02T11:46:32.395Z</time></trkpt><trkpt lat="48.8838501" lon="9.4399936"><ele>423.0</ele><time>2026-05-02T11:46:33.395Z</time></trkpt><trkpt lat="48.8839259" lon="9.4399375"><ele>423.0</ele><time>2026-05-02T11:46:34.395Z</time></trkpt><trkpt lat="48.8839973" lon="9.4398788"><ele>423.0</ele><time>2026-05-02T11:46:35.395Z</time></trkpt><trkpt lat="48.8840715" lon="9.4398148"><ele>423.0</ele><time>2026-05-02T11:46:36.395Z</time></trkpt><trkpt lat="48.8841417" lon="9.4397482"><ele>423.0</ele><time>2026-05-02T11:46:37.394Z</time></trkpt><trkpt lat="48.8842019" lon="9.4396793"><ele>423.0</ele><time>2026-05-02T11:46:38.395Z</time></trkpt><trkpt lat="48.8842594" lon="9.4396276"><ele>422.59999999999997</ele><time>2026-05-02T11:46:39.395Z</time></trkpt><trkpt lat="48.8843514" lon="9.4395327"><ele>422.2</ele><time>2026-05-02T11:46:41.395Z</time></trkpt><trkpt lat="48.8844381" lon="9.4394455"><ele>421.8</ele><time>2026-05-02T11:46:43.394Z</time></trkpt><trkpt lat="48.8845199" lon="9.4393601"><ele>421.4</ele><time>2026-05-02T11:46:45.395Z</time></trkpt><trkpt lat="48.8846144" lon="9.4392642"><ele>421.0</ele><time>2026-05-02T11:46:47.395Z</time></trkpt><trkpt lat="48.8847133" lon="9.4391663"><ele>421.0</ele><time>2026-05-02T11:46:49.395Z</time></trkpt><trkpt lat="48.8848186" lon="9.4390524"><ele>421.0</ele><time>2026-05-02T11:46:51.395Z</time></trkpt><trkpt lat="48.8848718" lon="9.4389968"><ele>421.0</ele><time>2026-05-02T11:46:52.395Z</time></trkpt><trkpt lat="48.8849625" lon="9.4388851"><ele>421.0</ele><time>2026-05-02T11:46:54.395Z</time></trkpt><trkpt lat="48.8850638" lon="9.4387897"><ele>421.0</ele><time>2026-05-02T11:46:56.395Z</time></trkpt><trkpt lat="48.8851537" lon="9.4386991"><ele>420.1666666666667</ele><time>2026-05-02T11:46:58.395Z</time></trkpt><trkpt lat="48.8852402" lon="9.4386053"><ele>419.33333333333337</ele><time>2026-05-02T11:47:00.395Z</time></trkpt><trkpt lat="48.8853303" lon="9.4385243"><ele>418.5</ele><time>2026-05-02T11:47:02.395Z</time></trkpt><trkpt lat="48.885406" lon="9.4384829"><ele>417.66666666666663</ele><time>2026-05-02T11:47:04.394Z</time></trkpt><trkpt lat="48.8854717" lon="9.4385073"><ele>416.8333333333333</ele><time>2026-05-02T11:47:06.395Z</time></trkpt><trkpt lat="48.8855054" lon="9.4385962"><ele>416.0</ele><time>2026-05-02T11:47:08.395Z</time></trkpt><trkpt lat="48.8855752" lon="9.4386123"><ele>416.0</ele><time>2026-05-02T11:47:12.394Z</time></trkpt><trkpt lat="48.8855562" lon="9.4385092"><ele>416.0</ele><time>2026-05-02T11:47:16.395Z</time></trkpt><trkpt lat="48.8855092" lon="9.4384357"><ele>416.0</ele><time>2026-05-02T11:47:20.395Z</time></trkpt><trkpt lat="48.8854427" lon="9.4384516"><ele>416.0</ele><time>2026-05-02T11:49:32.395Z</time></trkpt><trkpt lat="48.8853693" lon="9.4384749"><ele>416.0</ele><time>2026-05-02T11:49:34.394Z</time></trkpt><trkpt lat="48.8853033" lon="9.4385382"><ele>416.0</ele><time>2026-05-02T11:49:36.395Z</time></trkpt><trkpt lat="48.8852364" lon="9.4386138"><ele>416.0</ele><time>2026-05-02T11:49:38.395Z</time></trkpt><trkpt lat="48.8851549" lon="9.4387039"><ele>415.99999999999994</ele><time>2026-05-02T11:49:40.395Z</time></trkpt><trkpt lat="48.8850997" lon="9.4387645"><ele>416.0</ele><time>2026-05-02T11:49:42.395Z</time></trkpt><trkpt lat="48.885036" lon="9.4388299"><ele>416.0</ele><time>2026-05-02T11:49:45.395Z</time></trkpt><trkpt lat="48.8849654" lon="9.4388985"><ele>416.0</ele><time>2026-05-02T11:49:47.395Z</time></trkpt><trkpt lat="48.8848789" lon="9.4389902"><ele>415.99999999999994</ele><time>2026-05-02T11:49:49.395Z</time></trkpt><trkpt lat="48.8848255" lon="9.4390495"><ele>416.0</ele><time>2026-05-02T11:49:50.395Z</time></trkpt><trkpt lat="48.8847715" lon="9.4391058"><ele>416.8333333333333</ele><time>2026-05-02T11:49:51.395Z</time></trkpt><trkpt lat="48.884718" lon="9.4391671"><ele>417.66666666666663</ele><time>2026-05-02T11:49:52.395Z</time></trkpt><trkpt lat="48.8846622" lon="9.439229"><ele>418.5</ele><time>2026-05-02T11:49:53.394Z</time></trkpt><trkpt lat="48.8845834" lon="9.4393197"><ele>419.33333333333337</ele><time>2026-05-02T11:49:55.394Z</time></trkpt><trkpt lat="48.8845303" lon="9.4393749"><ele>420.1666666666667</ele><time>2026-05-02T11:49:57.394Z</time></trkpt><trkpt lat="48.8844712" lon="9.4394334"><ele>421.0</ele><time>2026-05-02T11:49:59.395Z</time></trkpt><trkpt lat="48.8844001" lon="9.4394924"><ele>421.00000000000006</ele><time>2026-05-02T11:50:01.395Z</time></trkpt><trkpt lat="48.8843358" lon="9.4395514"><ele>421.0</ele><time>2026-05-02T11:50:03.395Z</time></trkpt><trkpt lat="48.8842724" lon="9.4396221"><ele>421.0</ele><time>2026-05-02T11:50:05.394Z</time></trkpt><trkpt lat="48.8842062" lon="9.4396809"><ele>421.0</ele><time>2026-05-02T11:50:07.395Z</time></trkpt><trkpt lat="48.8841389" lon="9.4397508"><ele>421.00000000000006</ele><time>2026-05-02T11:50:09.395Z</time></trkpt><trkpt lat="48.8840678" lon="9.4398025"><ele>421.0</ele><time>2026-05-02T11:50:11.395Z</time></trkpt><trkpt lat="48.8839947" lon="9.4398764"><ele>421.33333333333337</ele><time>2026-05-02T11:50:13.395Z</time></trkpt><trkpt lat="48.8839198" lon="9.4399433"><ele>421.6666666666667</ele><time>2026-05-02T11:50:15.394Z</time></trkpt><trkpt lat="48.8838412" lon="9.4399934"><ele>422.0</ele><time>2026-05-02T11:50:17.395Z</time></trkpt><trkpt lat="48.883759" lon="9.4400498"><ele>422.33333333333337</ele><time>2026-05-02T11:50:19.395Z</time></trkpt><trkpt lat="48.8836765" lon="9.4401058"><ele>422.6666666666667</ele><time>2026-05-02T11:50:21.395Z</time></trkpt><trkpt lat="48.8835964" lon="9.4401742"><ele>423.0</ele><time>2026-05-02T11:50:23.395Z</time></trkpt><trkpt lat="48.8835163" lon="9.4402205"><ele>419.59999999999997</ele><time>2026-05-02T11:50:25.395Z</time></trkpt><trkpt lat="48.8834301" lon="9.4402589"><ele>416.2</ele><time>2026-05-02T11:50:27.395Z</time></trkpt><trkpt lat="48.8833329" lon="9.4403018"><ele>412.8</ele><time>2026-05-02T11:50:29.395Z</time></trkpt><trkpt lat="48.8832446" lon="9.4403538"><ele>409.4</ele><time>2026-05-02T11:50:31.395Z</time></trkpt><trkpt lat="48.8831556" lon="9.440415"><ele>406.0</ele><time>2026-05-02T11:50:33.395Z</time></trkpt><trkpt lat="48.8830715" lon="9.4404636"><ele>408.1666666666667</ele><time>2026-05-02T11:50:35.395Z</time></trkpt><trkpt lat="48.8829766" lon="9.4405225"><ele>410.33333333333337</ele><time>2026-05-02T11:50:37.395Z</time></trkpt><trkpt lat="48.8828902" lon="9.4406014"><ele>412.5</ele><time>2026-05-02T11:50:40.395Z</time></trkpt><trkpt lat="48.8828381" lon="9.4406846"><ele>414.66666666666663</ele><time>2026-05-02T11:50:42.395Z</time></trkpt><trkpt lat="48.8827871" lon="9.4407655"><ele>416.8333333333333</ele><time>2026-05-02T11:50:44.395Z</time></trkpt><trkpt lat="48.8827365" lon="9.4408418"><ele>419.0</ele><time>2026-05-02T11:50:46.395Z</time></trkpt><trkpt lat="48.8826937" lon="9.4409184"><ele>418.99999999999994</ele><time>2026-05-02T11:50:48.395Z</time></trkpt><trkpt lat="48.8826751" lon="9.4410146"><ele>419.0</ele><time>2026-05-02T11:51:03.395Z</time></trkpt><trkpt lat="48.8827237" lon="9.4410911"><ele>419.0</ele><time>2026-05-02T11:51:05.394Z</time></trkpt><trkpt lat="48.8827849" lon="9.4411607"><ele>419.0</ele><time>2026-05-02T11:51:07.395Z</time></trkpt><trkpt lat="48.88285" lon="9.4412661"><ele>418.99999999999994</ele><time>2026-05-02T11:51:09.395Z</time></trkpt><trkpt lat="48.88289" lon="9.4414183"><ele>419.0</ele><time>2026-05-02T11:51:11.395Z</time></trkpt><trkpt lat="48.8829244" lon="9.4415989"><ele>419.85714285714283</ele><time>2026-05-02T11:51:13.395Z</time></trkpt><trkpt lat="48.8829257" lon="9.4416982"><ele>420.7142857142857</ele><time>2026-05-02T11:51:14.395Z</time></trkpt><trkpt lat="48.882925" lon="9.4418055"><ele>421.57142857142856</ele><time>2026-05-02T11:51:15.395Z</time></trkpt><trkpt lat="48.8829229" lon="9.4419183"><ele>422.42857142857144</ele><time>2026-05-02T11:51:16.395Z</time></trkpt><trkpt lat="48.8829124" lon="9.4420358"><ele>423.2857142857143</ele><time>2026-05-02T11:51:17.395Z</time></trkpt><trkpt lat="48.882897" lon="9.4421474"><ele>424.1428571428571</ele><time>2026-05-02T11:51:18.395Z</time></trkpt><trkpt lat="48.8828845" lon="9.442259"><ele>425.0</ele><time>2026-05-02T11:51:19.395Z</time></trkpt><trkpt lat="48.88287" lon="9.4423744"><ele>425.3333333333333</ele><time>2026-05-02T11:51:20.395Z</time></trkpt><trkpt lat="48.8828576" lon="9.4424922"><ele>425.66666666666663</ele><time>2026-05-02T11:51:21.395Z</time></trkpt><trkpt lat="48.8828428" lon="9.442625"><ele>426.0</ele><time>2026-05-02T11:51:22.395Z</time></trkpt><trkpt lat="48.882831" lon="9.4427582"><ele>426.33333333333337</ele><time>2026-05-02T11:51:23.395Z</time></trkpt><trkpt lat="48.882823" lon="9.442895"><ele>426.6666666666667</ele><time>2026-05-02T11:51:24.395Z</time></trkpt><trkpt lat="48.8828429" lon="9.4430461"><ele>427.0</ele><time>2026-05-02T11:51:25.395Z</time></trkpt><trkpt lat="48.8828687" lon="9.4431933"><ele>427.0</ele><time>2026-05-02T11:51:26.394Z</time></trkpt><trkpt lat="48.8829046" lon="9.4433353"><ele>427.00000000000006</ele><time>2026-05-02T11:51:27.395Z</time></trkpt><trkpt lat="48.8829514" lon="9.4434592"><ele>427.00000000000006</ele><time>2026-05-02T11:51:28.395Z</time></trkpt><trkpt lat="48.8830055" lon="9.4435719"><ele>427.0</ele><time>2026-05-02T11:51:29.395Z</time></trkpt><trkpt lat="48.8830711" lon="9.4436752"><ele>427.0</ele><time>2026-05-02T11:51:30.395Z</time></trkpt><trkpt lat="48.8831412" lon="9.4437732"><ele>426.0</ele><time>2026-05-02T11:51:31.395Z</time></trkpt><trkpt lat="48.8832165" lon="9.4438582"><ele>425.00000000000006</ele><time>2026-05-02T11:51:32.395Z</time></trkpt><trkpt lat="48.8832999" lon="9.443935"><ele>424.0</ele><time>2026-05-02T11:51:33.395Z</time></trkpt><trkpt lat="48.8833897" lon="9.4439912"><ele>423.0</ele><time>2026-05-02T11:51:34.395Z</time></trkpt><trkpt lat="48.8834809" lon="9.4440488"><ele>422.0</ele><time>2026-05-02T11:51:35.395Z</time></trkpt><trkpt lat="48.8835655" lon="9.4441052"><ele>424.40000000000003</ele><time>2026-05-02T11:51:36.395Z</time></trkpt><trkpt lat="48.8836556" lon="9.4441605"><ele>426.8</ele><time>2026-05-02T11:51:37.395Z</time></trkpt><trkpt lat="48.883743" lon="9.4442274"><ele>429.2</ele><time>2026-05-02T11:51:38.394Z</time></trkpt><trkpt lat="48.8838289" lon="9.4443155"><ele>431.6</ele><time>2026-05-02T11:51:39.409Z</time></trkpt><trkpt lat="48.883917" lon="9.4444023"><ele>434.0</ele><time>2026-05-02T11:51:40.409Z</time></trkpt><trkpt lat="48.8840035" lon="9.444515"><ele>432.75</ele><time>2026-05-02T11:51:41.408Z</time></trkpt><trkpt lat="48.8840824" lon="9.4446432"><ele>431.5</ele><time>2026-05-02T11:51:42.409Z</time></trkpt><trkpt lat="48.8841633" lon="9.4447801"><ele>430.25</ele><time>2026-05-02T11:51:43.409Z</time></trkpt><trkpt lat="48.8842348" lon="9.4449133"><ele>429.0</ele><time>2026-05-02T11:51:44.409Z</time></trkpt><trkpt lat="48.884297" lon="9.4450654"><ele>431.75</ele><time>2026-05-02T11:51:45.409Z</time></trkpt><trkpt lat="48.8843517" lon="9.44522"><ele>434.5</ele><time>2026-05-02T11:51:46.409Z</time></trkpt><trkpt lat="48.8844003" lon="9.4453902"><ele>437.25</ele><time>2026-05-02T11:51:47.409Z</time></trkpt><trkpt lat="48.8844395" lon="9.4455653"><ele>440.0</ele><time>2026-05-02T11:51:48.409Z</time></trkpt><trkpt lat="48.8844739" lon="9.4457432"><ele>440.0</ele><time>2026-05-02T11:51:49.409Z</time></trkpt><trkpt lat="48.8844951" lon="9.4459211"><ele>440.0</ele><time>2026-05-02T11:51:50.409Z</time></trkpt><trkpt lat="48.8845044" lon="9.4460968"><ele>440.0</ele><time>2026-05-02T11:51:51.409Z</time></trkpt><trkpt lat="48.8845014" lon="9.4462672"><ele>440.0</ele><time>2026-05-02T11:51:52.409Z</time></trkpt><trkpt lat="48.8845007" lon="9.4464398"><ele>440.4</ele><time>2026-05-02T11:51:53.409Z</time></trkpt><trkpt lat="48.8845007" lon="9.4466056"><ele>440.8</ele><time>2026-05-02T11:51:54.409Z</time></trkpt><trkpt lat="48.8845136" lon="9.4467688"><ele>441.20000000000005</ele><time>2026-05-02T11:51:55.409Z</time></trkpt><trkpt lat="48.8845375" lon="9.4469224"><ele>441.6</ele><time>2026-05-02T11:51:56.409Z</time></trkpt><trkpt lat="48.8845685" lon="9.4470546"><ele>442.0</ele><time>2026-05-02T11:51:57.409Z</time></trkpt><trkpt lat="48.8846011" lon="9.4471953"><ele>442.20000000000005</ele><time>2026-05-02T11:51:58.408Z</time></trkpt><trkpt lat="48.884628" lon="9.4473454"><ele>442.40000000000003</ele><time>2026-05-02T11:51:59.408Z</time></trkpt><trkpt lat="48.8846496" lon="9.4474978"><ele>442.59999999999997</ele><time>2026-05-02T11:52:00.409Z</time></trkpt><trkpt lat="48.8846718" lon="9.4476575"><ele>442.79999999999995</ele><time>2026-05-02T11:52:01.408Z</time></trkpt><trkpt lat="48.8846962" lon="9.4478081"><ele>443.0</ele><time>2026-05-02T11:52:02.409Z</time></trkpt><trkpt lat="48.8847123" lon="9.447962"><ele>443.4</ele><time>2026-05-02T11:52:03.409Z</time></trkpt><trkpt lat="48.8847279" lon="9.4481183"><ele>443.79999999999995</ele><time>2026-05-02T11:52:04.409Z</time></trkpt><trkpt lat="48.8847443" lon="9.4482698"><ele>444.2</ele><time>2026-05-02T11:52:05.409Z</time></trkpt><trkpt lat="48.884757" lon="9.4484223"><ele>444.6</ele><time>2026-05-02T11:52:06.408Z</time></trkpt><trkpt lat="48.8847737" lon="9.4485658"><ele>445.0</ele><time>2026-05-02T11:52:07.409Z</time></trkpt><trkpt lat="48.8847992" lon="9.4487142"><ele>445.2</ele><time>2026-05-02T11:52:08.409Z</time></trkpt><trkpt lat="48.8848401" lon="9.4488602"><ele>445.4</ele><time>2026-05-02T11:52:09.409Z</time></trkpt><trkpt lat="48.8848842" lon="9.4489922"><ele>445.6</ele><time>2026-05-02T11:52:10.409Z</time></trkpt><trkpt lat="48.8849332" lon="9.4491286"><ele>445.8</ele><time>2026-05-02T11:52:11.409Z</time></trkpt><trkpt lat="48.8849889" lon="9.449268"><ele>446.0</ele><time>2026-05-02T11:52:12.408Z</time></trkpt><trkpt lat="48.8850482" lon="9.4494079"><ele>446.6</ele><time>2026-05-02T11:52:13.409Z</time></trkpt><trkpt lat="48.8851096" lon="9.4495422"><ele>447.20000000000005</ele><time>2026-05-02T11:52:14.409Z</time></trkpt><trkpt lat="48.8851738" lon="9.4496712"><ele>447.79999999999995</ele><time>2026-05-02T11:52:15.409Z</time></trkpt><trkpt lat="48.8852427" lon="9.4498083"><ele>448.4</ele><time>2026-05-02T11:52:16.409Z</time></trkpt><trkpt lat="48.8853152" lon="9.449939"><ele>449.0</ele><time>2026-05-02T11:52:17.409Z</time></trkpt><trkpt lat="48.8853887" lon="9.4500764"><ele>449.0</ele><time>2026-05-02T11:52:18.409Z</time></trkpt><trkpt lat="48.8854594" lon="9.4502148"><ele>449.0</ele><time>2026-05-02T11:52:19.409Z</time></trkpt><trkpt lat="48.8855269" lon="9.4503587"><ele>449.0</ele><time>2026-05-02T11:52:20.409Z</time></trkpt><trkpt lat="48.8855852" lon="9.4505058"><ele>449.0</ele><time>2026-05-02T11:52:21.409Z</time></trkpt><trkpt lat="48.8856271" lon="9.4506656"><ele>448.5</ele><time>2026-05-02T11:52:22.408Z</time></trkpt><trkpt lat="48.8856564" lon="9.4508304"><ele>448.0</ele><time>2026-05-02T11:52:23.408Z</time></trkpt><trkpt lat="48.8856836" lon="9.4510023"><ele>447.5</ele><time>2026-05-02T11:52:24.409Z</time></trkpt><trkpt lat="48.8857115" lon="9.4511728"><ele>447.0</ele><time>2026-05-02T11:52:25.409Z</time></trkpt><trkpt lat="48.8857387" lon="9.4513359"><ele>447.0</ele><time>2026-05-02T11:52:26.409Z</time></trkpt><trkpt lat="48.8857682" lon="9.4514884"><ele>447.00000000000006</ele><time>2026-05-02T11:52:27.409Z</time></trkpt><trkpt lat="48.8858117" lon="9.4516387"><ele>447.00000000000006</ele><time>2026-05-02T11:52:28.409Z</time></trkpt><trkpt lat="48.8858567" lon="9.4517819"><ele>447.0</ele><time>2026-05-02T11:52:29.409Z</time></trkpt><trkpt lat="48.885916" lon="9.4518974"><ele>447.0</ele><time>2026-05-02T11:52:30.409Z</time></trkpt><trkpt lat="48.8859902" lon="9.4520109"><ele>447.0</ele><time>2026-05-02T11:52:31.409Z</time></trkpt><trkpt lat="48.8860741" lon="9.4521076"><ele>447.00000000000006</ele><time>2026-05-02T11:52:32.409Z</time></trkpt><trkpt lat="48.8861632" lon="9.4521901"><ele>447.00000000000006</ele><time>2026-05-02T11:52:33.408Z</time></trkpt><trkpt lat="48.8862502" lon="9.4522702"><ele>447.0</ele><time>2026-05-02T11:52:34.409Z</time></trkpt><trkpt lat="48.8863413" lon="9.4523396"><ele>447.0</ele><time>2026-05-02T11:52:35.408Z</time></trkpt><trkpt lat="48.8864284" lon="9.4524179"><ele>447.0</ele><time>2026-05-02T11:52:36.409Z</time></trkpt><trkpt lat="48.8865147" lon="9.4525027"><ele>447.00000000000006</ele><time>2026-05-02T11:52:37.408Z</time></trkpt><trkpt lat="48.8866043" lon="9.4525822"><ele>447.00000000000006</ele><time>2026-05-02T11:52:38.409Z</time></trkpt><trkpt lat="48.8867009" lon="9.4526759"><ele>447.0</ele><time>2026-05-02T11:52:39.409Z</time></trkpt><trkpt lat="48.8868102" lon="9.4527716"><ele>447.0</ele><time>2026-05-02T11:52:40.409Z</time></trkpt><trkpt lat="48.8869257" lon="9.4528765"><ele>446.75</ele><time>2026-05-02T11:52:41.409Z</time></trkpt><trkpt lat="48.8870472" lon="9.4529829"><ele>446.5</ele><time>2026-05-02T11:52:42.409Z</time></trkpt><trkpt lat="48.8871737" lon="9.4530982"><ele>446.25</ele><time>2026-05-02T11:52:43.409Z</time></trkpt><trkpt lat="48.8872976" lon="9.4532276"><ele>446.0</ele><time>2026-05-02T11:52:44.409Z</time></trkpt><trkpt lat="48.887429" lon="9.4533507"><ele>446.0</ele><time>2026-05-02T11:52:45.409Z</time></trkpt><trkpt lat="48.8875573" lon="9.4534714"><ele>446.0</ele><time>2026-05-02T11:52:46.409Z</time></trkpt><trkpt lat="48.8876854" lon="9.4536047"><ele>446.0</ele><time>2026-05-02T11:52:47.408Z</time></trkpt><trkpt lat="48.8878074" lon="9.4537201"><ele>445.75</ele><time>2026-05-02T11:52:48.409Z</time></trkpt><trkpt lat="48.8879235" lon="9.453829"><ele>445.5</ele><time>2026-05-02T11:52:49.409Z</time></trkpt><trkpt lat="48.8880323" lon="9.4539336"><ele>445.25</ele><time>2026-05-02T11:52:50.409Z</time></trkpt><trkpt lat="48.8881378" lon="9.4540163"><ele>445.0</ele><time>2026-05-02T11:52:51.409Z</time></trkpt><trkpt lat="48.888242" lon="9.4540977"><ele>445.0</ele><time>2026-05-02T11:52:52.409Z</time></trkpt><trkpt lat="48.888343" lon="9.4541759"><ele>445.0</ele><time>2026-05-02T11:52:53.409Z</time></trkpt><trkpt lat="48.8884388" lon="9.4542478"><ele>445.0</ele><time>2026-05-02T11:52:54.409Z</time></trkpt><trkpt lat="48.8885326" lon="9.4543193"><ele>445.0</ele><time>2026-05-02T11:52:55.409Z</time></trkpt><trkpt lat="48.8886209" lon="9.4543847"><ele>445.0</ele><time>2026-05-02T11:52:56.409Z</time></trkpt><trkpt lat="48.8887041" lon="9.4544474"><ele>444.83333333333337</ele><time>2026-05-02T11:52:57.409Z</time></trkpt><trkpt lat="48.8887797" lon="9.4545103"><ele>444.6666666666667</ele><time>2026-05-02T11:52:58.409Z</time></trkpt><trkpt lat="48.8888537" lon="9.4545735"><ele>444.5</ele><time>2026-05-02T11:52:59.409Z</time></trkpt><trkpt lat="48.888921" lon="9.4546383"><ele>444.33333333333337</ele><time>2026-05-02T11:53:00.409Z</time></trkpt><trkpt lat="48.8889874" lon="9.4547087"><ele>444.1666666666667</ele><time>2026-05-02T11:53:01.409Z</time></trkpt><trkpt lat="48.8890545" lon="9.4547801"><ele>444.0</ele><time>2026-05-02T11:53:02.409Z</time></trkpt><trkpt lat="48.8891236" lon="9.4548486"><ele>443.8333333333333</ele><time>2026-05-02T11:53:03.409Z</time></trkpt><trkpt lat="48.8891896" lon="9.4549172"><ele>443.66666666666663</ele><time>2026-05-02T11:53:04.409Z</time></trkpt><trkpt lat="48.889254" lon="9.4549853"><ele>443.5</ele><time>2026-05-02T11:53:05.409Z</time></trkpt><trkpt lat="48.8893184" lon="9.4550474"><ele>443.3333333333333</ele><time>2026-05-02T11:53:06.409Z</time></trkpt><trkpt lat="48.8893859" lon="9.4551099"><ele>443.16666666666663</ele><time>2026-05-02T11:53:07.409Z</time></trkpt><trkpt lat="48.8894507" lon="9.4551673"><ele>443.0</ele><time>2026-05-02T11:53:08.409Z</time></trkpt><trkpt lat="48.8895206" lon="9.4552193"><ele>444.16666666666663</ele><time>2026-05-02T11:53:09.408Z</time></trkpt><trkpt lat="48.8895914" lon="9.4552718"><ele>445.3333333333333</ele><time>2026-05-02T11:53:10.409Z</time></trkpt><trkpt lat="48.8896608" lon="9.4553407"><ele>446.5</ele><time>2026-05-02T11:53:11.409Z</time></trkpt><trkpt lat="48.8897342" lon="9.4554081"><ele>447.66666666666663</ele><time>2026-05-02T11:53:12.409Z</time></trkpt><trkpt lat="48.8898012" lon="9.4554758"><ele>448.8333333333333</ele><time>2026-05-02T11:53:13.409Z</time></trkpt><trkpt lat="48.8898623" lon="9.4555496"><ele>450.0</ele><time>2026-05-02T11:53:14.409Z</time></trkpt><trkpt lat="48.8899213" lon="9.4556361"><ele>450.00000000000006</ele><time>2026-05-02T11:53:15.408Z</time></trkpt><trkpt lat="48.8899777" lon="9.4557188"><ele>450.0</ele><time>2026-05-02T11:53:16.409Z</time></trkpt><trkpt lat="48.8900305" lon="9.455801"><ele>450.00000000000006</ele><time>2026-05-02T11:53:17.409Z</time></trkpt><trkpt lat="48.8900711" lon="9.4558884"><ele>450.00000000000006</ele><time>2026-05-02T11:53:18.408Z</time></trkpt><trkpt lat="48.8901194" lon="9.4559751"><ele>450.0</ele><time>2026-05-02T11:53:19.408Z</time></trkpt><trkpt lat="48.8901624" lon="9.4560539"><ele>450.00000000000006</ele><time>2026-05-02T11:53:20.408Z</time></trkpt><trkpt lat="48.8902048" lon="9.4561309"><ele>450.00000000000006</ele><time>2026-05-02T11:53:21.409Z</time></trkpt><trkpt lat="48.8902933" lon="9.4562655"><ele>451.8</ele><time>2026-05-02T11:53:23.409Z</time></trkpt><trkpt lat="48.8903722" lon="9.4563893"><ele>453.6</ele><time>2026-05-02T11:53:25.409Z</time></trkpt><trkpt lat="48.8904332" lon="9.4564907"><ele>455.4</ele><time>2026-05-02T11:53:27.409Z</time></trkpt><trkpt lat="48.8904788" lon="9.4566063"><ele>457.2</ele><time>2026-05-02T11:53:29.409Z</time></trkpt><trkpt lat="48.8905168" lon="9.4567191"><ele>459.0</ele><time>2026-05-02T11:53:31.409Z</time></trkpt><trkpt lat="48.8905951" lon="9.4567788"><ele>459.0</ele><time>2026-05-02T11:53:33.409Z</time></trkpt><trkpt lat="48.8906751" lon="9.4569006"><ele>459.0</ele><time>2026-05-02T11:53:35.409Z</time></trkpt><trkpt lat="48.8907168" lon="9.4570663"><ele>459.0</ele><time>2026-05-02T11:53:37.408Z</time></trkpt><trkpt lat="48.890742" lon="9.457256"><ele>459.0</ele><time>2026-05-02T11:53:39.409Z</time></trkpt><trkpt lat="48.8907458" lon="9.4573562"><ele>459.0</ele><time>2026-05-02T11:53:40.409Z</time></trkpt><trkpt lat="48.8907614" lon="9.4574754"><ele>458.6</ele><time>2026-05-02T11:53:41.409Z</time></trkpt><trkpt lat="48.8907772" lon="9.4575976"><ele>458.2</ele><time>2026-05-02T11:53:42.408Z</time></trkpt><trkpt lat="48.8907945" lon="9.4577134"><ele>457.80000000000007</ele><time>2026-05-02T11:53:43.409Z</time></trkpt><trkpt lat="48.8908269" lon="9.4578536"><ele>457.40000000000003</ele><time>2026-05-02T11:53:44.409Z</time></trkpt><trkpt lat="48.8908575" lon="9.4579917"><ele>457.0</ele><time>2026-05-02T11:53:45.409Z</time></trkpt><trkpt lat="48.8908924" lon="9.4581493"><ele>457.25</ele><time>2026-05-02T11:53:46.409Z</time></trkpt><trkpt lat="48.8909288" lon="9.4583156"><ele>457.5</ele><time>2026-05-02T11:53:47.409Z</time></trkpt><trkpt lat="48.8909584" lon="9.4584803"><ele>457.75</ele><time>2026-05-02T11:53:48.409Z</time></trkpt><trkpt lat="48.8909911" lon="9.4586388"><ele>458.0</ele><time>2026-05-02T11:53:49.409Z</time></trkpt><trkpt lat="48.8910298" lon="9.4588181"><ele>458.0</ele><time>2026-05-02T11:53:50.409Z</time></trkpt><trkpt lat="48.8910723" lon="9.4590066"><ele>458.0</ele><time>2026-05-02T11:53:51.408Z</time></trkpt><trkpt lat="48.8911166" lon="9.4592094"><ele>458.0</ele><time>2026-05-02T11:53:52.409Z</time></trkpt><trkpt lat="48.8911589" lon="9.4594207"><ele>458.0</ele><time>2026-05-02T11:53:53.409Z</time></trkpt><trkpt lat="48.8912102" lon="9.4596466"><ele>457.66666666666663</ele><time>2026-05-02T11:53:54.409Z</time></trkpt><trkpt lat="48.8912602" lon="9.4598655"><ele>457.33333333333337</ele><time>2026-05-02T11:53:55.409Z</time></trkpt><trkpt lat="48.8913082" lon="9.460084"><ele>457.0</ele><time>2026-05-02T11:53:56.408Z</time></trkpt><trkpt lat="48.8913601" lon="9.460312"><ele>456.33333333333337</ele><time>2026-05-02T11:53:57.409Z</time></trkpt><trkpt lat="48.8914088" lon="9.4605442"><ele>455.66666666666663</ele><time>2026-05-02T11:53:58.409Z</time></trkpt><trkpt lat="48.8914471" lon="9.4607838"><ele>455.0</ele><time>2026-05-02T11:53:59.409Z</time></trkpt><trkpt lat="48.8914757" lon="9.461044"><ele>455.0</ele><time>2026-05-02T11:54:00.409Z</time></trkpt><trkpt lat="48.8914903" lon="9.4613133"><ele>455.0</ele><time>2026-05-02T11:54:01.409Z</time></trkpt><trkpt lat="48.8914964" lon="9.461584"><ele>455.0</ele><time>2026-05-02T11:54:02.409Z</time></trkpt><trkpt lat="48.8914997" lon="9.4618546"><ele>455.0</ele><time>2026-05-02T11:54:03.409Z</time></trkpt><trkpt lat="48.8915093" lon="9.4621245"><ele>455.0</ele><time>2026-05-02T11:54:04.409Z</time></trkpt><trkpt lat="48.8915187" lon="9.4624011"><ele>455.0</ele><time>2026-05-02T11:54:05.409Z</time></trkpt><trkpt lat="48.8915183" lon="9.4626757"><ele>455.3333333333333</ele><time>2026-05-02T11:54:06.409Z</time></trkpt><trkpt lat="48.8915143" lon="9.4629518"><ele>455.66666666666663</ele><time>2026-05-02T11:54:07.409Z</time></trkpt><trkpt lat="48.8915006" lon="9.4632188"><ele>456.0</ele><time>2026-05-02T11:54:08.409Z</time></trkpt><trkpt lat="48.8914795" lon="9.463491"><ele>456.0</ele><time>2026-05-02T11:54:09.409Z</time></trkpt><trkpt lat="48.8914634" lon="9.4637597"><ele>456.0</ele><time>2026-05-02T11:54:10.409Z</time></trkpt><trkpt lat="48.8914403" lon="9.4640303"><ele>456.0</ele><time>2026-05-02T11:54:11.409Z</time></trkpt><trkpt lat="48.8914209" lon="9.464305"><ele>455.66666666666663</ele><time>2026-05-02T11:54:12.409Z</time></trkpt><trkpt lat="48.8914009" lon="9.4645866"><ele>455.3333333333333</ele><time>2026-05-02T11:54:13.409Z</time></trkpt><trkpt lat="48.8913796" lon="9.464871"><ele>455.0</ele><time>2026-05-02T11:54:14.409Z</time></trkpt><trkpt lat="48.8913593" lon="9.4651511"><ele>454.66666666666663</ele><time>2026-05-02T11:54:15.409Z</time></trkpt><trkpt lat="48.8913328" lon="9.4654381"><ele>454.33333333333337</ele><time>2026-05-02T11:54:16.409Z</time></trkpt><trkpt lat="48.8913143" lon="9.4657182"><ele>454.0</ele><time>2026-05-02T11:54:17.409Z</time></trkpt><trkpt lat="48.8912945" lon="9.4659955"><ele>453.33333333333337</ele><time>2026-05-02T11:54:18.409Z</time></trkpt><trkpt lat="48.8912759" lon="9.4662722"><ele>452.66666666666663</ele><time>2026-05-02T11:54:19.409Z</time></trkpt><trkpt lat="48.8912541" lon="9.4665391"><ele>452.0</ele><time>2026-05-02T11:54:20.409Z</time></trkpt><trkpt lat="48.8912338" lon="9.4667931"><ele>452.0</ele><time>2026-05-02T11:54:21.408Z</time></trkpt><trkpt lat="48.8912157" lon="9.4670511"><ele>452.0</ele><time>2026-05-02T11:54:22.409Z</time></trkpt><trkpt lat="48.8911969" lon="9.4673049"><ele>452.0</ele><time>2026-05-02T11:54:23.409Z</time></trkpt><trkpt lat="48.891173" lon="9.4675613"><ele>451.66666666666663</ele><time>2026-05-02T11:54:24.408Z</time></trkpt><trkpt lat="48.891152" lon="9.4678124"><ele>451.33333333333337</ele><time>2026-05-02T11:54:25.409Z</time></trkpt><trkpt lat="48.8911323" lon="9.4680556"><ele>451.0</ele><time>2026-05-02T11:54:26.409Z</time></trkpt><trkpt lat="48.8911095" lon="9.4683052"><ele>450.6666666666667</ele><time>2026-05-02T11:54:27.409Z</time></trkpt><trkpt lat="48.8910897" lon="9.468551"><ele>450.33333333333337</ele><time>2026-05-02T11:54:28.408Z</time></trkpt><trkpt lat="48.8910711" lon="9.4688058"><ele>450.0</ele><time>2026-05-02T11:54:29.409Z</time></trkpt><trkpt lat="48.8910501" lon="9.4690495"><ele>449.0</ele><time>2026-05-02T11:54:30.409Z</time></trkpt><trkpt lat="48.891032" lon="9.4692874"><ele>448.0</ele><time>2026-05-02T11:54:31.408Z</time></trkpt><trkpt lat="48.8910144" lon="9.4695139"><ele>447.0</ele><time>2026-05-02T11:54:32.409Z</time></trkpt><trkpt lat="48.8909963" lon="9.4697331"><ele>447.0</ele><time>2026-05-02T11:54:33.409Z</time></trkpt><trkpt lat="48.8909804" lon="9.4699423"><ele>447.0</ele><time>2026-05-02T11:54:34.409Z</time></trkpt><trkpt lat="48.8909642" lon="9.4701558"><ele>447.0</ele><time>2026-05-02T11:54:35.409Z</time></trkpt><trkpt lat="48.8909493" lon="9.4703732"><ele>447.0</ele><time>2026-05-02T11:54:36.409Z</time></trkpt><trkpt lat="48.8909367" lon="9.470585"><ele>447.0</ele><time>2026-05-02T11:54:37.409Z</time></trkpt><trkpt lat="48.8909262" lon="9.4707948"><ele>447.0</ele><time>2026-05-02T11:54:38.409Z</time></trkpt><trkpt lat="48.8909138" lon="9.4710063"><ele>447.0</ele><time>2026-05-02T11:54:39.409Z</time></trkpt><trkpt lat="48.8909014" lon="9.4712129"><ele>447.0</ele><time>2026-05-02T11:54:40.409Z</time></trkpt><trkpt lat="48.8908944" lon="9.4714153"><ele>447.5</ele><time>2026-05-02T11:54:41.408Z</time></trkpt><trkpt lat="48.8908898" lon="9.471616"><ele>448.0</ele><time>2026-05-02T11:54:42.409Z</time></trkpt><trkpt lat="48.8908963" lon="9.4718072"><ele>448.5</ele><time>2026-05-02T11:54:43.409Z</time></trkpt><trkpt lat="48.8909134" lon="9.4719978"><ele>449.0</ele><time>2026-05-02T11:54:44.409Z</time></trkpt><trkpt lat="48.8909517" lon="9.4721901"><ele>450.75</ele><time>2026-05-02T11:54:45.408Z</time></trkpt><trkpt lat="48.8909949" lon="9.4723709"><ele>452.5</ele><time>2026-05-02T11:54:46.409Z</time></trkpt><trkpt lat="48.8910481" lon="9.4725561"><ele>454.25</ele><time>2026-05-02T11:54:47.409Z</time></trkpt><trkpt lat="48.8911063" lon="9.4727197"><ele>456.0</ele><time>2026-05-02T11:54:48.409Z</time></trkpt><trkpt lat="48.8911719" lon="9.4728924"><ele>454.75</ele><time>2026-05-02T11:54:49.409Z</time></trkpt><trkpt lat="48.8912388" lon="9.4730672"><ele>453.5</ele><time>2026-05-02T11:54:50.409Z</time></trkpt><trkpt lat="48.8913091" lon="9.4732435"><ele>452.25</ele><time>2026-05-02T11:54:51.409Z</time></trkpt><trkpt lat="48.8913815" lon="9.4734172"><ele>451.0</ele><time>2026-05-02T11:54:52.409Z</time></trkpt><trkpt lat="48.891451" lon="9.4735959"><ele>451.0</ele><time>2026-05-02T11:54:53.408Z</time></trkpt><trkpt lat="48.8915188" lon="9.4737683"><ele>451.0</ele><time>2026-05-02T11:54:54.409Z</time></trkpt><trkpt lat="48.8915821" lon="9.4739341"><ele>451.0</ele><time>2026-05-02T11:54:55.409Z</time></trkpt><trkpt lat="48.8916527" lon="9.4740948"><ele>451.0</ele><time>2026-05-02T11:54:56.409Z</time></trkpt><trkpt lat="48.8917141" lon="9.4742467"><ele>452.0</ele><time>2026-05-02T11:54:57.409Z</time></trkpt><trkpt lat="48.891775" lon="9.4743893"><ele>453.0</ele><time>2026-05-02T11:54:58.409Z</time></trkpt><trkpt lat="48.8918327" lon="9.4745236"><ele>454.0</ele><time>2026-05-02T11:54:59.409Z</time></trkpt><trkpt lat="48.8918847" lon="9.4746364"><ele>455.0</ele><time>2026-05-02T11:55:00.408Z</time></trkpt><trkpt lat="48.8919349" lon="9.4747375"><ele>456.0</ele><time>2026-05-02T11:55:01.409Z</time></trkpt><trkpt lat="48.8919794" lon="9.4748369"><ele>456.1666666666667</ele><time>2026-05-02T11:55:02.409Z</time></trkpt><trkpt lat="48.892014" lon="9.4749277"><ele>456.33333333333337</ele><time>2026-05-02T11:55:03.409Z</time></trkpt><trkpt lat="48.8920416" lon="9.4750223"><ele>456.5</ele><time>2026-05-02T11:55:04.409Z</time></trkpt><trkpt lat="48.8920801" lon="9.4751769"><ele>456.6666666666667</ele><time>2026-05-02T11:55:06.409Z</time></trkpt><trkpt lat="48.8920972" lon="9.4753172"><ele>456.83333333333337</ele><time>2026-05-02T11:55:08.408Z</time></trkpt><trkpt lat="48.8921194" lon="9.4754202"><ele>457.0</ele><time>2026-05-02T11:55:10.409Z</time></trkpt><trkpt lat="48.8921507" lon="9.4755288"><ele>456.6666666666667</ele><time>2026-05-02T11:55:13.409Z</time></trkpt><trkpt lat="48.8921789" lon="9.4756255"><ele>456.33333333333337</ele><time>2026-05-02T11:55:16.409Z</time></trkpt><trkpt lat="48.8921996" lon="9.4757554"><ele>456.0</ele><time>2026-05-02T11:55:19.409Z</time></trkpt><trkpt lat="48.8922227" lon="9.4758816"><ele>455.66666666666663</ele><time>2026-05-02T11:55:22.409Z</time></trkpt><trkpt lat="48.8922618" lon="9.4759872"><ele>455.3333333333333</ele><time>2026-05-02T11:55:25.409Z</time></trkpt><trkpt lat="48.8922804" lon="9.4760928"><ele>455.0</ele><time>2026-05-02T11:55:28.409Z</time></trkpt><trkpt lat="48.8923209" lon="9.4761804"><ele>454.99999999999994</ele><time>2026-05-02T11:55:44.409Z</time></trkpt><trkpt lat="48.8923524" lon="9.4762677"><ele>455.0</ele><time>2026-05-02T11:55:47.409Z</time></trkpt><trkpt lat="48.8923836" lon="9.4763807"><ele>455.0</ele><time>2026-05-02T11:55:50.409Z</time></trkpt><trkpt lat="48.8923995" lon="9.47648"><ele>455.0</ele><time>2026-05-02T11:57:03.409Z</time></trkpt><trkpt lat="48.892411" lon="9.4763718"><ele>454.99999999999994</ele><time>2026-05-02T11:57:44.408Z</time></trkpt><trkpt lat="48.8923639" lon="9.4762509"><ele>455.0</ele><time>2026-05-02T11:57:49.409Z</time></trkpt><trkpt lat="48.8923337" lon="9.4761213"><ele>454.99999999999994</ele><time>2026-05-02T11:57:52.409Z</time></trkpt><trkpt lat="48.8923086" lon="9.4760132"><ele>455.0</ele><time>2026-05-02T11:57:55.409Z</time></trkpt><trkpt lat="48.8922864" lon="9.4759042"><ele>455.0</ele><time>2026-05-02T11:57:58.408Z</time></trkpt><trkpt lat="48.8922579" lon="9.4757999"><ele>455.0</ele><time>2026-05-02T11:58:01.409Z</time></trkpt><trkpt lat="48.8922315" lon="9.4756965"><ele>454.99999999999994</ele><time>2026-05-02T11:58:04.409Z</time></trkpt><trkpt lat="48.8921918" lon="9.4755829"><ele>455.0</ele><time>2026-05-02T11:58:07.409Z</time></trkpt><trkpt lat="48.8921606" lon="9.4754902"><ele>455.4</ele><time>2026-05-02T11:58:10.409Z</time></trkpt><trkpt lat="48.8921491" lon="9.4753673"><ele>455.8</ele><time>2026-05-02T11:58:13.409Z</time></trkpt><trkpt lat="48.8921614" lon="9.4752074"><ele>456.20000000000005</ele><time>2026-05-02T11:59:43.418Z</time></trkpt><trkpt lat="48.8921465" lon="9.475058"><ele>456.6</ele><time>2026-05-02T11:59:46.418Z</time></trkpt><trkpt lat="48.8920914" lon="9.4749223"><ele>457.0</ele><time>2026-05-02T11:59:48.418Z</time></trkpt><trkpt lat="48.8920488" lon="9.4748355"><ele>457.0</ele><time>2026-05-02T11:59:49.418Z</time></trkpt><trkpt lat="48.8919942" lon="9.4747162"><ele>457.00000000000006</ele><time>2026-05-02T11:59:50.418Z</time></trkpt><trkpt lat="48.8919414" lon="9.4745953"><ele>457.00000000000006</ele><time>2026-05-02T11:59:51.418Z</time></trkpt><trkpt lat="48.8918777" lon="9.4744774"><ele>457.0</ele><time>2026-05-02T11:59:52.418Z</time></trkpt><trkpt lat="48.891818" lon="9.4743557"><ele>457.0</ele><time>2026-05-02T11:59:53.418Z</time></trkpt><trkpt lat="48.8917588" lon="9.4742206"><ele>455.8</ele><time>2026-05-02T11:59:54.417Z</time></trkpt><trkpt lat="48.8917001" lon="9.4740835"><ele>454.6</ele><time>2026-05-02T11:59:55.418Z</time></trkpt><trkpt lat="48.8916398" lon="9.4739436"><ele>453.40000000000003</ele><time>2026-05-02T11:59:56.418Z</time></trkpt><trkpt lat="48.8915823" lon="9.4737976"><ele>452.20000000000005</ele><time>2026-05-02T11:59:57.417Z</time></trkpt><trkpt lat="48.89152" lon="9.4736492"><ele>451.0</ele><time>2026-05-02T11:59:58.418Z</time></trkpt><trkpt lat="48.8914604" lon="9.4734959"><ele>451.0</ele><time>2026-05-02T11:59:59.417Z</time></trkpt><trkpt lat="48.8914007" lon="9.4733488"><ele>451.0</ele><time>2026-05-02T12:00:00.418Z</time></trkpt><trkpt lat="48.8913387" lon="9.4732024"><ele>451.0</ele><time>2026-05-02T12:00:01.418Z</time></trkpt><trkpt lat="48.8912868" lon="9.4730551"><ele>451.0</ele><time>2026-05-02T12:00:02.418Z</time></trkpt><trkpt lat="48.8912304" lon="9.4729059"><ele>452.25</ele><time>2026-05-02T12:00:03.418Z</time></trkpt><trkpt lat="48.8911754" lon="9.4727542"><ele>453.5</ele><time>2026-05-02T12:00:04.417Z</time></trkpt><trkpt lat="48.8911211" lon="9.472594"><ele>454.75</ele><time>2026-05-02T12:00:05.418Z</time></trkpt><trkpt lat="48.8910736" lon="9.4724329"><ele>456.0</ele><time>2026-05-02T12:00:06.418Z</time></trkpt><trkpt lat="48.8910287" lon="9.4722765"><ele>456.0</ele><time>2026-05-02T12:00:07.418Z</time></trkpt><trkpt lat="48.8909931" lon="9.4721123"><ele>456.0</ele><time>2026-05-02T12:00:08.418Z</time></trkpt><trkpt lat="48.8909689" lon="9.4719474"><ele>456.0</ele><time>2026-05-02T12:00:09.418Z</time></trkpt><trkpt lat="48.8909506" lon="9.471782"><ele>456.0</ele><time>2026-05-02T12:00:10.418Z</time></trkpt><trkpt lat="48.8909427" lon="9.4716046"><ele>454.75</ele><time>2026-05-02T12:00:11.418Z</time></trkpt><trkpt lat="48.8909438" lon="9.471433"><ele>453.5</ele><time>2026-05-02T12:00:12.418Z</time></trkpt><trkpt lat="48.8909533" lon="9.4712564"><ele>452.25</ele><time>2026-05-02T12:00:13.418Z</time></trkpt><trkpt lat="48.8909632" lon="9.4710803"><ele>451.0</ele><time>2026-05-02T12:00:14.418Z</time></trkpt><trkpt lat="48.8909739" lon="9.4708965"><ele>450.0</ele><time>2026-05-02T12:00:15.418Z</time></trkpt><trkpt lat="48.8909812" lon="9.4707087"><ele>449.0</ele><time>2026-05-02T12:00:16.417Z</time></trkpt><trkpt lat="48.8909913" lon="9.4705236"><ele>448.0</ele><time>2026-05-02T12:00:17.417Z</time></trkpt><trkpt lat="48.8909976" lon="9.470335"><ele>447.0</ele><time>2026-05-02T12:00:18.418Z</time></trkpt><trkpt lat="48.891016" lon="9.4701319"><ele>447.0</ele><time>2026-05-02T12:00:19.418Z</time></trkpt><trkpt lat="48.8910362" lon="9.4699135"><ele>447.0</ele><time>2026-05-02T12:00:20.418Z</time></trkpt><trkpt lat="48.8910574" lon="9.469686"><ele>447.0</ele><time>2026-05-02T12:00:21.418Z</time></trkpt><trkpt lat="48.8910777" lon="9.4694467"><ele>447.0</ele><time>2026-05-02T12:00:22.418Z</time></trkpt><trkpt lat="48.8910975" lon="9.4691923"><ele>447.0</ele><time>2026-05-02T12:00:23.418Z</time></trkpt><trkpt lat="48.8911178" lon="9.4689393"><ele>447.0</ele><time>2026-05-02T12:00:24.418Z</time></trkpt><trkpt lat="48.8911372" lon="9.4686872"><ele>448.0</ele><time>2026-05-02T12:00:25.418Z</time></trkpt><trkpt lat="48.8911607" lon="9.4684441"><ele>449.0</ele><time>2026-05-02T12:00:26.418Z</time></trkpt><trkpt lat="48.8911809" lon="9.4681923"><ele>450.0</ele><time>2026-05-02T12:00:27.418Z</time></trkpt><trkpt lat="48.8912055" lon="9.4679485"><ele>450.33333333333337</ele><time>2026-05-02T12:00:28.418Z</time></trkpt><trkpt lat="48.8912304" lon="9.4676908"><ele>450.6666666666667</ele><time>2026-05-02T12:00:29.418Z</time></trkpt><trkpt lat="48.8912529" lon="9.4674145"><ele>451.0</ele><time>2026-05-02T12:00:30.418Z</time></trkpt><trkpt lat="48.8912755" lon="9.4671391"><ele>451.33333333333337</ele><time>2026-05-02T12:00:31.418Z</time></trkpt><trkpt lat="48.8912977" lon="9.4668773"><ele>451.66666666666663</ele><time>2026-05-02T12:00:32.417Z</time></trkpt><trkpt lat="48.8913179" lon="9.4666213"><ele>452.0</ele><time>2026-05-02T12:00:33.417Z</time></trkpt><trkpt lat="48.8913346" lon="9.4663844"><ele>452.0</ele><time>2026-05-02T12:00:34.418Z</time></trkpt><trkpt lat="48.8913524" lon="9.4661526"><ele>452.0</ele><time>2026-05-02T12:00:35.418Z</time></trkpt><trkpt lat="48.8913714" lon="9.465928"><ele>452.0</ele><time>2026-05-02T12:00:36.418Z</time></trkpt><trkpt lat="48.891385" lon="9.4657037"><ele>452.0</ele><time>2026-05-02T12:00:37.418Z</time></trkpt><trkpt lat="48.8914059" lon="9.4654932"><ele>452.0</ele><time>2026-05-02T12:00:38.418Z</time></trkpt><trkpt lat="48.891423" lon="9.4652787"><ele>452.0</ele><time>2026-05-02T12:00:39.418Z</time></trkpt><trkpt lat="48.891441" lon="9.4650573"><ele>452.0</ele><time>2026-05-02T12:00:40.418Z</time></trkpt><trkpt lat="48.891459" lon="9.4648396"><ele>453.0</ele><time>2026-05-02T12:00:41.418Z</time></trkpt><trkpt lat="48.8914812" lon="9.4646119"><ele>454.0</ele><time>2026-05-02T12:00:42.418Z</time></trkpt><trkpt lat="48.8914974" lon="9.4643846"><ele>455.0</ele><time>2026-05-02T12:00:43.418Z</time></trkpt><trkpt lat="48.891519" lon="9.4641573"><ele>455.0</ele><time>2026-05-02T12:00:44.418Z</time></trkpt><trkpt lat="48.8915337" lon="9.4639256"><ele>455.0</ele><time>2026-05-02T12:00:45.417Z</time></trkpt><trkpt lat="48.8915451" lon="9.4637022"><ele>455.0</ele><time>2026-05-02T12:00:46.418Z</time></trkpt><trkpt lat="48.8915572" lon="9.4634794"><ele>455.0</ele><time>2026-05-02T12:00:47.418Z</time></trkpt><trkpt lat="48.8915724" lon="9.4632485"><ele>455.0</ele><time>2026-05-02T12:00:48.418Z</time></trkpt><trkpt lat="48.8915819" lon="9.4630173"><ele>455.0</ele><time>2026-05-02T12:00:49.418Z</time></trkpt><trkpt lat="48.8915869" lon="9.4627961"><ele>455.0</ele><time>2026-05-02T12:00:50.418Z</time></trkpt><trkpt lat="48.8915892" lon="9.4625774"><ele>455.0</ele><time>2026-05-02T12:00:51.418Z</time></trkpt><trkpt lat="48.8915938" lon="9.4623622"><ele>455.0</ele><time>2026-05-02T12:00:52.418Z</time></trkpt><trkpt lat="48.8915824" lon="9.4621395"><ele>455.0</ele><time>2026-05-02T12:00:53.418Z</time></trkpt><trkpt lat="48.8915723" lon="9.4619089"><ele>455.0</ele><time>2026-05-02T12:00:54.418Z</time></trkpt><trkpt lat="48.891567" lon="9.4616904"><ele>455.0</ele><time>2026-05-02T12:00:55.417Z</time></trkpt><trkpt lat="48.8915648" lon="9.4614822"><ele>455.0</ele><time>2026-05-02T12:00:56.417Z</time></trkpt><trkpt lat="48.8915624" lon="9.4612795"><ele>455.0</ele><time>2026-05-02T12:00:57.418Z</time></trkpt><trkpt lat="48.8915507" lon="9.4610746"><ele>455.0</ele><time>2026-05-02T12:00:58.418Z</time></trkpt><trkpt lat="48.891529" lon="9.460873"><ele>455.0</ele><time>2026-05-02T12:00:59.418Z</time></trkpt><trkpt lat="48.8914956" lon="9.4606841"><ele>455.0</ele><time>2026-05-02T12:01:00.418Z</time></trkpt><trkpt lat="48.8914625" lon="9.460498"><ele>455.0</ele><time>2026-05-02T12:01:01.417Z</time></trkpt><trkpt lat="48.8914279" lon="9.4603109"><ele>455.0</ele><time>2026-05-02T12:01:02.418Z</time></trkpt><trkpt lat="48.8913866" lon="9.4601254"><ele>455.0</ele><time>2026-05-02T12:01:03.418Z</time></trkpt><trkpt lat="48.891347" lon="9.4599433"><ele>455.5</ele><time>2026-05-02T12:01:04.418Z</time></trkpt><trkpt lat="48.8913032" lon="9.459766"><ele>456.0</ele><time>2026-05-02T12:01:05.418Z</time></trkpt><trkpt lat="48.8912596" lon="9.4595904"><ele>456.5</ele><time>2026-05-02T12:01:06.418Z</time></trkpt><trkpt lat="48.8912209" lon="9.4594306"><ele>457.0</ele><time>2026-05-02T12:01:07.418Z</time></trkpt><trkpt lat="48.8911802" lon="9.4592776"><ele>457.20000000000005</ele><time>2026-05-02T12:01:08.418Z</time></trkpt><trkpt lat="48.8911404" lon="9.4591299"><ele>457.40000000000003</ele><time>2026-05-02T12:01:09.418Z</time></trkpt><trkpt lat="48.891108" lon="9.4589817"><ele>457.59999999999997</ele><time>2026-05-02T12:01:10.418Z</time></trkpt><trkpt lat="48.8910785" lon="9.458838"><ele>457.79999999999995</ele><time>2026-05-02T12:01:11.418Z</time></trkpt><trkpt lat="48.8910514" lon="9.4586979"><ele>458.0</ele><time>2026-05-02T12:01:12.418Z</time></trkpt><trkpt lat="48.8910239" lon="9.4585494"><ele>458.16666666666663</ele><time>2026-05-02T12:01:13.417Z</time></trkpt><trkpt lat="48.8910017" lon="9.4584024"><ele>458.3333333333333</ele><time>2026-05-02T12:01:14.417Z</time></trkpt><trkpt lat="48.8909838" lon="9.4582654"><ele>458.5</ele><time>2026-05-02T12:01:15.418Z</time></trkpt><trkpt lat="48.8909742" lon="9.4581353"><ele>458.66666666666663</ele><time>2026-05-02T12:01:16.418Z</time></trkpt><trkpt lat="48.890968" lon="9.4580106"><ele>458.8333333333333</ele><time>2026-05-02T12:01:17.418Z</time></trkpt><trkpt lat="48.890959" lon="9.457895"><ele>459.0</ele><time>2026-05-02T12:01:18.418Z</time></trkpt><trkpt lat="48.8909408" lon="9.4577818"><ele>458.6666666666667</ele><time>2026-05-02T12:01:19.418Z</time></trkpt><trkpt lat="48.8909099" lon="9.4576873"><ele>458.33333333333337</ele><time>2026-05-02T12:01:20.418Z</time></trkpt><trkpt lat="48.8908784" lon="9.4575946"><ele>458.0</ele><time>2026-05-02T12:01:21.418Z</time></trkpt><trkpt lat="48.890847" lon="9.4575004"><ele>457.6666666666667</ele><time>2026-05-02T12:01:22.418Z</time></trkpt><trkpt lat="48.8907974" lon="9.457325"><ele>457.33333333333337</ele><time>2026-05-02T12:01:24.418Z</time></trkpt><trkpt lat="48.8907732" lon="9.4572258"><ele>457.0</ele><time>2026-05-02T12:01:25.418Z</time></trkpt><trkpt lat="48.8907555" lon="9.4571218"><ele>457.33333333333337</ele><time>2026-05-02T12:01:26.418Z</time></trkpt><trkpt lat="48.8907369" lon="9.4570254"><ele>457.6666666666667</ele><time>2026-05-02T12:01:27.418Z</time></trkpt><trkpt lat="48.8907052" lon="9.4568447"><ele>458.0</ele><time>2026-05-02T12:01:29.418Z</time></trkpt><trkpt lat="48.8906911" lon="9.4567253"><ele>458.33333333333337</ele><time>2026-05-02T12:01:31.418Z</time></trkpt><trkpt lat="48.8906806" lon="9.4566218"><ele>458.6666666666667</ele><time>2026-05-02T12:01:33.418Z</time></trkpt><trkpt lat="48.890608" lon="9.4565607"><ele>459.0</ele><time>2026-05-02T12:01:35.418Z</time></trkpt><trkpt lat="48.8905477" lon="9.4566415"><ele>459.0</ele><time>2026-05-02T12:01:37.417Z</time></trkpt><trkpt lat="48.8905791" lon="9.4567513"><ele>459.0</ele><time>2026-05-02T12:01:39.418Z</time></trkpt><trkpt lat="48.8906525" lon="9.4567405"><ele>459.0</ele><time>2026-05-02T12:01:41.418Z</time></trkpt><trkpt lat="48.8906033" lon="9.4565792"><ele>459.0</ele><time>2026-05-02T12:01:45.418Z</time></trkpt><trkpt lat="48.8905437" lon="9.4566364"><ele>459.0</ele><time>2026-05-02T12:01:47.418Z</time></trkpt><trkpt lat="48.8905641" lon="9.4567451"><ele>459.0</ele><time>2026-05-02T12:01:49.418Z</time></trkpt><trkpt lat="48.8906386" lon="9.4568164"><ele>459.0</ele><time>2026-05-02T12:01:51.418Z</time></trkpt><trkpt lat="48.8907004" lon="9.4569356"><ele>459.0</ele><time>2026-05-02T12:01:53.418Z</time></trkpt><trkpt lat="48.8907239" lon="9.4570869"><ele>459.0</ele><time>2026-05-02T12:01:55.418Z</time></trkpt><trkpt lat="48.8907321" lon="9.4571946"><ele>459.0</ele><time>2026-05-02T12:01:57.418Z</time></trkpt><trkpt lat="48.8907268" lon="9.4573089"><ele>459.0</ele><time>2026-05-02T12:02:01.418Z</time></trkpt><trkpt lat="48.8906864" lon="9.4574044"><ele>459.0</ele><time>2026-05-02T12:02:06.417Z</time></trkpt><trkpt lat="48.8907492" lon="9.4573775"><ele>459.0</ele><time>2026-05-02T12:05:57.432Z</time></trkpt><trkpt lat="48.8907515" lon="9.4571695"><ele>459.0</ele><time>2026-05-02T12:06:13.425Z</time></trkpt><trkpt lat="48.8907391" lon="9.4570584"><ele>459.0</ele><time>2026-05-02T12:06:14.426Z</time></trkpt><trkpt lat="48.8907073" lon="9.4568861"><ele>459.0</ele><time>2026-05-02T12:06:16.426Z</time></trkpt><trkpt lat="48.8906871" lon="9.4567362"><ele>459.0</ele><time>2026-05-02T12:06:18.426Z</time></trkpt><trkpt lat="48.8906595" lon="9.4565992"><ele>459.0</ele><time>2026-05-02T12:06:20.426Z</time></trkpt><trkpt lat="48.8905733" lon="9.4565059"><ele>459.0</ele><time>2026-05-02T12:06:22.425Z</time></trkpt><trkpt lat="48.8904607" lon="9.4564194"><ele>459.0</ele><time>2026-05-02T12:06:24.426Z</time></trkpt><trkpt lat="48.8904018" lon="9.4563367"><ele>459.0</ele><time>2026-05-02T12:06:25.425Z</time></trkpt><trkpt lat="48.8903462" lon="9.4562479"><ele>459.0</ele><time>2026-05-02T12:06:26.426Z</time></trkpt><trkpt lat="48.8902903" lon="9.4561463"><ele>458.79999999999995</ele><time>2026-05-02T12:06:27.426Z</time></trkpt><trkpt lat="48.890227" lon="9.456042"><ele>458.59999999999997</ele><time>2026-05-02T12:06:28.426Z</time></trkpt><trkpt lat="48.8901571" lon="9.4559278"><ele>458.4</ele><time>2026-05-02T12:06:29.426Z</time></trkpt><trkpt lat="48.8900808" lon="9.4558123"><ele>458.2</ele><time>2026-05-02T12:06:30.425Z</time></trkpt><trkpt lat="48.8900033" lon="9.4556989"><ele>458.0</ele><time>2026-05-02T12:06:31.426Z</time></trkpt><trkpt lat="48.8899306" lon="9.4555916"><ele>456.59999999999997</ele><time>2026-05-02T12:06:32.426Z</time></trkpt><trkpt lat="48.88986" lon="9.4555037"><ele>455.19999999999993</ele><time>2026-05-02T12:06:33.426Z</time></trkpt><trkpt lat="48.8897914" lon="9.4554227"><ele>453.8</ele><time>2026-05-02T12:06:34.426Z</time></trkpt><trkpt lat="48.8897184" lon="9.4553431"><ele>452.4</ele><time>2026-05-02T12:06:35.426Z</time></trkpt><trkpt lat="48.8896404" lon="9.4552618"><ele>451.0</ele><time>2026-05-02T12:06:36.425Z</time></trkpt><trkpt lat="48.8895526" lon="9.4551911"><ele>451.0</ele><time>2026-05-02T12:06:37.425Z</time></trkpt><trkpt lat="48.8894654" lon="9.455122"><ele>451.0</ele><time>2026-05-02T12:06:38.426Z</time></trkpt><trkpt lat="48.8893734" lon="9.4550428"><ele>451.0</ele><time>2026-05-02T12:06:39.426Z</time></trkpt><trkpt lat="48.8892783" lon="9.454951"><ele>451.0</ele><time>2026-05-02T12:06:40.425Z</time></trkpt><trkpt lat="48.8891823" lon="9.4548522"><ele>451.0</ele><time>2026-05-02T12:06:41.425Z</time></trkpt><trkpt lat="48.88909" lon="9.4547493"><ele>449.25</ele><time>2026-05-02T12:06:42.426Z</time></trkpt><trkpt lat="48.8889955" lon="9.4546579"><ele>447.5</ele><time>2026-05-02T12:06:43.426Z</time></trkpt><trkpt lat="48.8888996" lon="9.4545642"><ele>445.75</ele><time>2026-05-02T12:06:44.426Z</time></trkpt><trkpt lat="48.8887995" lon="9.4544728"><ele>444.0</ele><time>2026-05-02T12:06:45.426Z</time></trkpt><trkpt lat="48.8886946" lon="9.4543859"><ele>444.0</ele><time>2026-05-02T12:06:46.426Z</time></trkpt><trkpt lat="48.888588" lon="9.4543064"><ele>444.0</ele><time>2026-05-02T12:06:47.426Z</time></trkpt><trkpt lat="48.88848" lon="9.4542321"><ele>444.0</ele><time>2026-05-02T12:06:48.425Z</time></trkpt><trkpt lat="48.8883749" lon="9.4541557"><ele>444.0</ele><time>2026-05-02T12:06:49.426Z</time></trkpt><trkpt lat="48.888274" lon="9.454078"><ele>444.25</ele><time>2026-05-02T12:06:50.426Z</time></trkpt><trkpt lat="48.8881718" lon="9.4539998"><ele>444.5</ele><time>2026-05-02T12:06:51.426Z</time></trkpt><trkpt lat="48.8880721" lon="9.4539184"><ele>444.75</ele><time>2026-05-02T12:06:52.426Z</time></trkpt><trkpt lat="48.8879752" lon="9.4538321"><ele>445.0</ele><time>2026-05-02T12:06:53.426Z</time></trkpt><trkpt lat="48.8878757" lon="9.4537433"><ele>445.0</ele><time>2026-05-02T12:06:54.426Z</time></trkpt><trkpt lat="48.8877764" lon="9.4536427"><ele>445.0</ele><time>2026-05-02T12:06:55.426Z</time></trkpt><trkpt lat="48.8876787" lon="9.4535383"><ele>445.0</ele><time>2026-05-02T12:06:56.426Z</time></trkpt><trkpt lat="48.8875801" lon="9.4534339"><ele>445.0</ele><time>2026-05-02T12:06:57.426Z</time></trkpt><trkpt lat="48.8874812" lon="9.4533313"><ele>445.25</ele><time>2026-05-02T12:06:58.426Z</time></trkpt><trkpt lat="48.8873778" lon="9.4532281"><ele>445.5</ele><time>2026-05-02T12:06:59.426Z</time></trkpt><trkpt lat="48.8872709" lon="9.4531257"><ele>445.75</ele><time>2026-05-02T12:07:00.426Z</time></trkpt><trkpt lat="48.8871655" lon="9.4530287"><ele>446.0</ele><time>2026-05-02T12:07:01.425Z</time></trkpt><trkpt lat="48.8870607" lon="9.452933"><ele>446.0</ele><time>2026-05-02T12:07:02.426Z</time></trkpt><trkpt lat="48.8869568" lon="9.4528356"><ele>446.0</ele><time>2026-05-02T12:07:03.426Z</time></trkpt><trkpt lat="48.8868524" lon="9.4527373"><ele>446.0</ele><time>2026-05-02T12:07:04.426Z</time></trkpt><trkpt lat="48.8867565" lon="9.452645"><ele>446.0</ele><time>2026-05-02T12:07:05.426Z</time></trkpt><trkpt lat="48.886664" lon="9.452567"><ele>446.16666666666663</ele><time>2026-05-02T12:07:06.426Z</time></trkpt><trkpt lat="48.8865759" lon="9.4524907"><ele>446.3333333333333</ele><time>2026-05-02T12:07:07.425Z</time></trkpt><trkpt lat="48.8864952" lon="9.4524186"><ele>446.5</ele><time>2026-05-02T12:07:08.426Z</time></trkpt><trkpt lat="48.88643" lon="9.4523616"><ele>446.66666666666663</ele><time>2026-05-02T12:07:09.426Z</time></trkpt><trkpt lat="48.8863753" lon="9.4523048"><ele>446.8333333333333</ele><time>2026-05-02T12:07:10.426Z</time></trkpt><trkpt lat="48.8863222" lon="9.4522524"><ele>447.0</ele><time>2026-05-02T12:07:11.426Z</time></trkpt><trkpt lat="48.8862314" lon="9.4521684"><ele>447.0</ele><time>2026-05-02T12:07:13.426Z</time></trkpt><trkpt lat="48.8861539" lon="9.4520906"><ele>447.0</ele><time>2026-05-02T12:07:15.426Z</time></trkpt><trkpt lat="48.8860782" lon="9.4520025"><ele>447.0</ele><time>2026-05-02T12:07:17.426Z</time></trkpt><trkpt lat="48.8860563" lon="9.4519104"><ele>447.0</ele><time>2026-05-02T12:07:19.426Z</time></trkpt><trkpt lat="48.8860998" lon="9.4518389"><ele>447.0</ele><time>2026-05-02T12:07:22.426Z</time></trkpt><trkpt lat="48.8861636" lon="9.4518413"><ele>447.0</ele><time>2026-05-02T12:07:24.426Z</time></trkpt><trkpt lat="48.8862379" lon="9.4518174"><ele>447.0</ele><time>2026-05-02T12:07:26.426Z</time></trkpt><trkpt lat="48.8862926" lon="9.4517189"><ele>447.0</ele><time>2026-05-02T12:07:28.426Z</time></trkpt><trkpt lat="48.8863028" lon="9.4515961"><ele>447.0</ele><time>2026-05-02T12:07:30.426Z</time></trkpt><trkpt lat="48.8863159" lon="9.4514882"><ele>447.0</ele><time>2026-05-02T12:07:32.425Z</time></trkpt><trkpt lat="48.8863302" lon="9.4513769"><ele>447.0</ele><time>2026-05-02T12:07:34.425Z</time></trkpt><trkpt lat="48.8863104" lon="9.4512666"><ele>447.0</ele><time>2026-05-02T12:07:38.426Z</time></trkpt><trkpt lat="48.8862699" lon="9.4513403"><ele>447.0</ele><time>2026-05-02T12:07:43.425Z</time></trkpt><trkpt lat="48.8862858" lon="9.4514611"><ele>447.0</ele><time>2026-05-02T12:07:46.426Z</time></trkpt><trkpt lat="48.8862828" lon="9.4515846"><ele>447.0</ele><time>2026-05-02T12:07:50.426Z</time></trkpt><trkpt lat="48.886268" lon="9.4516919"><ele>447.0</ele><time>2026-05-02T12:07:53.425Z</time></trkpt><trkpt lat="48.8862212" lon="9.451784"><ele>447.0</ele><time>2026-05-02T12:07:57.426Z</time></trkpt><trkpt lat="48.8861526" lon="9.4518153"><ele>447.0</ele><time>2026-05-02T12:08:00.426Z</time></trkpt><trkpt lat="48.8860761" lon="9.451842"><ele>447.0</ele><time>2026-05-02T12:08:03.426Z</time></trkpt><trkpt lat="48.8860068" lon="9.4518687"><ele>447.0</ele><time>2026-05-02T12:08:06.426Z</time></trkpt><trkpt lat="48.8859302" lon="9.4517645"><ele>447.0</ele><time>2026-05-02T12:08:09.426Z</time></trkpt><trkpt lat="48.8858798" lon="9.451651"><ele>447.0</ele><time>2026-05-02T12:08:11.426Z</time></trkpt><trkpt lat="48.8858366" lon="9.4514919"><ele>447.0</ele><time>2026-05-02T12:08:13.426Z</time></trkpt><trkpt lat="48.8858151" lon="9.4513886"><ele>447.0</ele><time>2026-05-02T12:08:14.426Z</time></trkpt><trkpt lat="48.8857965" lon="9.4512701"><ele>447.0</ele><time>2026-05-02T12:08:15.425Z</time></trkpt><trkpt lat="48.8857736" lon="9.4511427"><ele>447.00000000000006</ele><time>2026-05-02T12:08:16.426Z</time></trkpt><trkpt lat="48.8857532" lon="9.4510168"><ele>447.00000000000006</ele><time>2026-05-02T12:08:17.426Z</time></trkpt><trkpt lat="48.8857272" lon="9.4508879"><ele>447.0</ele><time>2026-05-02T12:08:18.426Z</time></trkpt><trkpt lat="48.8856919" lon="9.4507472"><ele>447.0</ele><time>2026-05-02T12:08:19.426Z</time></trkpt><trkpt lat="48.8856558" lon="9.4506045"><ele>447.0</ele><time>2026-05-02T12:08:20.426Z</time></trkpt><trkpt lat="48.8856042" lon="9.4504651"><ele>447.00000000000006</ele><time>2026-05-02T12:08:21.426Z</time></trkpt><trkpt lat="48.8855455" lon="9.4503175"><ele>447.00000000000006</ele><time>2026-05-02T12:08:22.425Z</time></trkpt><trkpt lat="48.8854854" lon="9.4501849"><ele>447.0</ele><time>2026-05-02T12:08:23.426Z</time></trkpt><trkpt lat="48.8854203" lon="9.4500525"><ele>447.0</ele><time>2026-05-02T12:08:24.426Z</time></trkpt><trkpt lat="48.8853496" lon="9.4499197"><ele>446.75</ele><time>2026-05-02T12:08:25.426Z</time></trkpt><trkpt lat="48.8852772" lon="9.4497837"><ele>446.5</ele><time>2026-05-02T12:08:26.425Z</time></trkpt><trkpt lat="48.8852044" lon="9.4496384"><ele>446.25</ele><time>2026-05-02T12:08:27.426Z</time></trkpt><trkpt lat="48.8851335" lon="9.4494826"><ele>446.0</ele><time>2026-05-02T12:08:28.426Z</time></trkpt><trkpt lat="48.8850677" lon="9.4493352"><ele>446.0</ele><time>2026-05-02T12:08:29.426Z</time></trkpt><trkpt lat="48.8850086" lon="9.4491916"><ele>446.0</ele><time>2026-05-02T12:08:30.425Z</time></trkpt><trkpt lat="48.8849563" lon="9.4490564"><ele>446.0</ele><time>2026-05-02T12:08:31.426Z</time></trkpt><trkpt lat="48.8849052" lon="9.4489235"><ele>446.0</ele><time>2026-05-02T12:08:32.426Z</time></trkpt><trkpt lat="48.88487" lon="9.4487856"><ele>446.0</ele><time>2026-05-02T12:08:33.426Z</time></trkpt><trkpt lat="48.8848445" lon="9.4486573"><ele>445.8</ele><time>2026-05-02T12:08:34.426Z</time></trkpt><trkpt lat="48.8848228" lon="9.4485212"><ele>445.6</ele><time>2026-05-02T12:08:35.425Z</time></trkpt><trkpt lat="48.8848031" lon="9.448382"><ele>445.4</ele><time>2026-05-02T12:08:36.426Z</time></trkpt><trkpt lat="48.8847832" lon="9.4482404"><ele>445.2</ele><time>2026-05-02T12:08:37.426Z</time></trkpt><trkpt lat="48.8847635" lon="9.4480742"><ele>445.0</ele><time>2026-05-02T12:08:38.426Z</time></trkpt><trkpt lat="48.8847414" lon="9.4479066"><ele>444.6</ele><time>2026-05-02T12:08:39.425Z</time></trkpt><trkpt lat="48.8847215" lon="9.4477362"><ele>444.2</ele><time>2026-05-02T12:08:40.425Z</time></trkpt><trkpt lat="48.884695" lon="9.4475679"><ele>443.79999999999995</ele><time>2026-05-02T12:08:41.425Z</time></trkpt><trkpt lat="48.8846657" lon="9.4474094"><ele>443.4</ele><time>2026-05-02T12:08:42.426Z</time></trkpt><trkpt lat="48.8846377" lon="9.4472538"><ele>443.0</ele><time>2026-05-02T12:08:43.426Z</time></trkpt><trkpt lat="48.8846024" lon="9.4470968"><ele>442.75</ele><time>2026-05-02T12:08:44.426Z</time></trkpt><trkpt lat="48.8845748" lon="9.4469287"><ele>442.5</ele><time>2026-05-02T12:08:45.426Z</time></trkpt><trkpt lat="48.8845426" lon="9.4467579"><ele>442.25</ele><time>2026-05-02T12:08:46.426Z</time></trkpt><trkpt lat="48.8845283" lon="9.4465709"><ele>442.0</ele><time>2026-05-02T12:08:47.426Z</time></trkpt><trkpt lat="48.8845276" lon="9.4463938"><ele>441.6</ele><time>2026-05-02T12:08:48.426Z</time></trkpt><trkpt lat="48.8845268" lon="9.446211"><ele>441.20000000000005</ele><time>2026-05-02T12:08:49.426Z</time></trkpt><trkpt lat="48.88453" lon="9.4460455"><ele>440.8</ele><time>2026-05-02T12:08:50.426Z</time></trkpt><trkpt lat="48.8845168" lon="9.4458792"><ele>440.4</ele><time>2026-05-02T12:08:51.426Z</time></trkpt><trkpt lat="48.8844978" lon="9.4457255"><ele>440.0</ele><time>2026-05-02T12:08:52.426Z</time></trkpt><trkpt lat="48.8844684" lon="9.4455852"><ele>440.0</ele><time>2026-05-02T12:08:53.426Z</time></trkpt><trkpt lat="48.8844454" lon="9.4454524"><ele>440.0</ele><time>2026-05-02T12:08:54.426Z</time></trkpt><trkpt lat="48.8844128" lon="9.4453294"><ele>440.0</ele><time>2026-05-02T12:08:55.426Z</time></trkpt><trkpt lat="48.8843785" lon="9.4452026"><ele>440.0</ele><time>2026-05-02T12:08:56.426Z</time></trkpt><trkpt lat="48.8843412" lon="9.4450762"><ele>440.0</ele><time>2026-05-02T12:08:57.426Z</time></trkpt><trkpt lat="48.8842958" lon="9.4449564"><ele>438.99999999999994</ele><time>2026-05-02T12:08:58.426Z</time></trkpt><trkpt lat="48.884242" lon="9.4448365"><ele>438.0</ele><time>2026-05-02T12:08:59.426Z</time></trkpt><trkpt lat="48.8841901" lon="9.4447239"><ele>437.0</ele><time>2026-05-02T12:09:00.426Z</time></trkpt><trkpt lat="48.8841334" lon="9.4446188"><ele>436.0</ele><time>2026-05-02T12:09:01.426Z</time></trkpt><trkpt lat="48.8840693" lon="9.4445283"><ele>434.99999999999994</ele><time>2026-05-02T12:09:02.426Z</time></trkpt><trkpt lat="48.8840036" lon="9.444449"><ele>434.0</ele><time>2026-05-02T12:09:03.426Z</time></trkpt><trkpt lat="48.8839324" lon="9.4443596"><ele>433.99999999999994</ele><time>2026-05-02T12:09:04.426Z</time></trkpt><trkpt lat="48.8838521" lon="9.4442791"><ele>434.0</ele><time>2026-05-02T12:09:05.426Z</time></trkpt><trkpt lat="48.8837753" lon="9.4442131"><ele>434.0</ele><time>2026-05-02T12:09:06.425Z</time></trkpt><trkpt lat="48.883703" lon="9.4441503"><ele>434.0</ele><time>2026-05-02T12:09:07.426Z</time></trkpt><trkpt lat="48.8836343" lon="9.4441019"><ele>433.99999999999994</ele><time>2026-05-02T12:09:08.426Z</time></trkpt><trkpt lat="48.8835657" lon="9.4440607"><ele>434.0</ele><time>2026-05-02T12:09:09.425Z</time></trkpt><trkpt lat="48.8834989" lon="9.4440221"><ele>433.99999999999994</ele><time>2026-05-02T12:09:10.425Z</time></trkpt><trkpt lat="48.8834344" lon="9.4439799"><ele>434.0</ele><time>2026-05-02T12:09:11.426Z</time></trkpt><trkpt lat="48.8833634" lon="9.4439288"><ele>434.0</ele><time>2026-05-02T12:09:12.426Z</time></trkpt><trkpt lat="48.883287" lon="9.4438695"><ele>434.0</ele><time>2026-05-02T12:09:13.426Z</time></trkpt><trkpt lat="48.8832182" lon="9.4437963"><ele>433.99999999999994</ele><time>2026-05-02T12:09:14.426Z</time></trkpt><trkpt lat="48.8831488" lon="9.4437202"><ele>434.0</ele><time>2026-05-02T12:09:15.425Z</time></trkpt><trkpt lat="48.8830857" lon="9.4436337"><ele>432.8333333333333</ele><time>2026-05-02T12:09:16.426Z</time></trkpt><trkpt lat="48.883031" lon="9.4435372"><ele>431.66666666666663</ele><time>2026-05-02T12:09:17.426Z</time></trkpt><trkpt lat="48.8829867" lon="9.4434346"><ele>430.5</ele><time>2026-05-02T12:09:18.426Z</time></trkpt><trkpt lat="48.8829482" lon="9.4433229"><ele>429.33333333333337</ele><time>2026-05-02T12:09:19.426Z</time></trkpt><trkpt lat="48.8829183" lon="9.4432078"><ele>428.1666666666667</ele><time>2026-05-02T12:09:20.426Z</time></trkpt><trkpt lat="48.8828929" lon="9.4430929"><ele>427.0</ele><time>2026-05-02T12:09:21.426Z</time></trkpt><trkpt lat="48.8828775" lon="9.4429787"><ele>427.33333333333337</ele><time>2026-05-02T12:09:22.426Z</time></trkpt><trkpt lat="48.8828738" lon="9.4428652"><ele>427.6666666666667</ele><time>2026-05-02T12:09:23.426Z</time></trkpt><trkpt lat="48.882874" lon="9.4427522"><ele>428.0</ele><time>2026-05-02T12:09:24.426Z</time></trkpt><trkpt lat="48.8828834" lon="9.4426378"><ele>428.33333333333337</ele><time>2026-05-02T12:09:25.426Z</time></trkpt><trkpt lat="48.8829008" lon="9.4424605"><ele>428.6666666666667</ele><time>2026-05-02T12:09:27.425Z</time></trkpt><trkpt lat="48.8828889" lon="9.4423394"><ele>429.0</ele><time>2026-05-02T12:09:29.426Z</time></trkpt><trkpt lat="48.8828298" lon="9.4422643"><ele>429.0</ele><time>2026-05-02T12:09:31.426Z</time></trkpt><trkpt lat="48.8827651" lon="9.4421737"><ele>429.0</ele><time>2026-05-02T12:09:33.426Z</time></trkpt><trkpt lat="48.8827168" lon="9.442091"><ele>429.0</ele><time>2026-05-02T12:09:35.426Z</time></trkpt><trkpt lat="48.8826483" lon="9.4420183"><ele>429.0</ele><time>2026-05-02T12:09:37.426Z</time></trkpt><trkpt lat="48.8825641" lon="9.4419522"><ele>429.0</ele><time>2026-05-02T12:09:39.426Z</time></trkpt><trkpt lat="48.8824809" lon="9.4419139"><ele>429.0</ele><time>2026-05-02T12:09:41.426Z</time></trkpt><trkpt lat="48.8824089" lon="9.4418753"><ele>427.0</ele><time>2026-05-02T12:09:43.425Z</time></trkpt><trkpt lat="48.8823365" lon="9.4418412"><ele>425.0</ele><time>2026-05-02T12:09:45.426Z</time></trkpt><trkpt lat="48.8822717" lon="9.4418185"><ele>423.0</ele><time>2026-05-02T12:09:47.426Z</time></trkpt><trkpt lat="48.8821786" lon="9.4417795"><ele>421.0</ele><time>2026-05-02T12:09:49.425Z</time></trkpt><trkpt lat="48.8820904" lon="9.4417433"><ele>419.0</ele><time>2026-05-02T12:09:51.426Z</time></trkpt><trkpt lat="48.8820116" lon="9.4416975"><ele>417.0</ele><time>2026-05-02T12:09:53.426Z</time></trkpt><trkpt lat="48.8819376" lon="9.4416502"><ele>417.0</ele><time>2026-05-02T12:09:55.426Z</time></trkpt><trkpt lat="48.8818643" lon="9.4416122"><ele>417.0</ele><time>2026-05-02T12:09:57.426Z</time></trkpt><trkpt lat="48.8818033" lon="9.4415673"><ele>417.0</ele><time>2026-05-02T12:09:59.426Z</time></trkpt><trkpt lat="48.8817279" lon="9.4415076"><ele>417.0</ele><time>2026-05-02T12:10:02.426Z</time></trkpt><trkpt lat="48.881661" lon="9.4415519"><ele>417.0</ele><time>2026-05-02T12:10:05.425Z</time></trkpt><trkpt lat="48.881624" lon="9.441632"><ele>417.0</ele><time>2026-05-02T12:10:07.426Z</time></trkpt><trkpt lat="48.881565" lon="9.4417306"><ele>416.5</ele><time>2026-05-02T12:10:10.426Z</time></trkpt><trkpt lat="48.8815079" lon="9.4418421"><ele>416.0</ele><time>2026-05-02T12:10:13.426Z</time></trkpt><trkpt lat="48.8814293" lon="9.4418671"><ele>415.5</ele><time>2026-05-02T12:10:18.426Z</time></trkpt><trkpt lat="48.8813562" lon="9.4418018"><ele>415.0</ele><time>2026-05-02T12:10:22.426Z</time></trkpt><trkpt lat="48.8812947" lon="9.4417406"><ele>414.5</ele><time>2026-05-02T12:10:25.426Z</time></trkpt><trkpt lat="48.8812443" lon="9.4416589"><ele>414.0</ele><time>2026-05-02T12:10:28.426Z</time></trkpt><trkpt lat="48.8811945" lon="9.4415609"><ele>414.0</ele><time>2026-05-02T12:10:31.426Z</time></trkpt><trkpt lat="48.881193" lon="9.4414475"><ele>414.0</ele><time>2026-05-02T12:10:34.425Z</time></trkpt><trkpt lat="48.8812256" lon="9.4413187"><ele>414.0</ele><time>2026-05-02T12:10:37.426Z</time></trkpt><trkpt lat="48.881273" lon="9.4412347"><ele>414.0</ele><time>2026-05-02T12:10:40.425Z</time></trkpt><trkpt lat="48.8812989" lon="9.4410677"><ele>414.0</ele><time>2026-05-02T12:10:43.425Z</time></trkpt><trkpt lat="48.8813212" lon="9.4409265"><ele>414.0</ele><time>2026-05-02T12:10:45.425Z</time></trkpt><trkpt lat="48.8813397" lon="9.4407935"><ele>414.0</ele><time>2026-05-02T12:10:47.426Z</time></trkpt><trkpt lat="48.8813694" lon="9.4406747"><ele>414.0</ele><time>2026-05-02T12:10:49.426Z</time></trkpt><trkpt lat="48.8813321" lon="9.4405714"><ele>414.0</ele><time>2026-05-02T12:10:52.426Z</time></trkpt><trkpt lat="48.8812633" lon="9.4405486"><ele>414.0</ele><time>2026-05-02T12:10:54.426Z</time></trkpt><trkpt lat="48.8811841" lon="9.4405674"><ele>414.0</ele><time>2026-05-02T12:10:56.426Z</time></trkpt><trkpt lat="48.881103" lon="9.4405887"><ele>414.0</ele><time>2026-05-02T12:10:58.426Z</time></trkpt><trkpt lat="48.8810344" lon="9.4406134"><ele>414.00000000000006</ele><time>2026-05-02T12:11:00.426Z</time></trkpt><trkpt lat="48.8809666" lon="9.440666"><ele>414.0</ele><time>2026-05-02T12:11:02.426Z</time></trkpt><trkpt lat="48.8809208" lon="9.4407648"><ele>414.0</ele><time>2026-05-02T12:11:04.426Z</time></trkpt><trkpt lat="48.8809018" lon="9.4408705"><ele>414.0</ele><time>2026-05-02T12:11:06.426Z</time></trkpt><trkpt lat="48.880913" lon="9.4409778"><ele>414.0</ele><time>2026-05-02T12:11:08.426Z</time></trkpt><trkpt lat="48.8809547" lon="9.4410503"><ele>414.00000000000006</ele><time>2026-05-02T12:11:10.426Z</time></trkpt><trkpt lat="48.8810047" lon="9.4411118"><ele>414.0</ele><time>2026-05-02T12:11:12.426Z</time></trkpt><trkpt lat="48.8810712" lon="9.4411559"><ele>414.0</ele><time>2026-05-02T12:11:14.426Z</time></trkpt><trkpt lat="48.881132" lon="9.441198"><ele>414.0</ele><time>2026-05-02T12:11:16.426Z</time></trkpt><trkpt lat="48.881221" lon="9.441194"><ele>414.0</ele><time>2026-05-02T12:11:19.426Z</time></trkpt><trkpt lat="48.8813026" lon="9.4411819"><ele>414.0</ele><time>2026-05-02T12:11:21.426Z</time></trkpt><trkpt lat="48.8813831" lon="9.4412035"><ele>414.0</ele><time>2026-05-02T12:11:23.425Z</time></trkpt><trkpt lat="48.8814615" lon="9.4412862"><ele>414.0</ele><time>2026-05-02T12:11:25.426Z</time></trkpt><trkpt lat="48.8815423" lon="9.4413598"><ele>414.00000000000006</ele><time>2026-05-02T12:11:27.425Z</time></trkpt><trkpt lat="48.881616" lon="9.4414123"><ele>414.0</ele><time>2026-05-02T12:11:29.426Z</time></trkpt><trkpt lat="48.881673" lon="9.441458"><ele>414.0</ele><time>2026-05-02T12:11:31.426Z</time></trkpt><trkpt lat="48.8816683" lon="9.441575"><ele>414.0</ele><time>2026-05-02T12:11:35.425Z</time></trkpt><trkpt lat="48.8816081" lon="9.4416656"><ele>414.0</ele><time>2026-05-02T12:11:38.426Z</time></trkpt><trkpt lat="48.8815743" lon="9.4417529"><ele>414.00000000000006</ele><time>2026-05-02T12:11:41.436Z</time></trkpt><trkpt lat="48.8816027" lon="9.4418419"><ele>414.0</ele><time>2026-05-02T12:11:44.436Z</time></trkpt><trkpt lat="48.8816596" lon="9.4418926"><ele>414.0</ele><time>2026-05-02T12:11:48.436Z</time></trkpt><trkpt lat="48.8817405" lon="9.4418563"><ele>414.0</ele><time>2026-05-02T12:12:32.436Z</time></trkpt><trkpt lat="48.8816706" lon="9.4418265"><ele>414.0</ele><time>2026-05-02T12:13:13.456Z</time></trkpt><trkpt lat="48.8813165" lon="9.4411885"><ele>414.00000000000006</ele><time>2026-05-02T12:13:31.436Z</time></trkpt><trkpt lat="48.8812789" lon="9.4410821"><ele>414.0</ele><time>2026-05-02T12:13:34.435Z</time></trkpt><trkpt lat="48.8813018" lon="9.4409876"><ele>414.0</ele><time>2026-05-02T12:13:36.436Z</time></trkpt><trkpt lat="48.8813251" lon="9.4408899"><ele>414.0</ele><time>2026-05-02T12:13:38.436Z</time></trkpt><trkpt lat="48.8813399" lon="9.4407918"><ele>414.0</ele><time>2026-05-02T12:13:40.436Z</time></trkpt><trkpt lat="48.8813554" lon="9.4406939"><ele>414.00000000000006</ele><time>2026-05-02T12:13:42.436Z</time></trkpt><trkpt lat="48.8813705" lon="9.4405947"><ele>414.0</ele><time>2026-05-02T12:13:44.436Z</time></trkpt><trkpt lat="48.8814134" lon="9.4405038"><ele>414.0</ele><time>2026-05-02T12:13:47.436Z</time></trkpt><trkpt lat="48.8814975" lon="9.4404661"><ele>414.0</ele><time>2026-05-02T12:13:50.436Z</time></trkpt><trkpt lat="48.8815732" lon="9.4404474"><ele>414.0</ele><time>2026-05-02T12:13:52.436Z</time></trkpt><trkpt lat="48.8816418" lon="9.4404819"><ele>414.0</ele><time>2026-05-02T12:13:54.436Z</time></trkpt><trkpt lat="48.881738" lon="9.4404887"><ele>414.0</ele><time>2026-05-02T12:13:56.436Z</time></trkpt><trkpt lat="48.8818327" lon="9.4405021"><ele>414.0</ele><time>2026-05-02T12:13:58.436Z</time></trkpt><trkpt lat="48.8819297" lon="9.4405041"><ele>413.8333333333333</ele><time>2026-05-02T12:14:00.436Z</time></trkpt><trkpt lat="48.8819934" lon="9.4404967"><ele>413.66666666666663</ele><time>2026-05-02T12:14:02.436Z</time></trkpt><trkpt lat="48.8820312" lon="9.4404039"><ele>413.5</ele><time>2026-05-02T12:14:18.435Z</time></trkpt><trkpt lat="48.8820101" lon="9.4402957"><ele>413.3333333333333</ele><time>2026-05-02T12:14:20.436Z</time></trkpt><trkpt lat="48.8819586" lon="9.4401499"><ele>413.16666666666663</ele><time>2026-05-02T12:14:22.436Z</time></trkpt><trkpt lat="48.8818936" lon="9.4399878"><ele>413.0</ele><time>2026-05-02T12:14:24.436Z</time></trkpt><trkpt lat="48.8818465" lon="9.439882"><ele>412.49999999999994</ele><time>2026-05-02T12:14:25.436Z</time></trkpt><trkpt lat="48.8818024" lon="9.439777"><ele>412.0</ele><time>2026-05-02T12:14:26.436Z</time></trkpt><trkpt lat="48.8817624" lon="9.4396777"><ele>411.5</ele><time>2026-05-02T12:14:27.436Z</time></trkpt><trkpt lat="48.8817169" lon="9.4395829"><ele>411.0</ele><time>2026-05-02T12:14:28.436Z</time></trkpt><trkpt lat="48.8816564" lon="9.4394777"><ele>410.49999999999994</ele><time>2026-05-02T12:14:29.436Z</time></trkpt><trkpt lat="48.8815975" lon="9.4393738"><ele>410.0</ele><time>2026-05-02T12:14:30.436Z</time></trkpt><trkpt lat="48.8815336" lon="9.4392871"><ele>407.8333333333333</ele><time>2026-05-02T12:14:31.436Z</time></trkpt><trkpt lat="48.8814659" lon="9.4392176"><ele>405.66666666666663</ele><time>2026-05-02T12:14:32.436Z</time></trkpt><trkpt lat="48.8813954" lon="9.4391608"><ele>403.5</ele><time>2026-05-02T12:14:33.436Z</time></trkpt><trkpt lat="48.8813152" lon="9.4391099"><ele>401.33333333333337</ele><time>2026-05-02T12:14:34.436Z</time></trkpt><trkpt lat="48.8812314" lon="9.4390853"><ele>399.1666666666667</ele><time>2026-05-02T12:14:35.435Z</time></trkpt><trkpt lat="48.8811377" lon="9.4390953"><ele>397.0</ele><time>2026-05-02T12:14:36.436Z</time></trkpt><trkpt lat="48.8810505" lon="9.4391343"><ele>397.0</ele><time>2026-05-02T12:14:37.436Z</time></trkpt><trkpt lat="48.8809625" lon="9.4392114"><ele>397.0</ele><time>2026-05-02T12:14:38.436Z</time></trkpt><trkpt lat="48.880878" lon="9.4393072"><ele>397.0</ele><time>2026-05-02T12:14:39.436Z</time></trkpt><trkpt lat="48.8807917" lon="9.4394096"><ele>397.0</ele><time>2026-05-02T12:14:40.436Z</time></trkpt><trkpt lat="48.8807045" lon="9.4395133"><ele>397.0</ele><time>2026-05-02T12:14:41.436Z</time></trkpt><trkpt lat="48.880622" lon="9.4396281"><ele>399.25</ele><time>2026-05-02T12:14:42.436Z</time></trkpt><trkpt lat="48.8805501" lon="9.4397567"><ele>401.5</ele><time>2026-05-02T12:14:43.436Z</time></trkpt><trkpt lat="48.8804817" lon="9.4399198"><ele>403.75</ele><time>2026-05-02T12:14:44.436Z</time></trkpt><trkpt lat="48.8804187" lon="9.4400966"><ele>406.0</ele><time>2026-05-02T12:14:45.435Z</time></trkpt><trkpt lat="48.8803578" lon="9.4402908"><ele>406.75</ele><time>2026-05-02T12:14:46.436Z</time></trkpt><trkpt lat="48.880289" lon="9.440475"><ele>407.5</ele><time>2026-05-02T12:14:47.436Z</time></trkpt><trkpt lat="48.8802151" lon="9.4406474"><ele>408.25</ele><time>2026-05-02T12:14:48.436Z</time></trkpt><trkpt lat="48.8801516" lon="9.4408186"><ele>409.0</ele><time>2026-05-02T12:14:49.436Z</time></trkpt><trkpt lat="48.8800891" lon="9.440983"><ele>405.0</ele><time>2026-05-02T12:14:50.436Z</time></trkpt><trkpt lat="48.8800323" lon="9.4411359"><ele>401.0</ele><time>2026-05-02T12:14:51.436Z</time></trkpt><trkpt lat="48.8799795" lon="9.441273"><ele>397.0</ele><time>2026-05-02T12:14:52.436Z</time></trkpt><trkpt lat="48.8799319" lon="9.4414179"><ele>393.0</ele><time>2026-05-02T12:14:53.436Z</time></trkpt><trkpt lat="48.8799004" lon="9.4415595"><ele>389.0</ele><time>2026-05-02T12:14:54.436Z</time></trkpt><trkpt lat="48.8798797" lon="9.4416984"><ele>388.99999999999994</ele><time>2026-05-02T12:14:55.436Z</time></trkpt><trkpt lat="48.8798681" lon="9.4418296"><ele>389.0</ele><time>2026-05-02T12:14:56.436Z</time></trkpt><trkpt lat="48.8798531" lon="9.4419555"><ele>389.0</ele><time>2026-05-02T12:14:57.436Z</time></trkpt><trkpt lat="48.8798471" lon="9.4420518"><ele>389.0</ele><time>2026-05-02T12:14:58.435Z</time></trkpt><trkpt lat="48.879812" lon="9.4422061"><ele>388.99999999999994</ele><time>2026-05-02T12:15:00.436Z</time></trkpt><trkpt lat="48.8797112" lon="9.4422523"><ele>389.0</ele><time>2026-05-02T12:15:02.436Z</time></trkpt><trkpt lat="48.8796291" lon="9.4421383"><ele>389.0</ele><time>2026-05-02T12:15:04.436Z</time></trkpt><trkpt lat="48.8795912" lon="9.4419263"><ele>389.0</ele><time>2026-05-02T12:15:06.436Z</time></trkpt><trkpt lat="48.8795769" lon="9.4418009"><ele>389.0</ele><time>2026-05-02T12:15:07.436Z</time></trkpt><trkpt lat="48.8795607" lon="9.4416688"><ele>389.0</ele><time>2026-05-02T12:15:08.436Z</time></trkpt><trkpt lat="48.8795485" lon="9.4415253"><ele>389.0</ele><time>2026-05-02T12:15:09.436Z</time></trkpt><trkpt lat="48.8795347" lon="9.4413774"><ele>388.79999999999995</ele><time>2026-05-02T12:15:10.436Z</time></trkpt><trkpt lat="48.8795091" lon="9.4412265"><ele>388.59999999999997</ele><time>2026-05-02T12:15:11.436Z</time></trkpt><trkpt lat="48.8794741" lon="9.4410814"><ele>388.4</ele><time>2026-05-02T12:15:12.435Z</time></trkpt><trkpt lat="48.8794318" lon="9.4409405"><ele>388.2</ele><time>2026-05-02T12:15:13.436Z</time></trkpt><trkpt lat="48.8793791" lon="9.4408066"><ele>388.0</ele><time>2026-05-02T12:15:14.436Z</time></trkpt><trkpt lat="48.8793127" lon="9.4406696"><ele>384.25</ele><time>2026-05-02T12:15:15.436Z</time></trkpt><trkpt lat="48.879243" lon="9.4405297"><ele>380.5</ele><time>2026-05-02T12:15:16.435Z</time></trkpt><trkpt lat="48.8791737" lon="9.4403889"><ele>376.75</ele><time>2026-05-02T12:15:17.436Z</time></trkpt><trkpt lat="48.8791045" lon="9.4402214"><ele>373.0</ele><time>2026-05-02T12:15:18.435Z</time></trkpt><trkpt lat="48.8790305" lon="9.440051"><ele>372.75</ele><time>2026-05-02T12:15:19.436Z</time></trkpt><trkpt lat="48.8789467" lon="9.4398857"><ele>372.5</ele><time>2026-05-02T12:15:20.436Z</time></trkpt><trkpt lat="48.8788476" lon="9.439727"><ele>372.25</ele><time>2026-05-02T12:15:21.436Z</time></trkpt><trkpt lat="48.8787401" lon="9.4395675"><ele>372.0</ele><time>2026-05-02T12:15:22.436Z</time></trkpt><trkpt lat="48.8786217" lon="9.4394175"><ele>369.6666666666667</ele><time>2026-05-02T12:15:23.436Z</time></trkpt><trkpt lat="48.8784944" lon="9.4392622"><ele>367.33333333333337</ele><time>2026-05-02T12:15:24.436Z</time></trkpt><trkpt lat="48.8783781" lon="9.4391025"><ele>365.0</ele><time>2026-05-02T12:15:25.435Z</time></trkpt><trkpt lat="48.8782669" lon="9.4389497"><ele>360.75</ele><time>2026-05-02T12:15:26.436Z</time></trkpt><trkpt lat="48.8781563" lon="9.4387859"><ele>356.5</ele><time>2026-05-02T12:15:27.436Z</time></trkpt><trkpt lat="48.8780619" lon="9.4386186"><ele>352.25</ele><time>2026-05-02T12:15:28.436Z</time></trkpt><trkpt lat="48.8779654" lon="9.4384532"><ele>348.0</ele><time>2026-05-02T12:15:29.436Z</time></trkpt><trkpt lat="48.877865" lon="9.4382999"><ele>348.0</ele><time>2026-05-02T12:15:30.436Z</time></trkpt><trkpt lat="48.8777575" lon="9.4381541"><ele>348.0</ele><time>2026-05-02T12:15:31.436Z</time></trkpt><trkpt lat="48.8776523" lon="9.4380341"><ele>348.0</ele><time>2026-05-02T12:15:32.436Z</time></trkpt><trkpt lat="48.8775575" lon="9.4379223"><ele>348.0</ele><time>2026-05-02T12:15:33.436Z</time></trkpt><trkpt lat="48.8774636" lon="9.4378049"><ele>348.0</ele><time>2026-05-02T12:15:34.436Z</time></trkpt><trkpt lat="48.8773807" lon="9.4376911"><ele>348.0</ele><time>2026-05-02T12:15:35.435Z</time></trkpt><trkpt lat="48.877303" lon="9.4375479"><ele>348.0</ele><time>2026-05-02T12:15:36.435Z</time></trkpt><trkpt lat="48.8772472" lon="9.4373844"><ele>348.0</ele><time>2026-05-02T12:15:37.436Z</time></trkpt><trkpt lat="48.8772085" lon="9.4372083"><ele>346.0</ele><time>2026-05-02T12:15:38.436Z</time></trkpt><trkpt lat="48.8771877" lon="9.4370163"><ele>344.0</ele><time>2026-05-02T12:15:39.436Z</time></trkpt><trkpt lat="48.8771701" lon="9.4368338"><ele>342.0</ele><time>2026-05-02T12:15:40.436Z</time></trkpt><trkpt lat="48.8771532" lon="9.4366484"><ele>340.0</ele><time>2026-05-02T12:15:41.436Z</time></trkpt><trkpt lat="48.8771279" lon="9.4364605"><ele>338.25</ele><time>2026-05-02T12:15:42.436Z</time></trkpt><trkpt lat="48.8771031" lon="9.4362742"><ele>336.5</ele><time>2026-05-02T12:15:43.436Z</time></trkpt><trkpt lat="48.8770665" lon="9.4360987"><ele>334.75</ele><time>2026-05-02T12:15:44.436Z</time></trkpt><trkpt lat="48.877015" lon="9.4359443"><ele>333.0</ele><time>2026-05-02T12:15:45.436Z</time></trkpt><trkpt lat="48.8769507" lon="9.4357959"><ele>333.0</ele><time>2026-05-02T12:15:46.436Z</time></trkpt><trkpt lat="48.8768702" lon="9.4356554"><ele>333.0</ele><time>2026-05-02T12:15:47.436Z</time></trkpt><trkpt lat="48.8767777" lon="9.4355206"><ele>333.0</ele><time>2026-05-02T12:15:48.436Z</time></trkpt><trkpt lat="48.8766765" lon="9.435408"><ele>333.0</ele><time>2026-05-02T12:15:49.436Z</time></trkpt><trkpt lat="48.8765729" lon="9.4352823"><ele>332.25</ele><time>2026-05-02T12:15:50.435Z</time></trkpt><trkpt lat="48.876463" lon="9.4351691"><ele>331.5</ele><time>2026-05-02T12:15:51.436Z</time></trkpt><trkpt lat="48.8763604" lon="9.4350717"><ele>330.75</ele><time>2026-05-02T12:15:52.436Z</time></trkpt><trkpt lat="48.876256" lon="9.4349792"><ele>330.0</ele><time>2026-05-02T12:15:53.436Z</time></trkpt><trkpt lat="48.876152" lon="9.4348864"><ele>330.0</ele><time>2026-05-02T12:15:54.436Z</time></trkpt><trkpt lat="48.8760487" lon="9.4347853"><ele>330.0</ele><time>2026-05-02T12:15:55.436Z</time></trkpt><trkpt lat="48.8759499" lon="9.4347016"><ele>330.0</ele><time>2026-05-02T12:15:56.436Z</time></trkpt><trkpt lat="48.8758559" lon="9.434617"><ele>330.0</ele><time>2026-05-02T12:15:57.436Z</time></trkpt><trkpt lat="48.8757666" lon="9.4345397"><ele>330.0</ele><time>2026-05-02T12:15:58.435Z</time></trkpt><trkpt lat="48.8756709" lon="9.4344958"><ele>328.8333333333333</ele><time>2026-05-02T12:15:59.436Z</time></trkpt><trkpt lat="48.8755759" lon="9.4344678"><ele>327.6666666666667</ele><time>2026-05-02T12:16:00.436Z</time></trkpt><trkpt lat="48.8754788" lon="9.4344631"><ele>326.5</ele><time>2026-05-02T12:16:01.436Z</time></trkpt><trkpt lat="48.8753966" lon="9.434487"><ele>325.33333333333337</ele><time>2026-05-02T12:16:02.436Z</time></trkpt><trkpt lat="48.8753146" lon="9.4345371"><ele>324.1666666666667</ele><time>2026-05-02T12:16:03.436Z</time></trkpt><trkpt lat="48.8752512" lon="9.4345967"><ele>323.0</ele><time>2026-05-02T12:16:04.435Z</time></trkpt><trkpt lat="48.8751651" lon="9.4347082"><ele>323.0</ele><time>2026-05-02T12:16:06.436Z</time></trkpt><trkpt lat="48.8750666" lon="9.4347306"><ele>323.0</ele><time>2026-05-02T12:16:08.436Z</time></trkpt><trkpt lat="48.8750025" lon="9.4346156"><ele>323.0</ele><time>2026-05-02T12:16:10.436Z</time></trkpt><trkpt lat="48.8750295" lon="9.4344637"><ele>323.0</ele><time>2026-05-02T12:16:12.436Z</time></trkpt><trkpt lat="48.8751123" lon="9.4343122"><ele>323.0</ele><time>2026-05-02T12:16:14.436Z</time></trkpt><trkpt lat="48.8751561" lon="9.4342193"><ele>323.0</ele><time>2026-05-02T12:16:15.436Z</time></trkpt><trkpt lat="48.8752118" lon="9.4341274"><ele>323.0</ele><time>2026-05-02T12:16:16.436Z</time></trkpt><trkpt lat="48.8752665" lon="9.4340349"><ele>323.0</ele><time>2026-05-02T12:16:17.436Z</time></trkpt><trkpt lat="48.875336" lon="9.4339588"><ele>323.0</ele><time>2026-05-02T12:16:18.436Z</time></trkpt><trkpt lat="48.8754083" lon="9.433888"><ele>323.0</ele><time>2026-05-02T12:16:19.436Z</time></trkpt><trkpt lat="48.8754821" lon="9.4338243"><ele>323.0</ele><time>2026-05-02T12:16:20.436Z</time></trkpt><trkpt lat="48.8755588" lon="9.4337632"><ele>321.83333333333337</ele><time>2026-05-02T12:16:21.436Z</time></trkpt><trkpt lat="48.8756378" lon="9.4337035"><ele>320.6666666666667</ele><time>2026-05-02T12:16:22.436Z</time></trkpt><trkpt lat="48.8757049" lon="9.4336334"><ele>319.5</ele><time>2026-05-02T12:16:23.436Z</time></trkpt><trkpt lat="48.8757579" lon="9.4335505"><ele>318.3333333333333</ele><time>2026-05-02T12:16:24.436Z</time></trkpt><trkpt lat="48.8758124" lon="9.4334565"><ele>317.16666666666663</ele><time>2026-05-02T12:16:25.436Z</time></trkpt><trkpt lat="48.8758508" lon="9.4333449"><ele>316.0</ele><time>2026-05-02T12:16:26.436Z</time></trkpt><trkpt lat="48.8758939" lon="9.4332455"><ele>316.0</ele><time>2026-05-02T12:16:27.436Z</time></trkpt><trkpt lat="48.8759213" lon="9.433128"><ele>316.0</ele><time>2026-05-02T12:16:28.436Z</time></trkpt><trkpt lat="48.8759387" lon="9.4329994"><ele>316.0</ele><time>2026-05-02T12:16:29.436Z</time></trkpt><trkpt lat="48.8759603" lon="9.4328626"><ele>316.0</ele><time>2026-05-02T12:16:30.436Z</time></trkpt><trkpt lat="48.8759734" lon="9.4327135"><ele>316.0</ele><time>2026-05-02T12:16:31.436Z</time></trkpt><trkpt lat="48.87599" lon="9.4325552"><ele>314.0</ele><time>2026-05-02T12:16:32.436Z</time></trkpt><trkpt lat="48.8760009" lon="9.4324008"><ele>312.0</ele><time>2026-05-02T12:16:33.436Z</time></trkpt><trkpt lat="48.8759976" lon="9.4322536"><ele>310.0</ele><time>2026-05-02T12:16:34.435Z</time></trkpt><trkpt lat="48.8759968" lon="9.4321095"><ele>308.0</ele><time>2026-05-02T12:16:35.436Z</time></trkpt><trkpt lat="48.8759895" lon="9.4319719"><ele>306.0</ele><time>2026-05-02T12:16:36.435Z</time></trkpt><trkpt lat="48.8759793" lon="9.4318349"><ele>306.0</ele><time>2026-05-02T12:16:37.436Z</time></trkpt><trkpt lat="48.8759725" lon="9.4316994"><ele>306.0</ele><time>2026-05-02T12:16:38.436Z</time></trkpt><trkpt lat="48.875957" lon="9.4315731"><ele>306.0</ele><time>2026-05-02T12:16:39.436Z</time></trkpt><trkpt lat="48.875943" lon="9.431452"><ele>306.0</ele><time>2026-05-02T12:16:40.436Z</time></trkpt><trkpt lat="48.8759191" lon="9.4313391"><ele>306.0</ele><time>2026-05-02T12:16:41.436Z</time></trkpt><trkpt lat="48.875905" lon="9.4312296"><ele>306.0</ele><time>2026-05-02T12:16:42.436Z</time></trkpt><trkpt lat="48.8758956" lon="9.431133"><ele>306.0</ele><time>2026-05-02T12:16:43.436Z</time></trkpt><trkpt lat="48.8758912" lon="9.430982"><ele>306.0</ele><time>2026-05-02T12:16:45.436Z</time></trkpt><trkpt lat="48.8759339" lon="9.430901"><ele>306.0</ele><time>2026-05-02T12:16:47.435Z</time></trkpt><trkpt lat="48.8759886" lon="9.4308466"><ele>306.0</ele><time>2026-05-02T12:16:49.436Z</time></trkpt><trkpt lat="48.8760619" lon="9.4308046"><ele>306.0</ele><time>2026-05-02T12:16:52.436Z</time></trkpt><trkpt lat="48.8761575" lon="9.4307782"><ele>306.0</ele><time>2026-05-02T12:16:55.436Z</time></trkpt><trkpt lat="48.8762299" lon="9.43076"><ele>305.0</ele><time>2026-05-02T12:16:57.436Z</time></trkpt><trkpt lat="48.8763069" lon="9.4307452"><ele>304.0</ele><time>2026-05-02T12:16:59.436Z</time></trkpt><trkpt lat="48.8764073" lon="9.4307384"><ele>303.0</ele><time>2026-05-02T12:17:01.436Z</time></trkpt><trkpt lat="48.8765011" lon="9.4307668"><ele>302.0</ele><time>2026-05-02T12:17:03.436Z</time></trkpt><trkpt lat="48.8766158" lon="9.430828"><ele>301.0</ele><time>2026-05-02T12:17:05.436Z</time></trkpt><trkpt lat="48.8766854" lon="9.4308696"><ele>301.0</ele><time>2026-05-02T12:17:06.436Z</time></trkpt><trkpt lat="48.8767478" lon="9.4309137"><ele>301.0</ele><time>2026-05-02T12:17:07.436Z</time></trkpt><trkpt lat="48.8768132" lon="9.4309534"><ele>301.0</ele><time>2026-05-02T12:17:08.436Z</time></trkpt><trkpt lat="48.8768771" lon="9.4309984"><ele>301.0</ele><time>2026-05-02T12:17:09.435Z</time></trkpt><trkpt lat="48.8769359" lon="9.4310394"><ele>301.0</ele><time>2026-05-02T12:17:10.436Z</time></trkpt><trkpt lat="48.8770042" lon="9.4310793"><ele>301.0</ele><time>2026-05-02T12:17:11.436Z</time></trkpt><trkpt lat="48.877069" lon="9.431119"><ele>301.0</ele><time>2026-05-02T12:17:12.436Z</time></trkpt><trkpt lat="48.877132" lon="9.4311727"><ele>301.0</ele><time>2026-05-02T12:17:13.436Z</time></trkpt><trkpt lat="48.8772353" lon="9.4312797"><ele>301.0</ele><time>2026-05-02T12:17:15.436Z</time></trkpt><trkpt lat="48.8773448" lon="9.4313503"><ele>301.0</ele><time>2026-05-02T12:17:17.436Z</time></trkpt><trkpt lat="48.8774011" lon="9.4313972"><ele>301.0</ele><time>2026-05-02T12:17:18.436Z</time></trkpt><trkpt lat="48.8774834" lon="9.4314892"><ele>301.0</ele><time>2026-05-02T12:17:20.435Z</time></trkpt><trkpt lat="48.8775451" lon="9.4315859"><ele>301.0</ele><time>2026-05-02T12:17:22.436Z</time></trkpt><trkpt lat="48.8775979" lon="9.4317281"><ele>301.0</ele><time>2026-05-02T12:17:24.436Z</time></trkpt><trkpt lat="48.8776187" lon="9.4318242"><ele>301.0</ele><time>2026-05-02T12:17:25.436Z</time></trkpt><trkpt lat="48.8776502" lon="9.431922"><ele>301.0</ele><time>2026-05-02T12:17:26.436Z</time></trkpt><trkpt lat="48.8776751" lon="9.4320269"><ele>301.0</ele><time>2026-05-02T12:17:27.436Z</time></trkpt><trkpt lat="48.8777045" lon="9.4321253"><ele>301.0</ele><time>2026-05-02T12:17:28.436Z</time></trkpt><trkpt lat="48.8777417" lon="9.4322093"><ele>300.40000000000003</ele><time>2026-05-02T12:17:29.436Z</time></trkpt><trkpt lat="48.8777857" lon="9.4322899"><ele>299.8</ele><time>2026-05-02T12:17:30.436Z</time></trkpt><trkpt lat="48.8778718" lon="9.4324204"><ele>299.20000000000005</ele><time>2026-05-02T12:17:32.436Z</time></trkpt><trkpt lat="48.8779225" lon="9.4324801"><ele>298.6</ele><time>2026-05-02T12:17:33.435Z</time></trkpt><trkpt lat="48.8780136" lon="9.4325725"><ele>298.0</ele><time>2026-05-02T12:17:35.436Z</time></trkpt><trkpt lat="48.8781122" lon="9.4326399"><ele>298.0</ele><time>2026-05-02T12:17:37.436Z</time></trkpt><trkpt lat="48.8782292" lon="9.4326669"><ele>298.0</ele><time>2026-05-02T12:17:39.436Z</time></trkpt><trkpt lat="48.8783383" lon="9.432649"><ele>298.0</ele><time>2026-05-02T12:17:41.436Z</time></trkpt><trkpt lat="48.8784334" lon="9.4326339"><ele>298.0</ele><time>2026-05-02T12:17:43.436Z</time></trkpt><trkpt lat="48.8785292" lon="9.4326076"><ele>298.0</ele><time>2026-05-02T12:17:45.436Z</time></trkpt><trkpt lat="48.8786033" lon="9.4325648"><ele>297.8333333333333</ele><time>2026-05-02T12:17:47.436Z</time></trkpt><trkpt lat="48.8786902" lon="9.4325224"><ele>297.66666666666663</ele><time>2026-05-02T12:17:49.436Z</time></trkpt><trkpt lat="48.8787615" lon="9.4324741"><ele>297.5</ele><time>2026-05-02T12:17:51.436Z</time></trkpt><trkpt lat="48.8788494" lon="9.4324285"><ele>297.3333333333333</ele><time>2026-05-02T12:17:53.436Z</time></trkpt><trkpt lat="48.8789288" lon="9.4323885"><ele>297.1666666666667</ele><time>2026-05-02T12:17:55.436Z</time></trkpt><trkpt lat="48.8789964" lon="9.4323425"><ele>297.0</ele><time>2026-05-02T12:17:57.436Z</time></trkpt><trkpt lat="48.8790315" lon="9.4322549"><ele>297.8</ele><time>2026-05-02T12:17:59.436Z</time></trkpt><trkpt lat="48.8790209" lon="9.4321159"><ele>298.6</ele><time>2026-05-02T12:18:01.435Z</time></trkpt><trkpt lat="48.8789519" lon="9.431959"><ele>299.40000000000003</ele><time>2026-05-02T12:18:03.435Z</time></trkpt><trkpt lat="48.8788963" lon="9.4318067"><ele>300.2</ele><time>2026-05-02T12:18:05.435Z</time></trkpt><trkpt lat="48.8788509" lon="9.4316408"><ele>301.0</ele><time>2026-05-02T12:18:07.436Z</time></trkpt><trkpt lat="48.8787967" lon="9.4314701"><ele>301.5</ele><time>2026-05-02T12:18:09.436Z</time></trkpt><trkpt lat="48.8787437" lon="9.4313072"><ele>302.0</ele><time>2026-05-02T12:18:11.436Z</time></trkpt><trkpt lat="48.8786805" lon="9.4311418"><ele>302.5</ele><time>2026-05-02T12:18:13.436Z</time></trkpt><trkpt lat="48.8786206" lon="9.4309851"><ele>303.0</ele><time>2026-05-02T12:18:15.436Z</time></trkpt><trkpt lat="48.8785569" lon="9.4308252"><ele>303.0</ele><time>2026-05-02T12:18:17.436Z</time></trkpt><trkpt lat="48.8784853" lon="9.4306607"><ele>303.0</ele><time>2026-05-02T12:18:19.435Z</time></trkpt><trkpt lat="48.8784496" lon="9.4305683"><ele>303.0</ele><time>2026-05-02T12:18:20.436Z</time></trkpt><trkpt lat="48.8784122" lon="9.4304814"><ele>303.0</ele><time>2026-05-02T12:18:21.444Z</time></trkpt><trkpt lat="48.8783757" lon="9.4303982"><ele>303.0</ele><time>2026-05-02T12:18:22.444Z</time></trkpt><trkpt lat="48.8783309" lon="9.4303172"><ele>303.0</ele><time>2026-05-02T12:18:23.444Z</time></trkpt><trkpt lat="48.8782961" lon="9.4302348"><ele>302.2</ele><time>2026-05-02T12:18:24.444Z</time></trkpt><trkpt lat="48.87826" lon="9.4301559"><ele>301.4</ele><time>2026-05-02T12:18:25.444Z</time></trkpt><trkpt lat="48.878205" lon="9.430005"><ele>300.59999999999997</ele><time>2026-05-02T12:18:27.444Z</time></trkpt><trkpt lat="48.8781581" lon="9.4299039"><ele>299.8</ele><time>2026-05-02T12:18:29.444Z</time></trkpt><trkpt lat="48.878102" lon="9.4298127"><ele>299.0</ele><time>2026-05-02T12:18:31.444Z</time></trkpt><trkpt lat="48.8780284" lon="9.4296429"><ele>299.0</ele><time>2026-05-02T12:18:33.444Z</time></trkpt><trkpt lat="48.8779883" lon="9.4295294"><ele>299.0</ele><time>2026-05-02T12:18:34.443Z</time></trkpt><trkpt lat="48.8779464" lon="9.429407"><ele>299.0</ele><time>2026-05-02T12:18:35.444Z</time></trkpt><trkpt lat="48.8779035" lon="9.4292678"><ele>299.0</ele><time>2026-05-02T12:18:36.444Z</time></trkpt><trkpt lat="48.8778565" lon="9.4291155"><ele>299.0</ele><time>2026-05-02T12:18:37.444Z</time></trkpt><trkpt lat="48.8778036" lon="9.428945"><ele>299.5</ele><time>2026-05-02T12:18:38.444Z</time></trkpt><trkpt lat="48.8777499" lon="9.4287571"><ele>300.0</ele><time>2026-05-02T12:18:39.444Z</time></trkpt><trkpt lat="48.8777003" lon="9.4285733"><ele>300.5</ele><time>2026-05-02T12:18:40.444Z</time></trkpt><trkpt lat="48.8776493" lon="9.4283812"><ele>301.0</ele><time>2026-05-02T12:18:41.444Z</time></trkpt><trkpt lat="48.8775975" lon="9.4281709"><ele>299.25</ele><time>2026-05-02T12:18:42.444Z</time></trkpt><trkpt lat="48.8775415" lon="9.4279569"><ele>297.5</ele><time>2026-05-02T12:18:43.444Z</time></trkpt><trkpt lat="48.8774875" lon="9.4277584"><ele>295.75</ele><time>2026-05-02T12:18:44.444Z</time></trkpt><trkpt lat="48.87744" lon="9.4275784"><ele>294.0</ele><time>2026-05-02T12:18:45.444Z</time></trkpt><trkpt lat="48.8773966" lon="9.4274193"><ele>294.0</ele><time>2026-05-02T12:18:46.444Z</time></trkpt><trkpt lat="48.8773573" lon="9.4272736"><ele>294.0</ele><time>2026-05-02T12:18:47.444Z</time></trkpt><trkpt lat="48.8773264" lon="9.4271501"><ele>294.0</ele><time>2026-05-02T12:18:48.444Z</time></trkpt><trkpt lat="48.8772942" lon="9.4270441"><ele>294.0</ele><time>2026-05-02T12:18:49.444Z</time></trkpt><trkpt lat="48.8772529" lon="9.4269346"><ele>294.0</ele><time>2026-05-02T12:18:50.444Z</time></trkpt><trkpt lat="48.8772027" lon="9.4268451"><ele>294.0</ele><time>2026-05-02T12:18:51.444Z</time></trkpt><trkpt lat="48.8771602" lon="9.4267659"><ele>294.0</ele><time>2026-05-02T12:18:52.444Z</time></trkpt><trkpt lat="48.8770838" lon="9.4266495"><ele>294.0</ele><time>2026-05-02T12:18:54.444Z</time></trkpt><trkpt lat="48.8770089" lon="9.4265669"><ele>294.0</ele><time>2026-05-02T12:18:56.443Z</time></trkpt><trkpt lat="48.8769193" lon="9.4264764"><ele>294.0</ele><time>2026-05-02T12:18:58.444Z</time></trkpt><trkpt lat="48.876865" lon="9.4263617"><ele>294.0</ele><time>2026-05-02T12:19:00.444Z</time></trkpt><trkpt lat="48.8768544" lon="9.426193"><ele>294.3333333333333</ele><time>2026-05-02T12:19:02.444Z</time></trkpt><trkpt lat="48.87688" lon="9.4260034"><ele>294.6666666666667</ele><time>2026-05-02T12:19:04.444Z</time></trkpt><trkpt lat="48.8768939" lon="9.4259069"><ele>295.0</ele><time>2026-05-02T12:19:05.444Z</time></trkpt><trkpt lat="48.8769047" lon="9.4257994"><ele>295.33333333333337</ele><time>2026-05-02T12:19:06.443Z</time></trkpt><trkpt lat="48.8769209" lon="9.4256917"><ele>295.6666666666667</ele><time>2026-05-02T12:19:07.443Z</time></trkpt><trkpt lat="48.8769323" lon="9.4255823"><ele>296.0</ele><time>2026-05-02T12:19:08.444Z</time></trkpt><trkpt lat="48.8769367" lon="9.4254819"><ele>296.5</ele><time>2026-05-02T12:19:09.444Z</time></trkpt><trkpt lat="48.8769471" lon="9.4253769"><ele>297.0</ele><time>2026-05-02T12:19:10.444Z</time></trkpt><trkpt lat="48.8769573" lon="9.425282"><ele>297.5</ele><time>2026-05-02T12:19:11.444Z</time></trkpt><trkpt lat="48.876985" lon="9.4251319"><ele>298.0</ele><time>2026-05-02T12:19:13.439Z</time></trkpt><trkpt lat="48.8769919" lon="9.4250039"><ele>298.5</ele><time>2026-05-02T12:19:15.444Z</time></trkpt><trkpt lat="48.8769464" lon="9.4248808"><ele>299.0</ele><time>2026-05-02T12:19:17.444Z</time></trkpt><trkpt lat="48.8768281" lon="9.4247952"><ele>297.8</ele><time>2026-05-02T12:19:19.444Z</time></trkpt><trkpt lat="48.876744" lon="9.4247795"><ele>296.59999999999997</ele><time>2026-05-02T12:19:20.444Z</time></trkpt><trkpt lat="48.876654" lon="9.4247733"><ele>295.4</ele><time>2026-05-02T12:19:21.443Z</time></trkpt><trkpt lat="48.8765578" lon="9.4247473"><ele>294.2</ele><time>2026-05-02T12:19:22.444Z</time></trkpt><trkpt lat="48.8764587" lon="9.4247185"><ele>293.0</ele><time>2026-05-02T12:19:23.444Z</time></trkpt><trkpt lat="48.8763592" lon="9.4246833"><ele>293.0</ele><time>2026-05-02T12:19:24.444Z</time></trkpt><trkpt lat="48.8762714" lon="9.4246486"><ele>293.0</ele><time>2026-05-02T12:19:25.443Z</time></trkpt><trkpt lat="48.8761905" lon="9.4246219"><ele>293.0</ele><time>2026-05-02T12:19:26.444Z</time></trkpt><trkpt lat="48.876111" lon="9.4245977"><ele>293.0</ele><time>2026-05-02T12:19:27.444Z</time></trkpt><trkpt lat="48.8760292" lon="9.4245733"><ele>293.0</ele><time>2026-05-02T12:19:28.444Z</time></trkpt><trkpt lat="48.875957" lon="9.4245489"><ele>293.0</ele><time>2026-05-02T12:19:29.444Z</time></trkpt><trkpt lat="48.8758829" lon="9.4245167"><ele>293.5</ele><time>2026-05-02T12:19:30.444Z</time></trkpt><trkpt lat="48.8758121" lon="9.4244868"><ele>294.0</ele><time>2026-05-02T12:19:31.444Z</time></trkpt><trkpt lat="48.8757393" lon="9.4244513"><ele>294.5</ele><time>2026-05-02T12:19:32.444Z</time></trkpt><trkpt lat="48.8756702" lon="9.4244145"><ele>295.0</ele><time>2026-05-02T12:19:33.444Z</time></trkpt><trkpt lat="48.8755986" lon="9.4243747"><ele>295.5</ele><time>2026-05-02T12:19:34.444Z</time></trkpt><trkpt lat="48.8755246" lon="9.4243377"><ele>296.0</ele><time>2026-05-02T12:19:35.444Z</time></trkpt><trkpt lat="48.8754489" lon="9.424293"><ele>296.0</ele><time>2026-05-02T12:19:36.444Z</time></trkpt><trkpt lat="48.8753798" lon="9.4242478"><ele>296.0</ele><time>2026-05-02T12:19:37.444Z</time></trkpt><trkpt lat="48.87531" lon="9.4242034"><ele>296.0</ele><time>2026-05-02T12:19:38.444Z</time></trkpt><trkpt lat="48.8752381" lon="9.4241637"><ele>296.0</ele><time>2026-05-02T12:19:39.444Z</time></trkpt><trkpt lat="48.8751668" lon="9.4241104"><ele>296.0</ele><time>2026-05-02T12:19:40.444Z</time></trkpt><trkpt lat="48.8750951" lon="9.424066"><ele>296.0</ele><time>2026-05-02T12:19:41.443Z</time></trkpt><trkpt lat="48.8750287" lon="9.4240099"><ele>296.0</ele><time>2026-05-02T12:19:42.444Z</time></trkpt><trkpt lat="48.8749616" lon="9.4239541"><ele>296.0</ele><time>2026-05-02T12:19:43.444Z</time></trkpt><trkpt lat="48.8748989" lon="9.4238866"><ele>296.0</ele><time>2026-05-02T12:19:44.443Z</time></trkpt><trkpt lat="48.8748406" lon="9.4238132"><ele>296.0</ele><time>2026-05-02T12:19:45.444Z</time></trkpt><trkpt lat="48.8747823" lon="9.4237344"><ele>296.0</ele><time>2026-05-02T12:19:46.444Z</time></trkpt><trkpt lat="48.8747218" lon="9.423653"><ele>296.0</ele><time>2026-05-02T12:19:47.444Z</time></trkpt><trkpt lat="48.8746709" lon="9.4235797"><ele>296.14285714285717</ele><time>2026-05-02T12:19:48.444Z</time></trkpt><trkpt lat="48.8746143" lon="9.4235051"><ele>296.2857142857143</ele><time>2026-05-02T12:19:49.444Z</time></trkpt><trkpt lat="48.8745518" lon="9.4234332"><ele>296.42857142857144</ele><time>2026-05-02T12:19:50.444Z</time></trkpt><trkpt lat="48.8744974" lon="9.4233675"><ele>296.57142857142856</ele><time>2026-05-02T12:19:51.444Z</time></trkpt><trkpt lat="48.8744395" lon="9.4233111"><ele>296.7142857142857</ele><time>2026-05-02T12:19:52.444Z</time></trkpt><trkpt lat="48.874374" lon="9.423244"><ele>296.8571428571429</ele><time>2026-05-02T12:19:53.443Z</time></trkpt><trkpt lat="48.8743052" lon="9.4231931"><ele>297.0</ele><time>2026-05-02T12:19:54.444Z</time></trkpt><trkpt lat="48.8742449" lon="9.4231624"><ele>296.3333333333333</ele><time>2026-05-02T12:19:55.444Z</time></trkpt><trkpt lat="48.8741839" lon="9.4231187"><ele>295.6666666666667</ele><time>2026-05-02T12:19:56.444Z</time></trkpt><trkpt lat="48.8741167" lon="9.4230694"><ele>295.0</ele><time>2026-05-02T12:19:57.444Z</time></trkpt><trkpt lat="48.8740479" lon="9.4230153"><ele>294.33333333333337</ele><time>2026-05-02T12:19:58.444Z</time></trkpt><trkpt lat="48.873971" lon="9.422972"><ele>293.6666666666667</ele><time>2026-05-02T12:19:59.444Z</time></trkpt><trkpt lat="48.8738979" lon="9.4229293"><ele>293.0</ele><time>2026-05-02T12:20:00.444Z</time></trkpt><trkpt lat="48.8738162" lon="9.4228745"><ele>292.83333333333337</ele><time>2026-05-02T12:20:01.444Z</time></trkpt><trkpt lat="48.8737427" lon="9.4228196"><ele>292.6666666666667</ele><time>2026-05-02T12:20:02.444Z</time></trkpt><trkpt lat="48.8736716" lon="9.4227677"><ele>292.5</ele><time>2026-05-02T12:20:03.444Z</time></trkpt><trkpt lat="48.8736027" lon="9.4227252"><ele>292.3333333333333</ele><time>2026-05-02T12:20:04.444Z</time></trkpt><trkpt lat="48.873536" lon="9.4226866"><ele>292.16666666666663</ele><time>2026-05-02T12:20:05.444Z</time></trkpt><trkpt lat="48.873475" lon="9.4226307"><ele>292.0</ele><time>2026-05-02T12:20:06.444Z</time></trkpt><trkpt lat="48.8734129" lon="9.4225738"><ele>290.8333333333333</ele><time>2026-05-02T12:20:07.444Z</time></trkpt><trkpt lat="48.8733557" lon="9.4225118"><ele>289.66666666666663</ele><time>2026-05-02T12:20:08.444Z</time></trkpt><trkpt lat="48.873293" lon="9.4224604"><ele>288.5</ele><time>2026-05-02T12:20:09.444Z</time></trkpt><trkpt lat="48.8732357" lon="9.4224079"><ele>287.3333333333333</ele><time>2026-05-02T12:20:10.444Z</time></trkpt><trkpt lat="48.8731346" lon="9.4223317"><ele>286.1666666666667</ele><time>2026-05-02T12:20:12.444Z</time></trkpt><trkpt lat="48.8730469" lon="9.4222512"><ele>285.0</ele><time>2026-05-02T12:20:14.444Z</time></trkpt><trkpt lat="48.8729713" lon="9.4221869"><ele>284.5</ele><time>2026-05-02T12:20:16.444Z</time></trkpt><trkpt lat="48.8729175" lon="9.4221206"><ele>284.0</ele><time>2026-05-02T12:20:18.444Z</time></trkpt><trkpt lat="48.8728494" lon="9.4220592"><ele>283.5</ele><time>2026-05-02T12:20:30.444Z</time></trkpt><trkpt lat="48.8727965" lon="9.4219684"><ele>283.0</ele><time>2026-05-02T12:20:32.444Z</time></trkpt><trkpt lat="48.8728123" lon="9.4218446"><ele>282.5</ele><time>2026-05-02T12:20:34.444Z</time></trkpt><trkpt lat="48.872879" lon="9.4217079"><ele>282.0</ele><time>2026-05-02T12:20:36.444Z</time></trkpt><trkpt lat="48.8729648" lon="9.4215913"><ele>282.0</ele><time>2026-05-02T12:20:38.443Z</time></trkpt><trkpt lat="48.8730345" lon="9.4214607"><ele>282.0</ele><time>2026-05-02T12:20:40.444Z</time></trkpt><trkpt lat="48.8731022" lon="9.4213224"><ele>282.0</ele><time>2026-05-02T12:20:42.443Z</time></trkpt><trkpt lat="48.8731801" lon="9.4211784"><ele>282.0</ele><time>2026-05-02T12:20:44.444Z</time></trkpt><trkpt lat="48.8732358" lon="9.4210433"><ele>281.8333333333333</ele><time>2026-05-02T12:20:46.444Z</time></trkpt><trkpt lat="48.873305" lon="9.4209071"><ele>281.6666666666667</ele><time>2026-05-02T12:20:48.444Z</time></trkpt><trkpt lat="48.8733391" lon="9.4208185"><ele>281.5</ele><time>2026-05-02T12:20:49.444Z</time></trkpt><trkpt lat="48.8734119" lon="9.4206666"><ele>281.33333333333337</ele><time>2026-05-02T12:20:51.444Z</time></trkpt><trkpt lat="48.8734502" lon="9.4205837"><ele>281.1666666666667</ele><time>2026-05-02T12:20:52.444Z</time></trkpt><trkpt lat="48.8734899" lon="9.4205053"><ele>281.0</ele><time>2026-05-02T12:20:53.444Z</time></trkpt><trkpt lat="48.8735233" lon="9.4204186"><ele>281.6666666666667</ele><time>2026-05-02T12:20:54.444Z</time></trkpt><trkpt lat="48.8735887" lon="9.4202528"><ele>282.33333333333337</ele><time>2026-05-02T12:20:56.444Z</time></trkpt><trkpt lat="48.8736267" lon="9.4201515"><ele>283.0</ele><time>2026-05-02T12:20:57.443Z</time></trkpt><trkpt lat="48.8736627" lon="9.4200428"><ele>283.6666666666667</ele><time>2026-05-02T12:20:58.444Z</time></trkpt><trkpt lat="48.8736976" lon="9.41994"><ele>284.3333333333333</ele><time>2026-05-02T12:20:59.443Z</time></trkpt><trkpt lat="48.873732" lon="9.4198366"><ele>285.0</ele><time>2026-05-02T12:21:00.443Z</time></trkpt><trkpt lat="48.8737778" lon="9.4197185"><ele>284.7142857142857</ele><time>2026-05-02T12:21:01.444Z</time></trkpt><trkpt lat="48.8738108" lon="9.4196094"><ele>284.42857142857144</ele><time>2026-05-02T12:21:02.444Z</time></trkpt><trkpt lat="48.8738285" lon="9.4195032"><ele>284.14285714285717</ele><time>2026-05-02T12:21:03.444Z</time></trkpt><trkpt lat="48.8738516" lon="9.4193947"><ele>283.8571428571429</ele><time>2026-05-02T12:21:04.444Z</time></trkpt><trkpt lat="48.8738794" lon="9.4192867"><ele>283.5714285714286</ele><time>2026-05-02T12:21:05.444Z</time></trkpt><trkpt lat="48.8739004" lon="9.4191851"><ele>283.2857142857143</ele><time>2026-05-02T12:21:06.443Z</time></trkpt><trkpt lat="48.8739157" lon="9.4190869"><ele>283.0</ele><time>2026-05-02T12:21:07.443Z</time></trkpt><trkpt lat="48.873931" lon="9.4189858"><ele>283.0</ele><time>2026-05-02T12:21:08.444Z</time></trkpt><trkpt lat="48.8739466" lon="9.4188925"><ele>283.0</ele><time>2026-05-02T12:21:09.443Z</time></trkpt><trkpt lat="48.8739714" lon="9.4187132"><ele>283.0</ele><time>2026-05-02T12:21:11.444Z</time></trkpt><trkpt lat="48.8739877" lon="9.4186142"><ele>283.0</ele><time>2026-05-02T12:21:12.444Z</time></trkpt><trkpt lat="48.8739886" lon="9.4185091"><ele>283.0</ele><time>2026-05-02T12:21:13.444Z</time></trkpt><trkpt lat="48.8739939" lon="9.4183957"><ele>283.0</ele><time>2026-05-02T12:21:14.444Z</time></trkpt><trkpt lat="48.8740052" lon="9.4182803"><ele>283.0</ele><time>2026-05-02T12:21:15.444Z</time></trkpt><trkpt lat="48.8740195" lon="9.4181673"><ele>283.0</ele><time>2026-05-02T12:21:16.444Z</time></trkpt><trkpt lat="48.8740345" lon="9.4180587"><ele>283.0</ele><time>2026-05-02T12:21:17.444Z</time></trkpt><trkpt lat="48.8740485" lon="9.4179496"><ele>283.0</ele><time>2026-05-02T12:21:18.444Z</time></trkpt><trkpt lat="48.8740619" lon="9.4178372"><ele>283.0</ele><time>2026-05-02T12:21:19.443Z</time></trkpt><trkpt lat="48.8740767" lon="9.417724"><ele>283.0</ele><time>2026-05-02T12:21:20.444Z</time></trkpt><trkpt lat="48.8740896" lon="9.4176173"><ele>283.0</ele><time>2026-05-02T12:21:21.443Z</time></trkpt><trkpt lat="48.8741002" lon="9.4175086"><ele>283.0</ele><time>2026-05-02T12:21:22.443Z</time></trkpt><trkpt lat="48.8741128" lon="9.417398"><ele>283.0</ele><time>2026-05-02T12:21:23.444Z</time></trkpt><trkpt lat="48.8741255" lon="9.4172814"><ele>283.0</ele><time>2026-05-02T12:21:24.444Z</time></trkpt><trkpt lat="48.8741355" lon="9.4171725"><ele>283.0</ele><time>2026-05-02T12:21:25.444Z</time></trkpt><trkpt lat="48.8741434" lon="9.4170671"><ele>283.0</ele><time>2026-05-02T12:21:26.444Z</time></trkpt><trkpt lat="48.8741542" lon="9.4169679"><ele>283.0</ele><time>2026-05-02T12:21:27.444Z</time></trkpt><trkpt lat="48.87418" lon="9.4168106"><ele>283.0</ele><time>2026-05-02T12:21:29.443Z</time></trkpt><trkpt lat="48.8742332" lon="9.4167211"><ele>283.0</ele><time>2026-05-02T12:21:31.443Z</time></trkpt><trkpt lat="48.8743208" lon="9.4167094"><ele>283.0</ele><time>2026-05-02T12:21:33.444Z</time></trkpt><trkpt lat="48.8743874" lon="9.4167315"><ele>283.0</ele><time>2026-05-02T12:21:35.444Z</time></trkpt><trkpt lat="48.8744645" lon="9.4168174"><ele>283.0</ele><time>2026-05-02T12:21:38.443Z</time></trkpt><trkpt lat="48.8744754" lon="9.416932"><ele>283.0</ele><time>2026-05-02T12:21:40.444Z</time></trkpt><trkpt lat="48.8744642" lon="9.4170594"><ele>285.8</ele><time>2026-05-02T12:21:42.444Z</time></trkpt><trkpt lat="48.8744455" lon="9.4172053"><ele>288.6</ele><time>2026-05-02T12:21:44.444Z</time></trkpt><trkpt lat="48.8744276" lon="9.4173707"><ele>291.4</ele><time>2026-05-02T12:21:46.444Z</time></trkpt><trkpt lat="48.8744175" lon="9.4175278"><ele>294.2</ele><time>2026-05-02T12:21:48.444Z</time></trkpt><trkpt lat="48.8744129" lon="9.4177026"><ele>297.0</ele><time>2026-05-02T12:21:50.444Z</time></trkpt><trkpt lat="48.8743983" lon="9.4178803"><ele>296.75</ele><time>2026-05-02T12:21:52.444Z</time></trkpt><trkpt lat="48.8743935" lon="9.418044"><ele>296.5</ele><time>2026-05-02T12:21:54.444Z</time></trkpt><trkpt lat="48.8743881" lon="9.4182167"><ele>296.25</ele><time>2026-05-02T12:21:56.444Z</time></trkpt><trkpt lat="48.8743965" lon="9.4183945"><ele>296.0</ele><time>2026-05-02T12:21:58.444Z</time></trkpt><trkpt lat="48.8743904" lon="9.4185778"><ele>296.0</ele><time>2026-05-02T12:22:00.444Z</time></trkpt><trkpt lat="48.8743912" lon="9.4187479"><ele>296.0</ele><time>2026-05-02T12:22:02.444Z</time></trkpt><trkpt lat="48.8743898" lon="9.4189085"><ele>296.0</ele><time>2026-05-02T12:22:04.444Z</time></trkpt><trkpt lat="48.8743881" lon="9.4190479"><ele>296.0</ele><time>2026-05-02T12:22:06.444Z</time></trkpt><trkpt lat="48.8743847" lon="9.4191561"><ele>296.0</ele><time>2026-05-02T12:22:08.444Z</time></trkpt><trkpt lat="48.8743637" lon="9.4192668"><ele>296.0</ele><time>2026-05-02T12:22:11.444Z</time></trkpt><trkpt lat="48.874329" lon="9.4193791"><ele>296.0</ele><time>2026-05-02T12:22:14.444Z</time></trkpt><trkpt lat="48.8742658" lon="9.419415"><ele>296.0</ele><time>2026-05-02T12:22:17.444Z</time></trkpt><trkpt lat="48.8741905" lon="9.4193856"><ele>296.0</ele><time>2026-05-02T12:22:20.444Z</time></trkpt><trkpt lat="48.8741474" lon="9.4193131"><ele>296.0</ele><time>2026-05-02T12:22:22.444Z</time></trkpt><trkpt lat="48.874093" lon="9.4192291"><ele>296.0</ele><time>2026-05-02T12:22:24.444Z</time></trkpt><trkpt lat="48.8740406" lon="9.4191736"><ele>296.0</ele><time>2026-05-02T12:22:26.444Z</time></trkpt><trkpt lat="48.8739904" lon="9.4191121"><ele>293.83333333333337</ele><time>2026-05-02T12:22:28.444Z</time></trkpt><trkpt lat="48.8739171" lon="9.4190546"><ele>291.6666666666667</ele><time>2026-05-02T12:22:31.444Z</time></trkpt><trkpt lat="48.8738476" lon="9.4191507"><ele>289.5</ele><time>2026-05-02T12:22:36.444Z</time></trkpt><trkpt lat="48.8738198" lon="9.4192654"><ele>287.3333333333333</ele><time>2026-05-02T12:22:38.444Z</time></trkpt><trkpt lat="48.873796" lon="9.4193983"><ele>285.16666666666663</ele><time>2026-05-02T12:22:40.443Z</time></trkpt><trkpt lat="48.8737736" lon="9.4195187"><ele>283.0</ele><time>2026-05-02T12:22:42.444Z</time></trkpt><trkpt lat="48.8737556" lon="9.4196495"><ele>283.3333333333333</ele><time>2026-05-02T12:22:44.444Z</time></trkpt><trkpt lat="48.873723" lon="9.4197524"><ele>283.66666666666663</ele><time>2026-05-02T12:22:46.444Z</time></trkpt><trkpt lat="48.873686" lon="9.4198517"><ele>284.0</ele><time>2026-05-02T12:22:48.444Z</time></trkpt><trkpt lat="48.873652" lon="9.4199545"><ele>284.3333333333333</ele><time>2026-05-02T12:22:50.443Z</time></trkpt><trkpt lat="48.8736132" lon="9.4200771"><ele>284.6666666666667</ele><time>2026-05-02T12:22:52.444Z</time></trkpt><trkpt lat="48.8735691" lon="9.4201936"><ele>285.0</ele><time>2026-05-02T12:22:54.444Z</time></trkpt><trkpt lat="48.8735093" lon="9.4203183"><ele>285.0</ele><time>2026-05-02T12:22:56.444Z</time></trkpt><trkpt lat="48.8734631" lon="9.4204237"><ele>285.0</ele><time>2026-05-02T12:22:58.443Z</time></trkpt><trkpt lat="48.8734199" lon="9.4205304"><ele>285.0</ele><time>2026-05-02T12:23:00.444Z</time></trkpt><trkpt lat="48.8733702" lon="9.4206352"><ele>285.0</ele><time>2026-05-02T12:23:02.444Z</time></trkpt><trkpt lat="48.8733302" lon="9.4207323"><ele>285.0</ele><time>2026-05-02T12:23:04.444Z</time></trkpt><trkpt lat="48.8732908" lon="9.4208317"><ele>285.0</ele><time>2026-05-02T12:23:07.443Z</time></trkpt><trkpt lat="48.8732113" lon="9.4208263"><ele>284.3333333333333</ele><time>2026-05-02T12:23:12.444Z</time></trkpt><trkpt lat="48.8731517" lon="9.4207572"><ele>283.6666666666667</ele><time>2026-05-02T12:23:14.444Z</time></trkpt><trkpt lat="48.8730844" lon="9.4206899"><ele>283.0</ele><time>2026-05-02T12:23:16.444Z</time></trkpt><trkpt lat="48.8730105" lon="9.4206171"><ele>282.33333333333337</ele><time>2026-05-02T12:23:18.444Z</time></trkpt><trkpt lat="48.8729486" lon="9.4205661"><ele>281.6666666666667</ele><time>2026-05-02T12:23:20.444Z</time></trkpt><trkpt lat="48.8728969" lon="9.4205071"><ele>281.0</ele><time>2026-05-02T12:23:22.444Z</time></trkpt><trkpt lat="48.8728372" lon="9.4204419"><ele>281.0</ele><time>2026-05-02T12:23:24.444Z</time></trkpt><trkpt lat="48.8728038" lon="9.4203234"><ele>281.0</ele><time>2026-05-02T12:23:27.444Z</time></trkpt><trkpt lat="48.8728595" lon="9.4202202"><ele>281.0</ele><time>2026-05-02T12:23:30.444Z</time></trkpt><trkpt lat="48.8729516" lon="9.4202505"><ele>281.0</ele><time>2026-05-02T12:23:33.444Z</time></trkpt><trkpt lat="48.8730188" lon="9.4203323"><ele>281.0</ele><time>2026-05-02T12:23:35.444Z</time></trkpt><trkpt lat="48.8730733" lon="9.4204095"><ele>281.0</ele><time>2026-05-02T12:23:37.444Z</time></trkpt><trkpt lat="48.8731446" lon="9.4204869"><ele>281.00000000000006</ele><time>2026-05-02T12:23:39.444Z</time></trkpt><trkpt lat="48.8731935" lon="9.4205486"><ele>281.0</ele><time>2026-05-02T12:23:41.444Z</time></trkpt><trkpt lat="48.8732487" lon="9.420602"><ele>281.0</ele><time>2026-05-02T12:23:44.444Z</time></trkpt><trkpt lat="48.8732582" lon="9.4207004"><ele>281.0</ele><time>2026-05-02T12:23:48.444Z</time></trkpt><trkpt lat="48.8732044" lon="9.4207654"><ele>281.0</ele><time>2026-05-02T12:23:51.444Z</time></trkpt><trkpt lat="48.8731245" lon="9.4207574"><ele>281.00000000000006</ele><time>2026-05-02T12:23:54.444Z</time></trkpt><trkpt lat="48.8730604" lon="9.4207056"><ele>281.0</ele><time>2026-05-02T12:23:56.444Z</time></trkpt><trkpt lat="48.8729792" lon="9.4206185"><ele>281.0</ele><time>2026-05-02T12:23:58.444Z</time></trkpt><trkpt lat="48.8729186" lon="9.4205414"><ele>281.0</ele><time>2026-05-02T12:24:00.444Z</time></trkpt><trkpt lat="48.8728573" lon="9.4204665"><ele>281.0</ele><time>2026-05-02T12:24:02.444Z</time></trkpt><trkpt lat="48.8728109" lon="9.4203874"><ele>281.0</ele><time>2026-05-02T12:24:04.444Z</time></trkpt><trkpt lat="48.8728223" lon="9.4202533"><ele>281.0</ele><time>2026-05-02T12:24:07.444Z</time></trkpt><trkpt lat="48.872902" lon="9.4202173"><ele>281.0</ele><time>2026-05-02T12:24:10.444Z</time></trkpt><trkpt lat="48.8729594" lon="9.420258"><ele>281.0</ele><time>2026-05-02T12:24:12.444Z</time></trkpt><trkpt lat="48.873015" lon="9.420322"><ele>281.0</ele><time>2026-05-02T12:24:14.444Z</time></trkpt><trkpt lat="48.8730551" lon="9.4203987"><ele>281.0</ele><time>2026-05-02T12:24:16.443Z</time></trkpt><trkpt lat="48.8730467" lon="9.420509"><ele>281.0</ele><time>2026-05-02T12:24:18.444Z</time></trkpt><trkpt lat="48.8730774" lon="9.4206446"><ele>281.0</ele><time>2026-05-02T12:24:21.444Z</time></trkpt><trkpt lat="48.8731311" lon="9.4207179"><ele>281.0</ele><time>2026-05-02T12:24:23.443Z</time></trkpt><trkpt lat="48.8732034" lon="9.4207989"><ele>281.0</ele><time>2026-05-02T12:24:26.444Z</time></trkpt><trkpt lat="48.873166" lon="9.4210892"><ele>281.0</ele><time>2026-05-02T12:24:38.443Z</time></trkpt><trkpt lat="48.8731096" lon="9.4211857"><ele>281.0</ele><time>2026-05-02T12:24:40.443Z</time></trkpt><trkpt lat="48.8730527" lon="9.4212887"><ele>281.0</ele><time>2026-05-02T12:24:42.444Z</time></trkpt><trkpt lat="48.8729885" lon="9.4213962"><ele>281.1666666666667</ele><time>2026-05-02T12:24:44.444Z</time></trkpt><trkpt lat="48.8729354" lon="9.4215038"><ele>281.33333333333337</ele><time>2026-05-02T12:24:46.444Z</time></trkpt><trkpt lat="48.872884" lon="9.4216094"><ele>281.5</ele><time>2026-05-02T12:24:48.444Z</time></trkpt><trkpt lat="48.8728422" lon="9.4216962"><ele>281.6666666666667</ele><time>2026-05-02T12:24:50.444Z</time></trkpt><trkpt lat="48.8728021" lon="9.4217723"><ele>281.8333333333333</ele><time>2026-05-02T12:24:53.444Z</time></trkpt><trkpt lat="48.8727628" lon="9.4219109"><ele>282.0</ele><time>2026-05-02T12:25:27.452Z</time></trkpt><trkpt lat="48.8727887" lon="9.4220613"><ele>282.5</ele><time>2026-05-02T12:25:29.452Z</time></trkpt><trkpt lat="48.8728824" lon="9.4221844"><ele>283.0</ele><time>2026-05-02T12:25:31.452Z</time></trkpt><trkpt lat="48.8729401" lon="9.4222423"><ele>283.5</ele><time>2026-05-02T12:25:32.452Z</time></trkpt><trkpt lat="48.8730094" lon="9.4223024"><ele>284.0</ele><time>2026-05-02T12:25:33.451Z</time></trkpt><trkpt lat="48.8730847" lon="9.4223637"><ele>284.5</ele><time>2026-05-02T12:25:34.452Z</time></trkpt><trkpt lat="48.8731584" lon="9.4224164"><ele>285.0</ele><time>2026-05-02T12:25:35.451Z</time></trkpt><trkpt lat="48.8732246" lon="9.4224634"><ele>285.0</ele><time>2026-05-02T12:25:36.451Z</time></trkpt><trkpt lat="48.873293" lon="9.4225224"><ele>285.0</ele><time>2026-05-02T12:25:37.451Z</time></trkpt><trkpt lat="48.8733651" lon="9.4225726"><ele>285.0</ele><time>2026-05-02T12:25:38.452Z</time></trkpt><trkpt lat="48.8734431" lon="9.4226427"><ele>285.0</ele><time>2026-05-02T12:25:39.452Z</time></trkpt><trkpt lat="48.8735157" lon="9.4227028"><ele>285.0</ele><time>2026-05-02T12:25:40.452Z</time></trkpt><trkpt lat="48.8735883" lon="9.4227563"><ele>285.0</ele><time>2026-05-02T12:25:41.452Z</time></trkpt><trkpt lat="48.8736626" lon="9.4227988"><ele>286.1666666666667</ele><time>2026-05-02T12:25:42.445Z</time></trkpt><trkpt lat="48.8737257" lon="9.4228443"><ele>287.3333333333333</ele><time>2026-05-02T12:25:43.452Z</time></trkpt><trkpt lat="48.8737891" lon="9.4228834"><ele>288.5</ele><time>2026-05-02T12:25:44.452Z</time></trkpt><trkpt lat="48.8738736" lon="9.4229552"><ele>289.66666666666663</ele><time>2026-05-02T12:25:46.452Z</time></trkpt><trkpt lat="48.8738819" lon="9.4230566"><ele>290.8333333333333</ele><time>2026-05-02T12:25:48.452Z</time></trkpt><trkpt lat="48.8738356" lon="9.4231891"><ele>292.0</ele><time>2026-05-02T12:25:50.452Z</time></trkpt><trkpt lat="48.8737892" lon="9.423335"><ele>292.16666666666663</ele><time>2026-05-02T12:25:52.452Z</time></trkpt><trkpt lat="48.873731" lon="9.4234715"><ele>292.3333333333333</ele><time>2026-05-02T12:25:54.452Z</time></trkpt><trkpt lat="48.8736792" lon="9.4235996"><ele>292.5</ele><time>2026-05-02T12:25:56.452Z</time></trkpt><trkpt lat="48.8736375" lon="9.4237006"><ele>292.6666666666667</ele><time>2026-05-02T12:25:58.452Z</time></trkpt><trkpt lat="48.8736021" lon="9.423785"><ele>292.83333333333337</ele><time>2026-05-02T12:26:00.452Z</time></trkpt><trkpt lat="48.8735673" lon="9.4238705"><ele>293.0</ele><time>2026-05-02T12:26:02.452Z</time></trkpt><trkpt lat="48.8735233" lon="9.4239873"><ele>293.0</ele><time>2026-05-02T12:26:04.452Z</time></trkpt><trkpt lat="48.8734914" lon="9.4241285"><ele>293.0</ele><time>2026-05-02T12:26:06.452Z</time></trkpt><trkpt lat="48.8734715" lon="9.4242528"><ele>293.0</ele><time>2026-05-02T12:26:08.452Z</time></trkpt><trkpt lat="48.8734493" lon="9.4243769"><ele>293.0</ele><time>2026-05-02T12:26:10.452Z</time></trkpt><trkpt lat="48.8734214" lon="9.4244802"><ele>293.0</ele><time>2026-05-02T12:26:12.451Z</time></trkpt><trkpt lat="48.8734114" lon="9.4245819"><ele>293.0</ele><time>2026-05-02T12:26:16.452Z</time></trkpt><trkpt lat="48.8734841" lon="9.4246608"><ele>292.6</ele><time>2026-05-02T12:26:25.452Z</time></trkpt><trkpt lat="48.8735623" lon="9.424692"><ele>292.20000000000005</ele><time>2026-05-02T12:26:27.452Z</time></trkpt><trkpt lat="48.8736695" lon="9.4247069"><ele>291.8</ele><time>2026-05-02T12:26:29.452Z</time></trkpt><trkpt lat="48.8737691" lon="9.424725"><ele>291.40000000000003</ele><time>2026-05-02T12:26:31.452Z</time></trkpt><trkpt lat="48.8738865" lon="9.4247517"><ele>291.0</ele><time>2026-05-02T12:26:33.452Z</time></trkpt><trkpt lat="48.8739978" lon="9.4247686"><ele>291.0</ele><time>2026-05-02T12:26:35.452Z</time></trkpt><trkpt lat="48.8741024" lon="9.4247838"><ele>291.0</ele><time>2026-05-02T12:26:37.452Z</time></trkpt><trkpt lat="48.8742059" lon="9.4248076"><ele>291.0</ele><time>2026-05-02T12:26:39.452Z</time></trkpt><trkpt lat="48.8743003" lon="9.4248252"><ele>291.0</ele><time>2026-05-02T12:26:41.452Z</time></trkpt><trkpt lat="48.874393" lon="9.4248462"><ele>291.0</ele><time>2026-05-02T12:26:43.452Z</time></trkpt><trkpt lat="48.8744952" lon="9.4248643"><ele>291.0</ele><time>2026-05-02T12:26:45.452Z</time></trkpt><trkpt lat="48.8746044" lon="9.4248856"><ele>291.0</ele><time>2026-05-02T12:26:47.452Z</time></trkpt><trkpt lat="48.8746935" lon="9.424908"><ele>291.0</ele><time>2026-05-02T12:26:49.452Z</time></trkpt><trkpt lat="48.8747737" lon="9.4249243"><ele>291.0</ele><time>2026-05-02T12:26:51.452Z</time></trkpt><trkpt lat="48.8748284" lon="9.4249913"><ele>291.0</ele><time>2026-05-02T12:26:54.452Z</time></trkpt><trkpt lat="48.874844" lon="9.4251084"><ele>291.0</ele><time>2026-05-02T12:26:57.451Z</time></trkpt><trkpt lat="48.874854" lon="9.4252235"><ele>291.0</ele><time>2026-05-02T12:26:59.452Z</time></trkpt><trkpt lat="48.8748398" lon="9.4253592"><ele>291.0</ele><time>2026-05-02T12:27:01.452Z</time></trkpt><trkpt lat="48.8748227" lon="9.425494"><ele>291.0</ele><time>2026-05-02T12:27:03.452Z</time></trkpt><trkpt lat="48.8748006" lon="9.4256277"><ele>291.0</ele><time>2026-05-02T12:27:05.451Z</time></trkpt><trkpt lat="48.8747823" lon="9.4257594"><ele>291.0</ele><time>2026-05-02T12:27:07.452Z</time></trkpt><trkpt lat="48.8747618" lon="9.4259009"><ele>290.6</ele><time>2026-05-02T12:27:09.452Z</time></trkpt><trkpt lat="48.8747423" lon="9.4260407"><ele>290.20000000000005</ele><time>2026-05-02T12:27:11.452Z</time></trkpt><trkpt lat="48.8747206" lon="9.4261793"><ele>289.79999999999995</ele><time>2026-05-02T12:27:13.452Z</time></trkpt><trkpt lat="48.8746989" lon="9.4263091"><ele>289.4</ele><time>2026-05-02T12:27:15.452Z</time></trkpt><trkpt lat="48.8746813" lon="9.4264424"><ele>289.0</ele><time>2026-05-02T12:27:17.451Z</time></trkpt><trkpt lat="48.8746641" lon="9.426574"><ele>289.0</ele><time>2026-05-02T12:27:19.452Z</time></trkpt><trkpt lat="48.874644" lon="9.4267202"><ele>289.0</ele><time>2026-05-02T12:27:21.452Z</time></trkpt><trkpt lat="48.8746173" lon="9.4268719"><ele>289.0</ele><time>2026-05-02T12:27:23.451Z</time></trkpt><trkpt lat="48.8745943" lon="9.4270397"><ele>289.0</ele><time>2026-05-02T12:27:25.451Z</time></trkpt><trkpt lat="48.8745699" lon="9.4271744"><ele>289.0</ele><time>2026-05-02T12:27:27.452Z</time></trkpt><trkpt lat="48.8745468" lon="9.4273013"><ele>289.16666666666663</ele><time>2026-05-02T12:27:29.452Z</time></trkpt><trkpt lat="48.8745942" lon="9.4273655"><ele>289.3333333333333</ele><time>2026-05-02T12:27:31.452Z</time></trkpt><trkpt lat="48.8746837" lon="9.4273899"><ele>289.5</ele><time>2026-05-02T12:27:33.452Z</time></trkpt><trkpt lat="48.8747747" lon="9.427383"><ele>289.6666666666667</ele><time>2026-05-02T12:27:35.452Z</time></trkpt><trkpt lat="48.8748714" lon="9.42738"><ele>289.83333333333337</ele><time>2026-05-02T12:27:37.451Z</time></trkpt><trkpt lat="48.8749607" lon="9.4273824"><ele>290.0</ele><time>2026-05-02T12:27:39.452Z</time></trkpt><trkpt lat="48.8750481" lon="9.4273942"><ele>289.83333333333337</ele><time>2026-05-02T12:27:41.452Z</time></trkpt><trkpt lat="48.8751415" lon="9.4274068"><ele>289.6666666666667</ele><time>2026-05-02T12:27:43.452Z</time></trkpt><trkpt lat="48.8752239" lon="9.4274382"><ele>289.5</ele><time>2026-05-02T12:27:45.452Z</time></trkpt><trkpt lat="48.8753034" lon="9.4274693"><ele>289.3333333333333</ele><time>2026-05-02T12:27:47.451Z</time></trkpt><trkpt lat="48.87538" lon="9.4275158"><ele>289.16666666666663</ele><time>2026-05-02T12:27:49.452Z</time></trkpt><trkpt lat="48.8754559" lon="9.4275664"><ele>289.0</ele><time>2026-05-02T12:27:51.452Z</time></trkpt><trkpt lat="48.8755402" lon="9.4276116"><ele>289.0</ele><time>2026-05-02T12:27:53.452Z</time></trkpt><trkpt lat="48.8756305" lon="9.4276608"><ele>289.0</ele><time>2026-05-02T12:27:55.452Z</time></trkpt><trkpt lat="48.8756839" lon="9.4277452"><ele>289.0</ele><time>2026-05-02T12:27:57.452Z</time></trkpt><trkpt lat="48.8757417" lon="9.4278215"><ele>289.0</ele><time>2026-05-02T12:27:59.452Z</time></trkpt><trkpt lat="48.8757974" lon="9.427757"><ele>289.0</ele><time>2026-05-02T12:28:02.452Z</time></trkpt><trkpt lat="48.8757338" lon="9.4276632"><ele>289.0</ele><time>2026-05-02T12:28:05.452Z</time></trkpt><trkpt lat="48.8756617" lon="9.427639"><ele>289.0</ele><time>2026-05-02T12:28:07.451Z</time></trkpt><trkpt lat="48.8755683" lon="9.4276071"><ele>289.0</ele><time>2026-05-02T12:28:09.452Z</time></trkpt><trkpt lat="48.8754597" lon="9.4275613"><ele>289.0</ele><time>2026-05-02T12:28:11.451Z</time></trkpt><trkpt lat="48.8753936" lon="9.4275261"><ele>289.0</ele><time>2026-05-02T12:28:12.452Z</time></trkpt><trkpt lat="48.8753259" lon="9.4274857"><ele>289.0</ele><time>2026-05-02T12:28:13.451Z</time></trkpt><trkpt lat="48.8752081" lon="9.4274397"><ele>289.0</ele><time>2026-05-02T12:28:15.452Z</time></trkpt><trkpt lat="48.8751407" lon="9.4274209"><ele>289.0</ele><time>2026-05-02T12:28:16.452Z</time></trkpt><trkpt lat="48.8750663" lon="9.4273952"><ele>289.0</ele><time>2026-05-02T12:28:17.452Z</time></trkpt><trkpt lat="48.8749986" lon="9.4273734"><ele>289.0</ele><time>2026-05-02T12:28:18.452Z</time></trkpt><trkpt lat="48.8749302" lon="9.4273575"><ele>289.0</ele><time>2026-05-02T12:28:19.452Z</time></trkpt><trkpt lat="48.8748632" lon="9.4273533"><ele>289.0</ele><time>2026-05-02T12:28:20.452Z</time></trkpt><trkpt lat="48.8747401" lon="9.4273403"><ele>289.25</ele><time>2026-05-02T12:28:22.452Z</time></trkpt><trkpt lat="48.8746392" lon="9.4273415"><ele>289.5</ele><time>2026-05-02T12:28:24.452Z</time></trkpt><trkpt lat="48.8744897" lon="9.4274588"><ele>289.75</ele><time>2026-05-02T12:28:28.452Z</time></trkpt><trkpt lat="48.8744746" lon="9.4276049"><ele>290.0</ele><time>2026-05-02T12:28:30.452Z</time></trkpt><trkpt lat="48.8744869" lon="9.4277919"><ele>290.0</ele><time>2026-05-02T12:28:32.452Z</time></trkpt><trkpt lat="48.8745002" lon="9.4278959"><ele>290.0</ele><time>2026-05-02T12:28:33.452Z</time></trkpt><trkpt lat="48.8745194" lon="9.4280006"><ele>290.0</ele><time>2026-05-02T12:28:34.452Z</time></trkpt><trkpt lat="48.874543" lon="9.4281033"><ele>290.0</ele><time>2026-05-02T12:28:35.452Z</time></trkpt><trkpt lat="48.8745802" lon="9.4282071"><ele>290.0</ele><time>2026-05-02T12:28:36.452Z</time></trkpt><trkpt lat="48.8746216" lon="9.4283114"><ele>290.0</ele><time>2026-05-02T12:28:37.452Z</time></trkpt><trkpt lat="48.874666" lon="9.4284269"><ele>291.0</ele><time>2026-05-02T12:28:38.452Z</time></trkpt><trkpt lat="48.8747077" lon="9.4285419"><ele>292.0</ele><time>2026-05-02T12:28:39.452Z</time></trkpt><trkpt lat="48.8747552" lon="9.4286676"><ele>293.0</ele><time>2026-05-02T12:28:40.452Z</time></trkpt><trkpt lat="48.874801" lon="9.4287958"><ele>294.0</ele><time>2026-05-02T12:28:41.452Z</time></trkpt><trkpt lat="48.8748473" lon="9.4289243"><ele>295.0</ele><time>2026-05-02T12:28:42.452Z</time></trkpt><trkpt lat="48.8748876" lon="9.4290418"><ele>296.16666666666663</ele><time>2026-05-02T12:28:43.452Z</time></trkpt><trkpt lat="48.8749235" lon="9.4291654"><ele>297.3333333333333</ele><time>2026-05-02T12:28:44.452Z</time></trkpt><trkpt lat="48.8749521" lon="9.4292941"><ele>298.5</ele><time>2026-05-02T12:28:45.452Z</time></trkpt><trkpt lat="48.8749736" lon="9.4294127"><ele>299.6666666666667</ele><time>2026-05-02T12:28:46.452Z</time></trkpt><trkpt lat="48.8749806" lon="9.4295123"><ele>300.83333333333337</ele><time>2026-05-02T12:28:47.452Z</time></trkpt><trkpt lat="48.8749873" lon="9.4296099"><ele>302.0</ele><time>2026-05-02T12:28:48.452Z</time></trkpt><trkpt lat="48.8749977" lon="9.4297075"><ele>301.6666666666667</ele><time>2026-05-02T12:28:49.452Z</time></trkpt><trkpt lat="48.8750483" lon="9.4298923"><ele>301.33333333333337</ele><time>2026-05-02T12:28:51.452Z</time></trkpt><trkpt lat="48.8750859" lon="9.4299838"><ele>301.0</ele><time>2026-05-02T12:28:52.452Z</time></trkpt><trkpt lat="48.8751327" lon="9.4300509"><ele>300.6666666666667</ele><time>2026-05-02T12:28:53.452Z</time></trkpt><trkpt lat="48.8751961" lon="9.4301037"><ele>300.3333333333333</ele><time>2026-05-02T12:28:54.452Z</time></trkpt><trkpt lat="48.8752574" lon="9.4301493"><ele>300.0</ele><time>2026-05-02T12:28:55.452Z</time></trkpt><trkpt lat="48.8753186" lon="9.4301732"><ele>300.0</ele><time>2026-05-02T12:28:56.452Z</time></trkpt><trkpt lat="48.8753863" lon="9.430192"><ele>300.0</ele><time>2026-05-02T12:28:57.452Z</time></trkpt><trkpt lat="48.8754516" lon="9.4301847"><ele>300.0</ele><time>2026-05-02T12:28:58.452Z</time></trkpt><trkpt lat="48.875556" lon="9.4301979"><ele>300.0</ele><time>2026-05-02T12:29:00.451Z</time></trkpt><trkpt lat="48.8756389" lon="9.4301975"><ele>300.0</ele><time>2026-05-02T12:29:02.452Z</time></trkpt><trkpt lat="48.8757036" lon="9.4302244"><ele>300.0</ele><time>2026-05-02T12:29:04.452Z</time></trkpt><trkpt lat="48.8757386" lon="9.4303545"><ele>301.2</ele><time>2026-05-02T12:29:06.452Z</time></trkpt><trkpt lat="48.8757563" lon="9.4305482"><ele>302.4</ele><time>2026-05-02T12:29:08.452Z</time></trkpt><trkpt lat="48.8757708" lon="9.4306657"><ele>303.6</ele><time>2026-05-02T12:29:09.452Z</time></trkpt><trkpt lat="48.8757881" lon="9.4307976"><ele>304.8</ele><time>2026-05-02T12:29:10.452Z</time></trkpt><trkpt lat="48.875813" lon="9.4309355"><ele>306.0</ele><time>2026-05-02T12:29:11.452Z</time></trkpt><trkpt lat="48.8758342" lon="9.4310733"><ele>306.0</ele><time>2026-05-02T12:29:12.451Z</time></trkpt><trkpt lat="48.8758564" lon="9.431223"><ele>306.0</ele><time>2026-05-02T12:29:13.451Z</time></trkpt><trkpt lat="48.8758786" lon="9.4313792"><ele>306.0</ele><time>2026-05-02T12:29:14.452Z</time></trkpt><trkpt lat="48.8759019" lon="9.4315366"><ele>306.0</ele><time>2026-05-02T12:29:15.452Z</time></trkpt><trkpt lat="48.8759187" lon="9.4316982"><ele>306.0</ele><time>2026-05-02T12:29:16.452Z</time></trkpt><trkpt lat="48.8759317" lon="9.4318676"><ele>306.0</ele><time>2026-05-02T12:29:17.452Z</time></trkpt><trkpt lat="48.8759428" lon="9.4320354"><ele>306.0</ele><time>2026-05-02T12:29:18.452Z</time></trkpt><trkpt lat="48.8759492" lon="9.4322165"><ele>306.0</ele><time>2026-05-02T12:29:19.452Z</time></trkpt><trkpt lat="48.8759517" lon="9.432403"><ele>306.0</ele><time>2026-05-02T12:29:20.452Z</time></trkpt><trkpt lat="48.8759463" lon="9.4325862"><ele>308.0</ele><time>2026-05-02T12:29:21.452Z</time></trkpt><trkpt lat="48.8759294" lon="9.4327703"><ele>310.0</ele><time>2026-05-02T12:29:22.452Z</time></trkpt><trkpt lat="48.875909" lon="9.4329541"><ele>312.0</ele><time>2026-05-02T12:29:23.451Z</time></trkpt><trkpt lat="48.8758728" lon="9.4331325"><ele>314.0</ele><time>2026-05-02T12:29:24.452Z</time></trkpt><trkpt lat="48.8758157" lon="9.4332999"><ele>314.5</ele><time>2026-05-02T12:29:25.452Z</time></trkpt><trkpt lat="48.8757396" lon="9.4334527"><ele>315.0</ele><time>2026-05-02T12:29:26.452Z</time></trkpt><trkpt lat="48.8756499" lon="9.4335867"><ele>315.5</ele><time>2026-05-02T12:29:27.452Z</time></trkpt><trkpt lat="48.8755528" lon="9.4336921"><ele>316.0</ele><time>2026-05-02T12:29:28.451Z</time></trkpt><trkpt lat="48.8754555" lon="9.4337728"><ele>317.16666666666663</ele><time>2026-05-02T12:29:29.452Z</time></trkpt><trkpt lat="48.8753686" lon="9.4338318"><ele>318.3333333333333</ele><time>2026-05-02T12:29:30.452Z</time></trkpt><trkpt lat="48.8753011" lon="9.4339075"><ele>319.5</ele><time>2026-05-02T12:29:31.451Z</time></trkpt><trkpt lat="48.8752402" lon="9.4339775"><ele>320.6666666666667</ele><time>2026-05-02T12:29:32.452Z</time></trkpt><trkpt lat="48.8751848" lon="9.4340581"><ele>321.83333333333337</ele><time>2026-05-02T12:29:33.452Z</time></trkpt><trkpt lat="48.8751141" lon="9.4341625"><ele>323.0</ele><time>2026-05-02T12:29:35.452Z</time></trkpt><trkpt lat="48.8750665" lon="9.4342587"><ele>325.4</ele><time>2026-05-02T12:29:38.451Z</time></trkpt><trkpt lat="48.8750271" lon="9.4343553"><ele>327.79999999999995</ele><time>2026-05-02T12:29:41.452Z</time></trkpt><trkpt lat="48.8749834" lon="9.4344793"><ele>330.2</ele><time>2026-05-02T12:29:43.452Z</time></trkpt><trkpt lat="48.8749482" lon="9.4346275"><ele>332.6</ele><time>2026-05-02T12:29:45.452Z</time></trkpt><trkpt lat="48.8750011" lon="9.434746"><ele>335.0</ele><time>2026-05-02T12:29:47.452Z</time></trkpt><trkpt lat="48.8751015" lon="9.4347168"><ele>332.6</ele><time>2026-05-02T12:29:49.451Z</time></trkpt><trkpt lat="48.8751988" lon="9.4345994"><ele>330.2</ele><time>2026-05-02T12:29:51.452Z</time></trkpt><trkpt lat="48.8752604" lon="9.4345351"><ele>327.79999999999995</ele><time>2026-05-02T12:29:52.452Z</time></trkpt><trkpt lat="48.8753475" lon="9.434493"><ele>325.4</ele><time>2026-05-02T12:29:53.452Z</time></trkpt><trkpt lat="48.8754399" lon="9.4344741"><ele>323.0</ele><time>2026-05-02T12:29:54.452Z</time></trkpt><trkpt lat="48.8755384" lon="9.4344872"><ele>323.0</ele><time>2026-05-02T12:29:55.452Z</time></trkpt><trkpt lat="48.8756427" lon="9.4345216"><ele>323.0</ele><time>2026-05-02T12:29:56.452Z</time></trkpt><trkpt lat="48.8757518" lon="9.4345854"><ele>323.0</ele><time>2026-05-02T12:29:57.452Z</time></trkpt><trkpt lat="48.8758673" lon="9.4346736"><ele>323.0</ele><time>2026-05-02T12:29:58.452Z</time></trkpt><trkpt lat="48.8759729" lon="9.4347755"><ele>324.75</ele><time>2026-05-02T12:29:59.451Z</time></trkpt><trkpt lat="48.8760771" lon="9.4348851"><ele>326.5</ele><time>2026-05-02T12:30:00.452Z</time></trkpt><trkpt lat="48.8761963" lon="9.4349927"><ele>328.25</ele><time>2026-05-02T12:30:01.452Z</time></trkpt><trkpt lat="48.8763142" lon="9.4350994"><ele>330.0</ele><time>2026-05-02T12:30:02.452Z</time></trkpt><trkpt lat="48.8764313" lon="9.4351964"><ele>330.0</ele><time>2026-05-02T12:30:03.451Z</time></trkpt><trkpt lat="48.8765315" lon="9.4352985"><ele>330.0</ele><time>2026-05-02T12:30:04.452Z</time></trkpt><trkpt lat="48.876646" lon="9.435404"><ele>330.0</ele><time>2026-05-02T12:30:05.451Z</time></trkpt><trkpt lat="48.8767411" lon="9.435528"><ele>330.0</ele><time>2026-05-02T12:30:06.452Z</time></trkpt><trkpt lat="48.8768384" lon="9.4356581"><ele>330.75</ele><time>2026-05-02T12:30:07.452Z</time></trkpt><trkpt lat="48.8769288" lon="9.4358173"><ele>331.5</ele><time>2026-05-02T12:30:08.452Z</time></trkpt><trkpt lat="48.8770014" lon="9.4359818"><ele>332.25</ele><time>2026-05-02T12:30:09.452Z</time></trkpt><trkpt lat="48.8770476" lon="9.436164"><ele>333.0</ele><time>2026-05-02T12:30:10.451Z</time></trkpt><trkpt lat="48.8770682" lon="9.4363675"><ele>334.75</ele><time>2026-05-02T12:30:11.452Z</time></trkpt><trkpt lat="48.8770878" lon="9.4365642"><ele>336.5</ele><time>2026-05-02T12:30:12.452Z</time></trkpt><trkpt lat="48.8771168" lon="9.436766"><ele>338.25</ele><time>2026-05-02T12:30:13.452Z</time></trkpt><trkpt lat="48.877142" lon="9.4369645"><ele>340.0</ele><time>2026-05-02T12:30:14.452Z</time></trkpt><trkpt lat="48.8771733" lon="9.4371705"><ele>342.0</ele><time>2026-05-02T12:30:15.452Z</time></trkpt><trkpt lat="48.8772148" lon="9.4373675"><ele>344.0</ele><time>2026-05-02T12:30:16.452Z</time></trkpt><trkpt lat="48.8772767" lon="9.4375449"><ele>346.0</ele><time>2026-05-02T12:30:17.452Z</time></trkpt><trkpt lat="48.8773692" lon="9.437709"><ele>348.0</ele><time>2026-05-02T12:30:18.452Z</time></trkpt><trkpt lat="48.8774763" lon="9.4378423"><ele>348.0</ele><time>2026-05-02T12:30:19.452Z</time></trkpt><trkpt lat="48.8775961" lon="9.4379701"><ele>348.0</ele><time>2026-05-02T12:30:20.452Z</time></trkpt><trkpt lat="48.8777159" lon="9.4381155"><ele>348.0</ele><time>2026-05-02T12:30:21.451Z</time></trkpt><trkpt lat="48.8778295" lon="9.43828"><ele>348.0</ele><time>2026-05-02T12:30:22.452Z</time></trkpt><trkpt lat="48.8779375" lon="9.438454"><ele>348.0</ele><time>2026-05-02T12:30:23.452Z</time></trkpt><trkpt lat="48.8780467" lon="9.4386331"><ele>348.0</ele><time>2026-05-02T12:30:24.452Z</time></trkpt><trkpt lat="48.8781543" lon="9.4388084"><ele>352.0</ele><time>2026-05-02T12:30:25.451Z</time></trkpt><trkpt lat="48.8782732" lon="9.4389944"><ele>356.0</ele><time>2026-05-02T12:30:26.452Z</time></trkpt><trkpt lat="48.8783926" lon="9.4391544"><ele>360.0</ele><time>2026-05-02T12:30:27.452Z</time></trkpt><trkpt lat="48.8785086" lon="9.4393049"><ele>361.25</ele><time>2026-05-02T12:30:28.452Z</time></trkpt><trkpt lat="48.8786109" lon="9.4394492"><ele>362.5</ele><time>2026-05-02T12:30:29.452Z</time></trkpt><trkpt lat="48.8787085" lon="9.4395817"><ele>363.75</ele><time>2026-05-02T12:30:30.452Z</time></trkpt><trkpt lat="48.8787952" lon="9.4397068"><ele>365.0</ele><time>2026-05-02T12:30:31.452Z</time></trkpt><trkpt lat="48.8788726" lon="9.4398229"><ele>366.75</ele><time>2026-05-02T12:30:32.452Z</time></trkpt><trkpt lat="48.878943" lon="9.439952"><ele>368.5</ele><time>2026-05-02T12:30:33.452Z</time></trkpt><trkpt lat="48.8790047" lon="9.4400881"><ele>370.25</ele><time>2026-05-02T12:30:34.452Z</time></trkpt><trkpt lat="48.8790653" lon="9.4402374"><ele>372.0</ele><time>2026-05-02T12:30:35.451Z</time></trkpt><trkpt lat="48.8791283" lon="9.4403949"><ele>372.20000000000005</ele><time>2026-05-02T12:30:36.452Z</time></trkpt><trkpt lat="48.8791901" lon="9.4405238"><ele>372.4</ele><time>2026-05-02T12:30:37.451Z</time></trkpt><trkpt lat="48.8792545" lon="9.4406415"><ele>372.6</ele><time>2026-05-02T12:30:38.451Z</time></trkpt><trkpt lat="48.8793144" lon="9.4407512"><ele>372.79999999999995</ele><time>2026-05-02T12:30:39.452Z</time></trkpt><trkpt lat="48.8793624" lon="9.4408689"><ele>373.0</ele><time>2026-05-02T12:30:40.452Z</time></trkpt><trkpt lat="48.8794" lon="9.4409955"><ele>375.5</ele><time>2026-05-02T12:30:41.452Z</time></trkpt><trkpt lat="48.8794309" lon="9.4411098"><ele>378.0</ele><time>2026-05-02T12:30:42.452Z</time></trkpt><trkpt lat="48.8794502" lon="9.4412397"><ele>380.5</ele><time>2026-05-02T12:30:43.451Z</time></trkpt><trkpt lat="48.8794717" lon="9.4413777"><ele>383.0</ele><time>2026-05-02T12:30:44.452Z</time></trkpt><trkpt lat="48.8794922" lon="9.4415083"><ele>385.50000000000006</ele><time>2026-05-02T12:30:45.451Z</time></trkpt><trkpt lat="48.8795118" lon="9.4416501"><ele>388.0</ele><time>2026-05-02T12:30:46.452Z</time></trkpt><trkpt lat="48.8795338" lon="9.4417844"><ele>388.2</ele><time>2026-05-02T12:30:47.452Z</time></trkpt><trkpt lat="48.879549" lon="9.4419088"><ele>388.4</ele><time>2026-05-02T12:30:48.452Z</time></trkpt><trkpt lat="48.8795641" lon="9.442015"><ele>388.59999999999997</ele><time>2026-05-02T12:30:49.452Z</time></trkpt><trkpt lat="48.8796002" lon="9.4421915"><ele>388.79999999999995</ele><time>2026-05-02T12:30:51.451Z</time></trkpt><trkpt lat="48.8796436" lon="9.4422714"><ele>389.0</ele><time>2026-05-02T12:30:52.452Z</time></trkpt><trkpt lat="48.8797557" lon="9.442278"><ele>388.99999999999994</ele><time>2026-05-02T12:30:54.452Z</time></trkpt><trkpt lat="48.8798087" lon="9.4422141"><ele>389.0</ele><time>2026-05-02T12:30:55.451Z</time></trkpt><trkpt lat="48.8798748" lon="9.4420586"><ele>389.0</ele><time>2026-05-02T12:30:57.452Z</time></trkpt><trkpt lat="48.8798929" lon="9.4419437"><ele>389.0</ele><time>2026-05-02T12:30:58.452Z</time></trkpt><trkpt lat="48.8799085" lon="9.4418149"><ele>388.99999999999994</ele><time>2026-05-02T12:30:59.452Z</time></trkpt><trkpt lat="48.8799277" lon="9.441676"><ele>389.0</ele><time>2026-05-02T12:31:00.452Z</time></trkpt><trkpt lat="48.8799549" lon="9.4415296"><ele>389.0</ele><time>2026-05-02T12:31:01.452Z</time></trkpt><trkpt lat="48.8799929" lon="9.4413828"><ele>389.0</ele><time>2026-05-02T12:31:02.452Z</time></trkpt><trkpt lat="48.8800436" lon="9.4412288"><ele>389.0</ele><time>2026-05-02T12:31:03.452Z</time></trkpt><trkpt lat="48.8801064" lon="9.4410747"><ele>389.0</ele><time>2026-05-02T12:31:04.452Z</time></trkpt><trkpt lat="48.8801743" lon="9.4409182"><ele>393.25</ele><time>2026-05-02T12:31:05.452Z</time></trkpt><trkpt lat="48.8802431" lon="9.4407478"><ele>397.5</ele><time>2026-05-02T12:31:06.452Z</time></trkpt><trkpt lat="48.8803086" lon="9.4405711"><ele>401.75</ele><time>2026-05-02T12:31:07.451Z</time></trkpt><trkpt lat="48.880367" lon="9.4404056"><ele>406.0</ele><time>2026-05-02T12:31:08.452Z</time></trkpt><trkpt lat="48.8804254" lon="9.4402288"><ele>406.0</ele><time>2026-05-02T12:31:09.452Z</time></trkpt><trkpt lat="48.8804826" lon="9.4400518"><ele>406.0</ele><time>2026-05-02T12:31:10.452Z</time></trkpt><trkpt lat="48.8805416" lon="9.4398806"><ele>406.0</ele><time>2026-05-02T12:31:11.452Z</time></trkpt><trkpt lat="48.8806062" lon="9.4397345"><ele>406.0</ele><time>2026-05-02T12:31:12.451Z</time></trkpt><trkpt lat="48.8806735" lon="9.4396213"><ele>404.50000000000006</ele><time>2026-05-02T12:31:13.452Z</time></trkpt><trkpt lat="48.8807381" lon="9.439532"><ele>403.0</ele><time>2026-05-02T12:31:14.452Z</time></trkpt><trkpt lat="48.8808118" lon="9.4394444"><ele>401.5</ele><time>2026-05-02T12:31:15.452Z</time></trkpt><trkpt lat="48.8808881" lon="9.439363"><ele>400.0</ele><time>2026-05-02T12:31:16.452Z</time></trkpt><trkpt lat="48.8809578" lon="9.4392898"><ele>398.50000000000006</ele><time>2026-05-02T12:31:17.452Z</time></trkpt><trkpt lat="48.8810324" lon="9.4392258"><ele>397.0</ele><time>2026-05-02T12:31:18.452Z</time></trkpt><trkpt lat="48.8811109" lon="9.439175"><ele>397.00000000000006</ele><time>2026-05-02T12:31:19.452Z</time></trkpt><trkpt lat="48.881194" lon="9.4391486"><ele>397.0</ele><time>2026-05-02T12:31:20.452Z</time></trkpt><trkpt lat="48.8812779" lon="9.4391475"><ele>397.0</ele><time>2026-05-02T12:31:21.452Z</time></trkpt><trkpt lat="48.881358" lon="9.4391736"><ele>397.0</ele><time>2026-05-02T12:31:22.452Z</time></trkpt><trkpt lat="48.8814449" lon="9.4392268"><ele>397.00000000000006</ele><time>2026-05-02T12:31:23.452Z</time></trkpt><trkpt lat="48.8815179" lon="9.4392958"><ele>397.0</ele><time>2026-05-02T12:31:24.452Z</time></trkpt><trkpt lat="48.8815857" lon="9.4393839"><ele>397.00000000000006</ele><time>2026-05-02T12:31:25.451Z</time></trkpt><trkpt lat="48.8816406" lon="9.4394795"><ele>397.0</ele><time>2026-05-02T12:31:26.451Z</time></trkpt><trkpt lat="48.881691" lon="9.4395775"><ele>397.0</ele><time>2026-05-02T12:31:27.451Z</time></trkpt><trkpt lat="48.8817368" lon="9.439685"><ele>397.0</ele><time>2026-05-02T12:31:28.452Z</time></trkpt><trkpt lat="48.8817809" lon="9.4397934"><ele>397.00000000000006</ele><time>2026-05-02T12:31:29.452Z</time></trkpt><trkpt lat="48.881817" lon="9.4399014"><ele>397.0</ele><time>2026-05-02T12:31:30.451Z</time></trkpt><trkpt lat="48.8818555" lon="9.4400104"><ele>397.83333333333337</ele><time>2026-05-02T12:31:31.451Z</time></trkpt><trkpt lat="48.8818951" lon="9.4401119"><ele>398.6666666666667</ele><time>2026-05-02T12:31:32.452Z</time></trkpt><trkpt lat="48.8819298" lon="9.4402221"><ele>399.5</ele><time>2026-05-02T12:31:33.452Z</time></trkpt><trkpt lat="48.8819733" lon="9.4403207"><ele>400.33333333333337</ele><time>2026-05-02T12:31:34.452Z</time></trkpt><trkpt lat="48.8820251" lon="9.4404028"><ele>401.1666666666667</ele><time>2026-05-02T12:31:35.452Z</time></trkpt><trkpt lat="48.8820829" lon="9.4404786"><ele>402.0</ele><time>2026-05-02T12:31:36.452Z</time></trkpt><trkpt lat="48.8821537" lon="9.4405394"><ele>403.57142857142856</ele><time>2026-05-02T12:31:37.452Z</time></trkpt><trkpt lat="48.8822208" lon="9.4405882"><ele>405.14285714285717</ele><time>2026-05-02T12:31:38.451Z</time></trkpt><trkpt lat="48.8822874" lon="9.4406397"><ele>406.7142857142857</ele><time>2026-05-02T12:31:39.452Z</time></trkpt><trkpt lat="48.8823555" lon="9.4406888"><ele>408.2857142857143</ele><time>2026-05-02T12:31:40.452Z</time></trkpt><trkpt lat="48.8824291" lon="9.4407347"><ele>409.8571428571429</ele><time>2026-05-02T12:31:41.46Z</time></trkpt><trkpt lat="48.882488" lon="9.4407773"><ele>411.42857142857144</ele><time>2026-05-02T12:31:42.46Z</time></trkpt><trkpt lat="48.8825503" lon="9.4408351"><ele>413.0</ele><time>2026-05-02T12:31:43.46Z</time></trkpt><trkpt lat="48.8826169" lon="9.440897"><ele>413.99999999999994</ele><time>2026-05-02T12:31:44.459Z</time></trkpt><trkpt lat="48.8826773" lon="9.4409591"><ele>415.0</ele><time>2026-05-02T12:31:45.46Z</time></trkpt><trkpt lat="48.8827324" lon="9.4410309"><ele>416.0</ele><time>2026-05-02T12:31:46.46Z</time></trkpt><trkpt lat="48.8827864" lon="9.4411091"><ele>417.0</ele><time>2026-05-02T12:31:47.46Z</time></trkpt><trkpt lat="48.8828427" lon="9.4412"><ele>417.99999999999994</ele><time>2026-05-02T12:31:48.459Z</time></trkpt><trkpt lat="48.8828839" lon="9.4413062"><ele>419.0</ele><time>2026-05-02T12:31:49.46Z</time></trkpt><trkpt lat="48.882915" lon="9.4414271"><ele>419.99999999999994</ele><time>2026-05-02T12:31:50.46Z</time></trkpt><trkpt lat="48.88294" lon="9.4415545"><ele>421.0</ele><time>2026-05-02T12:31:51.46Z</time></trkpt><trkpt lat="48.8829479" lon="9.4416859"><ele>422.0</ele><time>2026-05-02T12:31:52.46Z</time></trkpt><trkpt lat="48.8829471" lon="9.441809"><ele>423.0</ele><time>2026-05-02T12:31:53.46Z</time></trkpt><trkpt lat="48.8829406" lon="9.4419178"><ele>423.99999999999994</ele><time>2026-05-02T12:31:54.46Z</time></trkpt><trkpt lat="48.8829349" lon="9.4420171"><ele>425.0</ele><time>2026-05-02T12:31:55.46Z</time></trkpt><trkpt lat="48.8829179" lon="9.442158"><ele>424.99999999999994</ele><time>2026-05-02T12:31:57.459Z</time></trkpt><trkpt lat="48.8828425" lon="9.4422299"><ele>425.0</ele><time>2026-05-02T12:32:00.46Z</time></trkpt><trkpt lat="48.8827803" lon="9.4421595"><ele>425.0</ele><time>2026-05-02T12:32:02.459Z</time></trkpt><trkpt lat="48.8827177" lon="9.4420572"><ele>425.0</ele><time>2026-05-02T12:32:04.46Z</time></trkpt><trkpt lat="48.8826445" lon="9.4419906"><ele>424.99999999999994</ele><time>2026-05-02T12:32:06.459Z</time></trkpt><trkpt lat="48.8825575" lon="9.4419452"><ele>425.0</ele><time>2026-05-02T12:32:08.46Z</time></trkpt><trkpt lat="48.8824869" lon="9.4419066"><ele>423.66666666666663</ele><time>2026-05-02T12:32:10.46Z</time></trkpt><trkpt lat="48.8824067" lon="9.4418716"><ele>422.3333333333333</ele><time>2026-05-02T12:32:12.46Z</time></trkpt><trkpt lat="48.8823262" lon="9.4418346"><ele>421.0</ele><time>2026-05-02T12:32:14.46Z</time></trkpt><trkpt lat="48.8822541" lon="9.4418091"><ele>419.66666666666663</ele><time>2026-05-02T12:32:16.459Z</time></trkpt><trkpt lat="48.8821885" lon="9.4417905"><ele>418.3333333333333</ele><time>2026-05-02T12:32:18.46Z</time></trkpt><trkpt lat="48.8821031" lon="9.4417503"><ele>417.0</ele><time>2026-05-02T12:32:20.46Z</time></trkpt><trkpt lat="48.8820157" lon="9.4417181"><ele>417.0</ele><time>2026-05-02T12:32:22.46Z</time></trkpt><trkpt lat="48.8819321" lon="9.4416737"><ele>417.0</ele><time>2026-05-02T12:32:24.459Z</time></trkpt><trkpt lat="48.8818625" lon="9.4416216"><ele>417.0</ele><time>2026-05-02T12:32:26.46Z</time></trkpt><trkpt lat="48.8817963" lon="9.4415579"><ele>417.0</ele><time>2026-05-02T12:32:28.46Z</time></trkpt><trkpt lat="48.8817314" lon="9.4414817"><ele>417.0</ele><time>2026-05-02T12:32:31.46Z</time></trkpt><trkpt lat="48.881669" lon="9.4415196"><ele>417.0</ele><time>2026-05-02T12:32:35.46Z</time></trkpt><trkpt lat="48.8817322" lon="9.4415465"><ele>417.0</ele><time>2026-05-02T12:32:39.46Z</time></trkpt><trkpt lat="48.8818144" lon="9.4416207"><ele>417.0</ele><time>2026-05-02T12:32:42.46Z</time></trkpt><trkpt lat="48.8818774" lon="9.4416642"><ele>417.0</ele><time>2026-05-02T12:32:45.46Z</time></trkpt><trkpt lat="48.8819494" lon="9.4417077"><ele>417.0</ele><time>2026-05-02T12:32:48.46Z</time></trkpt><trkpt lat="48.8820253" lon="9.4417362"><ele>417.0</ele><time>2026-05-02T12:32:51.459Z</time></trkpt><trkpt lat="48.8821025" lon="9.4417621"><ele>417.0</ele><time>2026-05-02T12:32:53.46Z</time></trkpt><trkpt lat="48.8821919" lon="9.4417891"><ele>417.0</ele><time>2026-05-02T12:32:55.46Z</time></trkpt><trkpt lat="48.882274" lon="9.4418201"><ele>417.0</ele><time>2026-05-02T12:32:57.46Z</time></trkpt><trkpt lat="48.8823292" lon="9.441874"><ele>417.0</ele><time>2026-05-02T12:32:59.46Z</time></trkpt><trkpt lat="48.8823233" lon="9.4419993"><ele>417.0</ele><time>2026-05-02T12:33:02.46Z</time></trkpt><trkpt lat="48.8823013" lon="9.4421192"><ele>417.0</ele><time>2026-05-02T12:33:05.46Z</time></trkpt><trkpt lat="48.8823164" lon="9.4422278"><ele>417.0</ele><time>2026-05-02T12:38:29.47Z</time></trkpt><trkpt lat="48.8823338" lon="9.4420962"><ele>417.0</ele><time>2026-05-02T12:43:45.47Z</time></trkpt><trkpt lat="48.8823473" lon="9.4419998"><ele>417.0</ele><time>2026-05-02T12:43:48.47Z</time></trkpt><trkpt lat="48.8823339" lon="9.4419049"><ele>417.0</ele><time>2026-05-02T12:43:54.469Z</time></trkpt><trkpt lat="48.8822834" lon="9.4418342"><ele>417.0</ele><time>2026-05-02T12:43:57.47Z</time></trkpt><trkpt lat="48.8822012" lon="9.4417989"><ele>417.0</ele><time>2026-05-02T12:43:59.47Z</time></trkpt><trkpt lat="48.8821074" lon="9.4417541"><ele>417.0</ele><time>2026-05-02T12:44:01.47Z</time></trkpt><trkpt lat="48.8820166" lon="9.4417118"><ele>417.0</ele><time>2026-05-02T12:44:03.47Z</time></trkpt><trkpt lat="48.8819334" lon="9.4416715"><ele>417.0</ele><time>2026-05-02T12:44:05.47Z</time></trkpt><trkpt lat="48.8818543" lon="9.4416243"><ele>417.0</ele><time>2026-05-02T12:44:07.47Z</time></trkpt><trkpt lat="48.8817961" lon="9.4415709"><ele>417.0</ele><time>2026-05-02T12:44:09.47Z</time></trkpt><trkpt lat="48.8817174" lon="9.4415253"><ele>417.0</ele><time>2026-05-02T12:44:12.47Z</time></trkpt><trkpt lat="48.8816489" lon="9.4415859"><ele>417.0</ele><time>2026-05-02T12:44:15.47Z</time></trkpt><trkpt lat="48.8816016" lon="9.4416649"><ele>414.0</ele><time>2026-05-02T12:44:17.47Z</time></trkpt><trkpt lat="48.8815739" lon="9.4417928"><ele>414.0</ele><time>2026-05-02T12:44:20.47Z</time></trkpt><trkpt lat="48.8816254" lon="9.4418629"><ele>414.0</ele><time>2026-05-02T12:44:23.47Z</time></trkpt><trkpt lat="48.8816854" lon="9.4419057"><ele>414.0</ele><time>2026-05-02T12:44:26.47Z</time></trkpt><trkpt lat="48.8817505" lon="9.4418567"><ele>414.0</ele><time>2026-05-02T12:47:17.477Z</time></trkpt></trkseg></trk></gpx>